Provisional Data: Lititz Run near Lititz, PA


Please select a monitoring station.
Please select start date.
Please select start date.

Toggle Unit: C/F Toggle Unit: C/F
Sample Time Temperature (C) Temperature (F) Specific Conductivity (mS/cm) pH   Turbidity (NTU+) DO (mg/L)
8/1/2022 12:00:00 AM 19.35 66.83 1.154 8.12 25.32 7.52
8/1/2022 12:15:00 AM 19.27 66.686 1.156 8.1 30.45 7.53
8/1/2022 12:30:00 AM 19.19 66.542 1.163 8.1 34.95 7.54
8/1/2022 12:45:00 AM 19.12 66.416 1.16 8.08 37.84 7.56
8/1/2022 1:00:00 AM 19.03 66.254 1.145 8.06 37.96 7.6
8/1/2022 1:15:00 AM 18.91 66.038 1.134 8.05 35.34 7.61
8/1/2022 1:30:00 AM 18.8 65.84 1.126 8.05 32.33 7.63
8/1/2022 1:45:00 AM 18.72 65.696 1.115 8.03 30.14 7.61
8/1/2022 2:00:00 AM 18.67 65.606 1.092 8.02 27.4 7.57
8/1/2022 2:15:00 AM 18.64 65.552 1.051 8 25.06 7.53
8/1/2022 2:30:00 AM 18.6 65.48 0.999 7.99 23.87 7.51
8/1/2022 2:45:00 AM 18.56 65.408 0.945 7.98 23.2 7.47
8/1/2022 3:00:00 AM 18.53 65.354 0.898 7.97 23.25 7.44
8/1/2022 3:15:00 AM 18.51 65.318 0.858 7.94 22.82 7.42
8/1/2022 3:30:00 AM 18.51 65.318 0.825 7.94 22.38 7.39
8/1/2022 3:45:00 AM 18.55 65.39 0.797 7.94 21.5 7.35
8/1/2022 4:00:00 AM 18.64 65.552 0.772 7.92 21.31 7.29
8/1/2022 4:15:00 AM 18.75 65.75 0.752 7.91 21.69 7.22
8/1/2022 4:30:00 AM 18.87 65.966 0.737 7.91 21.28 7.17
8/1/2022 4:45:00 AM 18.98 66.164 0.726 7.89 20.6 7.13
8/1/2022 5:00:00 AM 19.08 66.344 0.716 7.89 20.34 7.09
8/1/2022 5:15:00 AM 19.15 66.47 0.708 7.88 19.6 7.06
8/1/2022 5:30:00 AM 19.19 66.542 0.7 7.89 20.31 7.03
8/1/2022 5:45:00 AM 19.21 66.578 0.693 7.87 19.25 7.06
8/1/2022 6:00:00 AM 19.21 66.578 0.689 7.88 18.58 7.06
8/1/2022 6:15:00 AM 19.2 66.56 0.686 7.88 17.48 7.1
8/1/2022 6:30:00 AM 19.17 66.506 0.684 7.87 16.66 7.11
8/1/2022 6:45:00 AM 19.14 66.452 0.683 7.88 15.97 7.15
8/1/2022 7:00:00 AM 19.1 66.38 0.684 7.89 15.52 7.17
8/1/2022 7:15:00 AM 19.07 66.326 0.686 7.88 14.42 7.2
8/1/2022 7:30:00 AM 19.03 66.254 0.689 7.89 14.3 7.22
8/1/2022 7:45:00 AM 18.99 66.182 0.692 7.9 13.49 7.26
8/1/2022 8:00:00 AM 19 66.2 0.678 7.44 12.39 7.47
8/1/2022 8:15:00 AM 18.96 66.128 0.681 7.46 11.84 7.49
8/1/2022 8:30:00 AM 18.94 66.092 0.685 7.47 11.86 7.53
8/1/2022 8:45:00 AM 18.91 66.038 0.693 7.48 12.18 7.58
8/1/2022 9:00:00 AM 18.89 66.002 0.708 7.49 13.02 7.61
8/1/2022 9:15:00 AM 18.87 65.966 0.723 7.49 11.85 7.67
8/1/2022 9:30:00 AM 18.85 65.93 0.74 7.5 12.84 7.72
8/1/2022 9:45:00 AM 18.82 65.876 0.754 7.51 13.14 7.77
8/1/2022 10:00:00 AM 18.78 65.804 0.764 7.51 12.97 7.82
8/1/2022 10:15:00 AM 18.75 65.75 0.775 7.52 13.01 7.92
8/1/2022 10:30:00 AM 18.72 65.696 0.784 7.54 11.99 8.04
8/1/2022 10:45:00 AM 18.7 65.66 0.794 7.55 13.07 8.15
8/1/2022 11:00:00 AM 18.68 65.624 0.806 7.57 12.53 8.24
8/1/2022 11:15:00 AM 18.65 65.57 0.821 7.58 12.21 8.3
8/1/2022 11:30:00 AM 18.61 65.498 0.833 7.59 11.04 8.31
8/1/2022 11:45:00 AM 18.58 65.444 0.845 7.6 11.33 8.35
8/1/2022 12:00:00 PM 18.53 65.354 0.856 7.6 10.28 8.4
8/1/2022 12:15:00 PM 18.48 65.264 0.869 7.61 10.65 8.49
8/1/2022 12:30:00 PM 18.47 65.246 0.885 7.63 9.85 8.62
8/1/2022 12:45:00 PM 18.49 65.282 0.906 7.66 9.62 8.77
8/1/2022 1:00:00 PM 18.55 65.39 0.929 7.68 9.13 8.92
8/1/2022 1:15:00 PM 18.62 65.516 0.949 7.71 8.94 9.04
8/1/2022 1:30:00 PM 18.66 65.588 0.965 7.72 8.78 9.08
8/1/2022 1:45:00 PM 18.67 65.606 0.976 7.73 7.81 9.01
8/1/2022 2:00:00 PM 18.7 65.66 0.984 7.73 8.29 8.98
8/1/2022 2:15:00 PM 18.7 65.66 0.988 7.74 8.46 8.94
8/1/2022 2:30:00 PM 18.7 65.66 0.991 7.75 8.05 8.98
8/1/2022 2:45:00 PM 18.69 65.642 0.992 7.75 7.98 8.99
8/1/2022 3:00:00 PM 18.74 65.732 0.993 7.76 7.54 9.1
8/1/2022 3:15:00 PM 18.84 65.912 0.998 7.78 7.85 9.18
8/1/2022 3:30:00 PM 18.93 66.074 1.004 7.8 7.62 9.28
8/1/2022 3:45:00 PM 19.07 66.326 1.011 7.82 7.62 9.34
8/1/2022 4:00:00 PM 19.2 66.56 1.017 7.83 7.62 9.37
8/1/2022 4:15:00 PM 19.35 66.83 1.022 7.85 7.51 9.39
8/1/2022 4:30:00 PM 19.42 66.956 1.025 7.85 8.71 9.32
8/1/2022 4:45:00 PM 19.43 66.974 1.028 7.84 7.89 9.22
8/1/2022 5:00:00 PM 19.45 67.01 1.029 7.84 7.77 9.17
8/1/2022 5:15:00 PM 19.48 67.064 1.03 7.84 7.39 9.13
8/1/2022 5:30:00 PM 19.5 67.1 1.031 7.84 7.44 9.06
8/1/2022 5:45:00 PM 19.53 67.154 1.03 7.84 7.62 8.98
8/1/2022 6:00:00 PM 19.55 67.19 1.027 7.83 7.13 8.92
8/1/2022 6:15:00 PM 19.59 67.262 1.024 7.83 7.67 8.88
8/1/2022 6:30:00 PM 19.58 67.244 1.018 7.83 7.44 8.83
8/1/2022 6:45:00 PM 19.56 67.208 1.007 7.82 7.02 8.76
8/1/2022 7:00:00 PM 19.54 67.172 0.989 7.82 7.13 8.71
8/1/2022 7:15:00 PM 19.53 67.154 0.962 7.81 7.19 8.65
8/1/2022 7:30:00 PM 19.52 67.136 0.916 7.81 7.55 8.59
8/1/2022 7:45:00 PM 19.5 67.1 0.841 7.8 7.02 8.53
8/1/2022 8:00:00 PM 19.48 67.064 0.767 7.79 7.54 8.46
8/1/2022 8:15:00 PM 19.45 67.01 0.689 7.79 8.09 8.4
8/1/2022 8:30:00 PM 19.41 66.938 0.539 7.78 7.98 8.35
8/1/2022 8:45:00 PM 19.37 66.866 0.332 7.77 8.84 8.3
8/1/2022 9:00:00 PM 19.32 66.776 0.245 7.76 10.7 8.25
8/1/2022 9:15:00 PM 19.28 66.704 0.193 7.75 10.27 8.19
8/1/2022 9:30:00 PM 19.23 66.614 0.163 7.75 10.59 8.14
8/1/2022 9:45:00 PM 19.18 66.524 0.147 7.74 10.91 8.1
8/1/2022 10:00:00 PM 19.14 66.452 0.137 7.73 11.54 8.06
8/1/2022 10:15:00 PM 19.1 66.38 0.128 7.73 11.5 8.03
8/1/2022 10:30:00 PM 19.04 66.272 0.121 7.72 12.81 8
8/1/2022 10:45:00 PM 18.99 66.182 0.114 7.71 12.33 7.97
8/1/2022 11:00:00 PM 18.93 66.074 0.114 7.71 11.66 7.94
8/1/2022 11:15:00 PM 18.87 65.966 0.11 7.7 11.89 7.91
8/1/2022 11:30:00 PM 18.81 65.858 0.11 7.69 11.69 7.88
8/1/2022 11:45:00 PM 18.76 65.768 0.108 7.69 12.22 7.85
8/2/2022 12:00:00 AM 18.71 65.67799 0.107 7.68 12.83 7.82
8/2/2022 12:15:00 AM 18.67 65.606 0.105 7.67 11.52 7.8
8/2/2022 12:30:00 AM 18.64 65.552 0.107 7.67 11.6 7.78
8/2/2022 12:45:00 AM 18.6 65.48 0.108 7.67 13.37 7.76
8/2/2022 1:00:00 AM 18.57 65.426 0.11 7.67 12.65 7.75
8/2/2022 1:15:00 AM 18.55 65.39 0.111 7.67 12.17 7.75
8/2/2022 1:30:00 AM 18.52 65.336 0.109 7.66 11.74 7.73
8/2/2022 1:45:00 AM 18.49 65.282 0.108 7.66 12.48 7.72
8/2/2022 2:00:00 AM 18.46 65.228 0.107 7.66 12.14 7.71
8/2/2022 2:15:00 AM 18.44 65.192 0.107 7.66 13.56 7.71
8/2/2022 2:30:00 AM 18.41 65.138 0.107 7.66 11.55 7.7
8/2/2022 2:45:00 AM 18.37 65.066 0.107 7.65 12.21 7.69
8/2/2022 3:00:00 AM 18.34 65.012 0.109 7.65 12.38 7.69
8/2/2022 3:15:00 AM 18.31 64.958 0.11 7.65 11.96 7.69
8/2/2022 3:30:00 AM 18.28 64.904 0.11 7.65 11.87 7.69
8/2/2022 3:45:00 AM 18.25 64.85 0.108 7.64 12.53 7.69
8/2/2022 4:00:00 AM 18.22 64.796 0.109 7.65 10.8 7.7
8/2/2022 4:15:00 AM 18.2 64.76 0.109 7.65 12.09 7.7
8/2/2022 4:30:00 AM 18.16 64.688 0.109 7.65 11.44 7.7
8/2/2022 4:45:00 AM 18.13 64.634 0.109 7.65 11.87 7.7
8/2/2022 5:00:00 AM 18.08 64.544 0.107 7.65 13.41 7.72
8/2/2022 5:15:00 AM 18.04 64.472 0.107 7.65 11.4 7.72
8/2/2022 5:30:00 AM 18 64.4 0.106 7.65 10.87 7.74
8/2/2022 5:45:00 AM 17.96 64.328 0.106 7.65 12.44 7.75
8/2/2022 6:00:00 AM 17.91 64.238 0.106 7.65 11.9 7.77
8/2/2022 6:15:00 AM 17.86 64.148 0.105 7.65 10.91 7.79
8/2/2022 6:30:00 AM 17.81 64.058 0.101 7.65 10.3 7.83
8/2/2022 6:45:00 AM 17.76 63.968 0.104 7.66 10.33 7.86
8/2/2022 7:00:00 AM 17.71 63.878 0.102 7.66 8.98 7.91
8/2/2022 7:15:00 AM 17.66 63.788 0.101 7.66 8.99 7.95
8/2/2022 7:30:00 AM 17.61 63.698 0.1 7.67 8.71 8
8/2/2022 7:45:00 AM 17.58 63.644 0.1 7.67 9.16 8.07
8/2/2022 8:00:00 AM 17.55 63.59 0.096 7.68 9.52 8.13
8/2/2022 8:15:00 AM 17.52 63.536 0.099 7.68 8.77 8.19
8/2/2022 8:30:00 AM 17.49 63.482 0.096 7.69 8.89 8.25
8/2/2022 8:45:00 AM 17.48 63.464 0.096 7.69 8.84 8.32
8/2/2022 9:00:00 AM 17.49 63.482 0.095 7.7 8.89 8.4
8/2/2022 9:15:00 AM 17.51 63.518 0.094 7.71 7.93 8.49
8/2/2022 9:30:00 AM 17.54 63.572 0.093 7.72 8.25 8.56
8/2/2022 9:45:00 AM 17.58 63.644 0.093 7.74 8.88 8.63
8/2/2022 10:00:00 AM 17.67 63.806 0.093 7.74 8.02 8.72
8/2/2022 10:15:00 AM 17.77 63.986 0.092 7.76 8.36 8.8
8/2/2022 10:30:00 AM 17.87 64.166 0.09 7.77 7.99 8.88
8/2/2022 10:45:00 AM 17.98 64.364 0.091 7.78 7.74 8.95
8/2/2022 11:00:00 AM 18.1 64.58 0.091 7.79 8.25 9.03
8/2/2022 11:15:00 AM 18.24 64.832 0.09 7.8 9.35 9.12
8/2/2022 11:30:00 AM 18.37 65.066 0.09 7.81 7.92 9.17
8/2/2022 11:45:00 AM 18.53 65.354 0.089 7.83 7.85 9.26
8/2/2022 12:00:00 PM 18.7 65.66 0.088 7.84 8.39 9.33
8/2/2022 12:15:00 PM 18.87 65.966 0.089 7.85 7.63 9.39
8/2/2022 12:30:00 PM 19.08 66.344 0.089 7.86 7.59 9.43
8/2/2022 12:45:00 PM 19.33 66.794 0.089 7.87 7.36 9.5
8/2/2022 1:00:00 PM 19.59 67.262 0.089 7.88 7.34 9.54
8/2/2022 1:15:00 PM 19.85 67.73 0.089 7.89 6.58 9.55
8/2/2022 1:30:00 PM 20.12 68.216 0.09 7.9 7.32 9.54
8/2/2022 1:45:00 PM 20.4 68.72 0.093 7.91 7.49 9.55
8/2/2022 2:00:00 PM 20.67 69.206 0.092 7.91 7.83 9.56
8/2/2022 2:15:00 PM 20.89 69.602 0.094 7.92 7.73 9.5
8/2/2022 2:30:00 PM 21.09 69.962 0.094 7.92 7.91 9.43
8/2/2022 2:45:00 PM 21.25 70.25 0.094 7.92 7.69 9.31
8/2/2022 3:00:00 PM 21.45 70.61 0.095 7.92 7.63 9.26
8/2/2022 3:15:00 PM 21.62 70.916 0.095 7.93 7.21 9.22
8/2/2022 3:30:00 PM 21.77 71.186 0.095 7.93 7.02 9.17
8/2/2022 3:45:00 PM 21.92 71.456 0.096 7.93 7.17 9.12
8/2/2022 4:00:00 PM 22.07 71.726 0.097 7.93 6.96 9.05
8/2/2022 4:15:00 PM 22.26 72.068 0.096 7.93 7.48 9.01
8/2/2022 4:30:00 PM 22.42 72.356 0.098 7.94 6.91 8.95
8/2/2022 4:45:00 PM 22.57 72.626 0.097 7.94 7.59 8.88
8/2/2022 5:00:00 PM 22.68 72.824 0.096 7.94 6.7 8.79
8/2/2022 5:15:00 PM 22.75 72.95 0.096 7.93 6.83 8.67
8/2/2022 5:30:00 PM 22.76 72.968 0.097 7.92 7.08 8.54
8/2/2022 5:45:00 PM 22.75 72.95 0.094 7.92 6.43 8.45
8/2/2022 6:00:00 PM 22.73 72.914 0.096 7.91 6.22 8.38
8/2/2022 6:15:00 PM 22.68 72.824 0.095 7.9 6.48 8.28
8/2/2022 6:30:00 PM 22.62 72.716 0.092 7.89 6.75 8.2
8/2/2022 6:45:00 PM 22.55 72.59 0.093 7.88 6.94 8.14
8/2/2022 7:00:00 PM 22.47 72.446 0.091 7.87 6.14 8.09
8/2/2022 7:15:00 PM 22.4 72.32 0.091 7.87 5.46 8.03
8/2/2022 7:30:00 PM 22.32 72.176 0.09 7.86 5.97 7.98
8/2/2022 7:45:00 PM 22.22 71.996 0.087 7.85 7.55 7.92
8/2/2022 8:00:00 PM 22.12 71.816 0.086 7.84 6.55 7.86
8/2/2022 8:15:00 PM 22.02 71.636 0.086 7.83 6.32 7.79
8/2/2022 8:30:00 PM 21.92 71.456 0.084 7.82 7.28 7.72
8/2/2022 8:45:00 PM 21.82 71.276 0.085 7.81 7.88 7.67
8/2/2022 9:00:00 PM 21.72 71.096 0.083 7.81 8.29 7.62
8/2/2022 9:15:00 PM 21.62 70.916 0.085 7.8 9.84 7.57
8/2/2022 9:30:00 PM 21.52 70.736 0.08 7.78 9.08 7.53
8/2/2022 9:45:00 PM 21.42 70.556 0.082 7.78 8.5 7.49
8/2/2022 10:00:00 PM 21.32 70.376 0.081 7.77 10.35 7.47
8/2/2022 10:15:00 PM 21.23 70.214 0.081 7.76 10.39 7.44
8/2/2022 10:30:00 PM 21.15 70.07 0.08 7.75 10.2 7.41
8/2/2022 10:45:00 PM 21.06 69.908 0.08 7.74 11.48 7.38
8/2/2022 11:00:00 PM 20.97 69.746 0.08 7.73 11.48 7.36
8/2/2022 11:15:00 PM 20.88 69.584 0.079 7.73 10.93 7.34
8/2/2022 11:30:00 PM 20.77 69.386 0.079 7.72 11.08 7.32
8/2/2022 11:45:00 PM 20.66 69.188 0.078 7.72 11.4 7.31
8/3/2022 12:00:00 AM 20.54 68.972 0.077 7.71 11.43 7.3
8/3/2022 12:15:00 AM 20.43 68.774 0.077 7.7 12.5 7.29
8/3/2022 12:30:00 AM 20.33 68.594 0.075 7.7 11.87 7.29
8/3/2022 12:45:00 AM 20.22 68.396 0.076 7.69 10.89 7.28
8/3/2022 1:00:00 AM 20.12 68.216 0.075 7.69 12.22 7.29
8/3/2022 1:15:00 AM 20.03 68.054 0.076 7.68 12.16 7.29
8/3/2022 1:30:00 AM 19.94 67.892 0.075 7.68 11.78 7.3
8/3/2022 1:45:00 AM 19.86 67.748 0.074 7.67 12.29 7.3
8/3/2022 2:00:00 AM 19.78 67.604 0.074 7.67 13.08 7.31
8/3/2022 2:15:00 AM 19.71 67.478 0.073 7.67 12.49 7.31
8/3/2022 2:30:00 AM 19.64 67.352 0.073 7.66 11.91 7.32
8/3/2022 2:45:00 AM 19.58 67.244 0.077 7.66 12.05 7.31
8/3/2022 3:00:00 AM 19.52 67.136 0.076 7.66 12.13 7.32
8/3/2022 3:15:00 AM 19.46 67.028 0.074 7.66 13.88 7.33
8/3/2022 3:30:00 AM 19.38 66.884 0.073 7.66 12.5 7.35
8/3/2022 3:45:00 AM 19.3 66.74 0.073 7.66 12.36 7.36
8/3/2022 4:00:00 AM 19.22 66.596 0.072 7.66 11.85 7.37
8/3/2022 4:15:00 AM 19.14 66.452 0.073 7.66 12.41 7.39
8/3/2022 4:30:00 AM 19.06 66.308 0.072 7.66 13.26 7.4
8/3/2022 4:45:00 AM 18.97 66.146 0.071 7.66 12.45 7.42
8/3/2022 5:00:00 AM 18.89 66.002 0.071 7.66 13.09 7.44
8/3/2022 5:15:00 AM 18.81 65.858 0.071 7.66 12.96 7.47
8/3/2022 5:30:00 AM 18.73 65.714 0.069 7.66 12.69 7.49
8/3/2022 5:45:00 AM 18.65 65.57 0.069 7.66 13.21 7.52
8/3/2022 6:00:00 AM 18.57 65.426 0.068 7.67 12.11 7.56
8/3/2022 6:15:00 AM 18.49 65.282 0.069 7.67 11.26 7.59
8/3/2022 6:30:00 AM 18.42 65.156 0.069 7.67 11.36 7.62
8/3/2022 6:45:00 AM 18.36 65.048 0.069 7.67 10.01 7.64
8/3/2022 7:00:00 AM 18.3 64.94 0.068 7.67 11.21 7.67
8/3/2022 7:15:00 AM 18.24 64.832 0.069 7.68 10.35 7.71
8/3/2022 7:30:00 AM 18.18 64.724 0.068 7.68 9.58 7.76
8/3/2022 7:45:00 AM 18.11 64.598 0.068 7.68 9.5 7.82
8/3/2022 8:00:00 AM 18.03 64.454 0.066 7.69 11.47 7.88
8/3/2022 8:15:00 AM 17.95 64.31 0.067 7.7 8.46 7.96
8/3/2022 8:30:00 AM 17.88 64.184 0.065 7.7 8.32 8.04
8/3/2022 8:45:00 AM 17.83 64.094 0.063 7.71 7.7 8.15
8/3/2022 9:00:00 AM 17.79 64.022 0.063 7.72 7.57 8.26
8/3/2022 9:15:00 AM 17.78 64.004 0.063 7.73 9.05 8.38
8/3/2022 9:30:00 AM 17.77 63.986 0.061 7.74 8.36 8.48
8/3/2022 9:45:00 AM 17.78 64.004 0.064 7.75 7.24 8.57
8/3/2022 10:00:00 AM 17.81 64.058 0.061 7.76 7.67 8.68
8/3/2022 10:15:00 AM 17.85 64.13 0.061 7.77 7.37 8.77
8/3/2022 10:30:00 AM 17.91 64.238 0.062 7.79 7.74 8.85
8/3/2022 10:45:00 AM 17.99 64.382 0.061 7.8 8.6 8.94
8/3/2022 11:00:00 AM 18.1 64.58 0.061 7.81 7.23 9.02
8/3/2022 11:15:00 AM 18.21 64.778 0.062 7.82 8.32 9.11
8/3/2022 11:30:00 AM 18.35 65.03 0.063 7.82 7.7 9.17
8/3/2022 11:45:00 AM 18.48 65.264 0.062 7.84 7.86 9.24
8/3/2022 12:00:00 PM 18.63 65.534 0.062 7.85 7.95 9.3
8/3/2022 12:15:00 PM 18.81 65.858 0.062 7.86 7.77 9.39
8/3/2022 12:30:00 PM 19.01 66.218 0.063 7.87 7.36 9.45
8/3/2022 12:45:00 PM 19.22 66.596 0.064 7.88 8.03 9.52
8/3/2022 1:00:00 PM 19.46 67.028 0.063 7.89 7.16 9.57
8/3/2022 1:15:00 PM 19.71 67.478 0.066 7.91 6.33 9.6
8/3/2022 1:30:00 PM 19.99 67.982 0.065 7.91 6.84 9.64
8/3/2022 1:45:00 PM 20.29 68.522 0.067 7.93 6.92 9.67
8/3/2022 2:00:00 PM 20.58 69.044 0.068 7.94 6.41 9.66
8/3/2022 2:15:00 PM 20.86 69.548 0.069 7.94 6.77 9.64
8/3/2022 2:30:00 PM 21.14 70.052 0.07 7.95 6.5 9.6
8/3/2022 2:45:00 PM 21.38 70.484 0.072 7.95 6.31 9.54
8/3/2022 3:00:00 PM 21.62 70.916 0.072 7.96 6.48 9.47
8/3/2022 3:15:00 PM 21.84 71.312 0.074 7.96 7.11 9.4
8/3/2022 3:30:00 PM 22.05 71.69 0.074 7.96 6.89 9.32
8/3/2022 3:45:00 PM 22.24 72.032 0.075 7.96 6.45 9.24
8/3/2022 4:00:00 PM 22.41 72.338 0.075 7.96 6.28 9.15
8/3/2022 4:15:00 PM 22.56 72.608 0.077 7.96 6.93 9.07
8/3/2022 4:30:00 PM 22.69 72.842 0.077 7.96 6.75 8.99
8/3/2022 4:45:00 PM 22.81 73.058 0.077 7.95 6.43 8.92
8/3/2022 5:00:00 PM 22.9 73.22 0.077 7.95 6.81 8.83
8/3/2022 5:15:00 PM 22.97 73.346 0.078 7.95 6.92 8.71
8/3/2022 5:30:00 PM 22.99 73.382 0.078 7.94 6.6 8.61
8/3/2022 5:45:00 PM 23 73.4 0.077 7.94 6.54 8.52
8/3/2022 6:00:00 PM 22.99 73.382 0.077 7.93 7.08 8.41
8/3/2022 6:15:00 PM 22.96 73.328 0.076 7.92 7.17 8.3
8/3/2022 6:30:00 PM 22.9 73.22 0.075 7.91 6.2 8.2
8/3/2022 6:45:00 PM 22.84 73.112 0.077 7.9 6.26 8.15
8/3/2022 7:00:00 PM 22.76 72.968 0.077 7.9 6.13 8.08
8/3/2022 7:15:00 PM 22.68 72.824 0.078 7.89 6.8 8.04
8/3/2022 7:30:00 PM 22.6 72.68 0.077 7.88 5.91 7.98
8/3/2022 7:45:00 PM 22.51 72.518 0.077 7.87 6.38 7.89
8/3/2022 8:00:00 PM 22.42 72.356 0.075 7.85 7.32 7.81
8/3/2022 8:15:00 PM 22.34 72.212 0.075 7.84 7.09 7.73
8/3/2022 8:30:00 PM 22.24 72.032 0.075 7.83 9.3 7.65
8/3/2022 8:45:00 PM 22.14 71.852 0.074 7.82 8.2 7.58
8/3/2022 9:00:00 PM 22.04 71.672 0.073 7.81 8.97 7.53
8/3/2022 9:15:00 PM 21.94 71.492 0.075 7.8 9.07 7.49
8/3/2022 9:30:00 PM 21.85 71.33 0.073 7.8 9.62 7.45
8/3/2022 9:45:00 PM 21.75 71.15 0.072 7.79 10.45 7.41
8/3/2022 10:00:00 PM 21.66 70.988 0.072 7.78 9.53 7.39
8/3/2022 10:15:00 PM 21.57 70.826 0.072 7.77 10.57 7.37
8/3/2022 10:30:00 PM 21.47 70.646 0.071 7.77 11.09 7.34
8/3/2022 10:45:00 PM 21.37 70.466 0.071 7.76 10.1 7.34
8/3/2022 11:00:00 PM 21.28 70.304 0.07 7.75 11.34 7.32
8/3/2022 11:15:00 PM 21.17 70.106 0.07 7.75 11.44 7.3
8/3/2022 11:30:00 PM 21.07 69.926 0.069 7.74 11.49 7.29
8/3/2022 11:45:00 PM 20.97 69.746 0.07 7.74 11.94 7.28
8/4/2022 12:00:00 AM 20.87 69.566 0.069 7.73 12.92 7.26
8/4/2022 12:15:00 AM 20.78 69.404 0.069 7.72 12.35 7.24
8/4/2022 12:30:00 AM 20.7 69.26 0.069 7.72 12.34 7.23
8/4/2022 12:45:00 AM 20.61 69.098 0.068 7.71 11.76 7.22
8/4/2022 1:00:00 AM 20.54 68.972 0.069 7.7 11.66 7.21
8/4/2022 1:15:00 AM 20.47 68.846 0.067 7.7 11.96 7.2
8/4/2022 1:30:00 AM 20.4 68.72 0.069 7.69 11.43 7.19
8/4/2022 1:45:00 AM 20.33 68.594 0.069 7.69 11.04 7.19
8/4/2022 2:00:00 AM 20.26 68.468 0.068 7.69 10.6 7.21
8/4/2022 2:15:00 AM 20.2 68.36 0.068 7.69 11.56 7.21
8/4/2022 2:30:00 AM 20.13 68.234 0.069 7.68 11.92 7.21
8/4/2022 2:45:00 AM 20.07 68.126 0.067 7.68 11.24 7.21
8/4/2022 3:00:00 AM 20.01 68.018 0.068 7.68 12.84 7.22
8/4/2022 3:15:00 AM 19.94 67.892 0.069 7.68 12.45 7.23
8/4/2022 3:30:00 AM 19.88 67.784 0.067 7.68 13.81 7.24
8/4/2022 3:45:00 AM 19.82 67.676 0.067 7.68 13.89 7.25
8/4/2022 4:00:00 AM 19.76 67.568 0.066 7.68 12.2 7.25
8/4/2022 4:15:00 AM 19.71 67.478 0.066 7.68 11.85 7.26
8/4/2022 4:30:00 AM 19.66 67.388 0.07 7.68 11.73 7.27
8/4/2022 4:45:00 AM 19.6 67.28 0.068 7.68 11.83 7.28
8/4/2022 5:00:00 AM 19.55 67.19 0.067 7.68 12.37 7.29
8/4/2022 5:15:00 AM 19.49 67.082 0.067 7.68 12.69 7.31
8/4/2022 5:30:00 AM 19.44 66.992 0.067 7.68 13.4 7.32
8/4/2022 5:45:00 AM 19.37 66.866 0.067 7.67 13.69 7.34
8/4/2022 6:00:00 AM 19.31 66.758 0.067 7.68 13.24 7.36
8/4/2022 6:15:00 AM 19.24 66.632 0.067 7.68 11.85 7.39
8/4/2022 6:30:00 AM 19.17 66.506 0.068 7.68 11.59 7.43
8/4/2022 6:45:00 AM 19.09 66.362 0.068 7.68 11.51 7.47
8/4/2022 7:00:00 AM 19.01 66.218 0.068 7.68 9.92 7.51
8/4/2022 7:15:00 AM 18.94 66.092 0.067 7.68 10.27 7.56
8/4/2022 7:30:00 AM 18.86 65.948 0.065 7.68 9.98 7.62
8/4/2022 7:45:00 AM 18.78 65.804 0.065 7.68 10.01 7.68
8/4/2022 8:00:00 AM 18.71 65.67799 0.065 7.68 9.71 7.75
8/4/2022 8:15:00 AM 18.63 65.534 0.064 7.69 9.4 7.82
8/4/2022 8:30:00 AM 18.57 65.426 0.064 7.69 9.27 7.91
8/4/2022 8:45:00 AM 18.51 65.318 0.064 7.7 8.84 8.01
8/4/2022 9:00:00 AM 18.48 65.264 0.063 7.71 9.42 8.12
8/4/2022 9:15:00 AM 18.46 65.228 0.063 7.71 8.45 8.22
8/4/2022 9:30:00 AM 18.46 65.228 0.063 7.73 8.19 8.31
8/4/2022 9:45:00 AM 18.5 65.3 0.064 7.73 8.04 8.4
8/4/2022 10:00:00 AM 18.58 65.444 0.063 7.75 7.87 8.5
8/4/2022 10:15:00 AM 18.67 65.606 0.062 7.76 8.73 8.56
8/4/2022 10:30:00 AM 18.79 65.82201 0.063 7.76 8.68 8.63
8/4/2022 10:45:00 AM 18.94 66.092 0.064 7.78 8.86 8.72
8/4/2022 11:00:00 AM 19.08 66.344 0.064 7.78 8.67 8.79
8/4/2022 11:15:00 AM 19.23 66.614 0.065 7.8 8.58 8.87
8/4/2022 11:30:00 AM 19.38 66.884 0.063 7.8 8.05 8.93
8/4/2022 11:45:00 AM 19.54 67.172 0.065 7.82 8.23 8.98
8/4/2022 12:00:00 PM 19.7 67.46 0.064 7.83 8.29 9.06
8/4/2022 12:15:00 PM 19.89 67.802 0.065 7.84 7.75 9.14
8/4/2022 12:30:00 PM 20.1 68.18 0.064 7.85 8 9.22
8/4/2022 12:45:00 PM 20.32 68.576 0.066 7.86 8.5 9.27
8/4/2022 1:00:00 PM 20.55 68.99 0.067 7.87 9.33 9.3
8/4/2022 1:15:00 PM 20.76 69.368 0.068 7.87 12.17 9.27
8/4/2022 1:30:00 PM 21.01 69.818 0.068 7.88 12.79 9.27
8/4/2022 1:45:00 PM 21.28 70.304 0.071 7.9 10.09 9.38
8/4/2022 2:00:00 PM 21.54 70.772 0.07 7.91 9 9.44
8/4/2022 2:15:00 PM 21.8 71.24 0.072 7.93 7.68 9.42
8/4/2022 2:30:00 PM 22 71.6 0.072 7.93 7.97 9.33
8/4/2022 2:45:00 PM 22.25 72.05 0.074 7.94 8.24 9.29
8/4/2022 3:00:00 PM 22.45 72.41 0.075 7.94 7.34 9.21
8/4/2022 3:15:00 PM 22.67 72.806 0.076 7.94 7.42 9.15
8/4/2022 3:30:00 PM 22.92 73.256 0.078 7.95 7.18 9.12
8/4/2022 3:45:00 PM 23.13 73.634 0.077 7.96 8.16 9.05
8/4/2022 4:00:00 PM 23.32 73.976 0.079 7.96 7.23 8.98
8/4/2022 4:15:00 PM 23.48 74.264 0.079 7.96 6.62 8.91
8/4/2022 4:30:00 PM 23.63 74.534 0.079 7.96 7.02 8.83
8/4/2022 4:45:00 PM 23.74 74.732 0.08 7.95 6.96 8.76
8/4/2022 5:00:00 PM 23.84 74.912 0.082 7.95 7.51 8.69
8/4/2022 5:15:00 PM 23.9 75.02 0.083 7.94 6.48 8.54
8/4/2022 5:30:00 PM 23.9 75.02 0.082 7.93 6.35 8.35
8/4/2022 5:45:00 PM 23.92 75.056 0.084 7.93 6.76 8.28
8/4/2022 6:00:00 PM 23.88 74.984 0.081 7.92 6.26 8.18
8/4/2022 6:15:00 PM 23.8 74.84 0.081 7.91 6.22 8.02
8/4/2022 6:30:00 PM 23.69 74.642 0.081 7.9 5.66 7.91
8/4/2022 6:45:00 PM 23.58 74.444 0.081 7.88 5.9 7.85
8/4/2022 7:00:00 PM 23.5 74.3 0.081 7.88 5.98 7.82
8/4/2022 7:15:00 PM 23.42 74.156 0.08 7.87 6.25 7.75
8/4/2022 7:30:00 PM 23.33 73.994 0.081 7.86 6.24 7.66
8/4/2022 7:45:00 PM 23.25 73.85 0.081 7.85 7.48 7.58
8/4/2022 8:00:00 PM 23.15 73.67 0.078 7.84 6.9 7.51
8/4/2022 8:15:00 PM 23.06 73.508 0.077 7.83 8.8 7.42
8/4/2022 8:30:00 PM 22.96 73.328 0.078 7.82 8.46 7.34
8/4/2022 8:45:00 PM 22.85 73.13 0.078 7.81 8.17 7.29
8/4/2022 9:00:00 PM 22.75 72.95 0.076 7.8 10.27 7.24
8/4/2022 9:15:00 PM 22.64 72.752 0.077 7.8 9.53 7.21
8/4/2022 9:30:00 PM 22.53 72.554 0.077 7.79 9.36 7.19
8/4/2022 9:45:00 PM 22.42 72.356 0.077 7.78 10.42 7.16
8/4/2022 10:00:00 PM 22.31 72.158 0.076 7.77 9.69 7.13
8/4/2022 10:15:00 PM 22.2 71.96 0.076 7.77 10.32 7.1
8/4/2022 10:30:00 PM 22.09 71.762 0.078 7.76 10.77 7.07
8/4/2022 10:45:00 PM 21.96 71.528 0.076 7.75 10.18 7.04
8/4/2022 11:00:00 PM 21.84 71.312 0.075 7.74 11.87 7.01
8/4/2022 11:15:00 PM 21.73 71.114 0.075 7.73 12.28 6.98
8/4/2022 11:30:00 PM 21.62 70.916 0.075 7.72 10.68 6.96
8/4/2022 11:45:00 PM 21.52 70.736 0.074 7.72 11.11 6.94
8/5/2022 12:00:00 AM 21.42 70.556 0.074 7.71 9.46 6.92
8/5/2022 12:15:00 AM 21.34 70.412 0.074 7.7 11.64 6.9
8/5/2022 12:30:00 AM 21.25 70.25 0.073 7.69 12.18 6.88
8/5/2022 12:45:00 AM 21.17 70.106 0.073 7.69 11.69 6.87
8/5/2022 1:00:00 AM 21.09 69.962 0.073 7.68 12.11 6.86
8/5/2022 1:15:00 AM 21.01 69.818 0.074 7.68 10.83 6.86
8/5/2022 1:30:00 AM 20.94 69.692 0.075 7.67 10.91 6.86
8/5/2022 1:45:00 AM 20.87 69.566 0.074 7.67 11.87 6.86
8/5/2022 2:00:00 AM 20.81 69.458 0.075 7.67 14.13 6.87
8/5/2022 2:15:00 AM 20.75 69.35 0.075 7.67 11.15 6.88
8/5/2022 2:30:00 AM 20.69 69.242 0.076 7.66 10.31 6.89
8/5/2022 2:45:00 AM 20.63 69.134 0.075 7.66 11.81 6.9
8/5/2022 3:00:00 AM 20.58 69.044 0.075 7.66 10.57 6.92
8/5/2022 3:15:00 AM 20.52 68.936 0.075 7.66 12.94 6.93
8/5/2022 3:30:00 AM 20.47 68.846 0.076 7.66 12.54 6.94
8/5/2022 3:45:00 AM 20.41 68.738 0.076 7.66 13.37 6.95
8/5/2022 4:00:00 AM 20.35 68.63 0.076 7.66 12.32 6.97
8/5/2022 4:15:00 AM 20.3 68.54 0.078 7.67 11.56 6.99
8/5/2022 4:30:00 AM 20.24 68.432 0.077 7.67 10.92 7.01
8/5/2022 4:45:00 AM 20.18 68.324 0.077 7.67 11.67 7.04
8/5/2022 5:00:00 AM 20.12 68.216 0.077 7.67 11.87 7.06
8/5/2022 5:15:00 AM 20.06 68.108 0.077 7.67 11.74 7.08
8/5/2022 5:30:00 AM 20.01 68.018 0.076 7.67 11.95 7.09
8/5/2022 5:45:00 AM 19.95 67.91 0.076 7.67 13.16 7.13
8/5/2022 6:00:00 AM 19.88 67.784 0.077 7.67 11.34 7.15
8/5/2022 6:15:00 AM 19.83 67.694 0.078 7.67 11.83 7.18
8/5/2022 6:30:00 AM 19.77 67.586 0.076 7.67 11.39 7.22
8/5/2022 6:45:00 AM 19.71 67.478 0.077 7.68 11.14 7.26
8/5/2022 7:00:00 AM 19.66 67.388 0.076 7.68 10.06 7.3
8/5/2022 7:15:00 AM 19.6 67.28 0.079 7.68 11.66 7.37
8/5/2022 7:30:00 AM 19.54 67.172 0.079 7.68 9.56 7.44
8/5/2022 7:45:00 AM 19.49 67.082 0.077 7.69 10.33 7.51
8/5/2022 8:00:00 AM 19.43 66.974 0.075 7.69 10.56 7.59
8/5/2022 8:15:00 AM 19.38 66.884 0.082 7.7 11.12 7.64
8/5/2022 8:30:00 AM 19.32 66.776 0.079 7.7 9.94 7.7
8/5/2022 8:45:00 AM 19.26 66.668 0.078 7.71 9.26 7.81
8/5/2022 9:00:00 AM 19.2 66.56 0.075 7.72 8.93 7.92
8/5/2022 9:15:00 AM 19.14 66.452 0.075 7.72 8.51 8.01
8/5/2022 9:30:00 AM 19.09 66.362 0.076 7.73 8.41 8.1
8/5/2022 9:45:00 AM 19.04 66.272 0.075 7.74 8.59 8.23
8/5/2022 10:00:00 AM 19.02 66.236 0.075 7.75 7.66 8.39
8/5/2022 10:15:00 AM 19.01 66.218 0.076 7.77 7.96 8.54
8/5/2022 10:30:00 AM 19.02 66.236 0.077 7.78 8.02 8.7
8/5/2022 10:45:00 AM 19.06 66.308 0.077 7.8 8.4 8.87
8/5/2022 11:00:00 AM 19.1 66.38 0.076 7.81 7.66 9
8/5/2022 11:15:00 AM 19.17 66.506 0.074 7.83 8.06 9.06
8/5/2022 11:30:00 AM 19.25 66.65 0.074 7.84 7.85 9.09
8/5/2022 11:45:00 AM 19.34 66.812 0.074 7.85 7.29 9.15
8/5/2022 12:00:00 PM 19.46 67.028 0.074 7.86 7.04 9.28
8/5/2022 12:15:00 PM 19.54 67.172 0.075 7.87 6.97 9.35
8/5/2022 12:30:00 PM 19.58 67.244 0.075 7.88 6.49 9.35
8/5/2022 12:45:00 PM 19.66 67.388 0.074 7.89 6.68 9.4
8/5/2022 1:00:00 PM 19.8 67.64 0.074 7.91 6.83 9.55
8/5/2022 1:15:00 PM 19.94 67.892 0.074 7.92 5.93 9.68
8/5/2022 1:30:00 PM 20.07 68.126 0.075 7.94 6.9 9.73
8/5/2022 1:45:00 PM 20.22 68.396 0.074 7.95 7.28 9.77
8/5/2022 2:00:00 PM 20.43 68.774 0.076 7.96 6.37 9.84
8/5/2022 2:15:00 PM 20.69 69.242 0.075 7.97 6.78 9.88
8/5/2022 2:30:00 PM 20.87 69.566 0.076 7.98 6.98 9.78
8/5/2022 2:45:00 PM 21.08 69.944 0.076 7.98 6.11 9.72
8/5/2022 3:00:00 PM 21.35 70.43 0.08 7.99 6.01 9.69
8/5/2022 3:15:00 PM 21.53 70.754 0.079 7.99 6.16 9.6
8/5/2022 3:30:00 PM 21.69 71.042 0.081 7.99 6.19 9.51
8/5/2022 3:45:00 PM 21.8 71.24 0.083 7.98 6.4 9.4
8/5/2022 4:00:00 PM 21.93 71.474 0.081 7.99 6.48 9.36
8/5/2022 4:15:00 PM 22.06 71.708 0.081 7.99 6.63 9.31
8/5/2022 4:30:00 PM 22.16 71.888 0.081 7.99 7.63 9.25
8/5/2022 4:45:00 PM 22.23 72.014 0.083 7.99 5.79 9.17
8/5/2022 5:00:00 PM 22.3 72.14 0.084 7.98 6.47 9.09
8/5/2022 5:15:00 PM 22.38 72.284 0.084 7.98 6.23 9.02
8/5/2022 5:30:00 PM 22.43 72.374 0.084 7.97 6.36 8.9
8/5/2022 5:45:00 PM 22.47 72.446 0.085 7.97 6.36 8.79
8/5/2022 6:00:00 PM 22.49 72.482 0.084 7.96 7.89 8.7
8/5/2022 6:15:00 PM 22.49 72.482 0.084 7.95 6.16 8.61
8/5/2022 6:30:00 PM 22.48 72.464 0.083 7.94 6.42 8.5
8/5/2022 6:45:00 PM 22.46 72.42799 0.085 7.94 6.41 8.4
8/5/2022 7:00:00 PM 22.45 72.41 0.085 7.93 7.57 8.33
8/5/2022 7:15:00 PM 22.44 72.392 0.085 7.92 6.4 8.26
8/5/2022 7:30:00 PM 22.42 72.356 0.085 7.92 6.43 8.19
8/5/2022 7:45:00 PM 22.39 72.302 0.085 7.91 6.49 8.12
8/5/2022 8:00:00 PM 22.36 72.248 0.085 7.9 6.53 8.04
8/5/2022 8:15:00 PM 22.33 72.194 0.085 7.88 6.95 7.94
8/5/2022 8:30:00 PM 22.29 72.122 0.085 7.87 6.66 7.83
8/5/2022 8:45:00 PM 22.24 72.032 0.084 7.86 8.2 7.72
8/5/2022 9:00:00 PM 22.18 71.924 0.085 7.85 10.35 7.65
8/5/2022 9:15:00 PM 22.12 71.816 0.084 7.84 10.07 7.55
8/5/2022 9:30:00 PM 22.06 71.708 0.086 7.83 11.2 7.49
8/5/2022 9:45:00 PM 22.01 71.618 0.087 7.82 10.68 7.44
8/5/2022 10:00:00 PM 21.95 71.51 0.085 7.81 10.41 7.42
8/5/2022 10:15:00 PM 21.89 71.402 0.085 7.81 10.59 7.39
8/5/2022 10:30:00 PM 21.82 71.276 0.086 7.8 10.88 7.36
8/5/2022 10:45:00 PM 21.75 71.15 0.086 7.79 11.54 7.34
8/5/2022 11:00:00 PM 21.66 70.988 0.086 7.78 10.44 7.32
8/5/2022 11:15:00 PM 21.57 70.826 0.085 7.78 9.69 7.31
8/5/2022 11:30:00 PM 21.46 70.628 0.085 7.77 11.31 7.29
8/5/2022 11:45:00 PM 21.35 70.43 0.085 7.76 12.28 7.27
8/6/2022 12:00:00 AM 21.24 70.232 0.085 7.75 13.91 7.24
8/6/2022 12:15:00 AM 21.15 70.07 0.085 7.74 13.86 7.22
8/6/2022 12:30:00 AM 21.05 69.89 0.085 7.74 12.17 7.2
8/6/2022 12:45:00 AM 20.97 69.746 0.085 7.73 11.34 7.18
8/6/2022 1:00:00 AM 20.89 69.602 0.085 7.72 12.63 7.17
8/6/2022 1:15:00 AM 20.81 69.458 0.085 7.72 12.77 7.15
8/6/2022 1:30:00 AM 20.74 69.332 0.084 7.71 12.99 7.14
8/6/2022 1:45:00 AM 20.68 69.224 0.084 7.7 11.97 7.13
8/6/2022 2:00:00 AM 20.62 69.116 0.084 7.7 12.12 7.12
8/6/2022 2:15:00 AM 20.56 69.008 0.082 7.69 12.41 7.12
8/6/2022 2:30:00 AM 20.51 68.918 0.083 7.69 11.23 7.11
8/6/2022 2:45:00 AM 20.46 68.828 0.082 7.68 11.6 7.1
8/6/2022 3:00:00 AM 20.41 68.738 0.082 7.68 12.43 7.1
8/6/2022 3:15:00 AM 20.36 68.648 0.082 7.68 11.63 7.09
8/6/2022 3:30:00 AM 20.32 68.576 0.082 7.67 11.75 7.08
8/6/2022 3:45:00 AM 20.28 68.504 0.082 7.67 11.47 7.05
8/6/2022 4:00:00 AM 20.26 68.468 0.082 7.66 13.16 7.01
8/6/2022 4:15:00 AM 20.24 68.432 0.081 7.66 12.42 6.97
8/6/2022 4:30:00 AM 20.22 68.396 0.08 7.65 13.46 6.96
8/6/2022 4:45:00 AM 20.19 68.342 0.079 7.65 13.54 6.95
8/6/2022 5:00:00 AM 20.16 68.288 0.079 7.65 13.51 6.95
8/6/2022 5:15:00 AM 20.12 68.216 0.079 7.64 13.12 6.96
8/6/2022 5:30:00 AM 20.07 68.126 0.079 7.64 11.7 6.99
8/6/2022 5:45:00 AM 20.01 68.018 0.078 7.64 13.91 7.01
8/6/2022 6:00:00 AM 19.95 67.91 0.077 7.65 12.93 7.04
8/6/2022 6:15:00 AM 19.89 67.802 0.077 7.65 19.44 7.09
8/6/2022 6:30:00 AM 19.82 67.676 0.076 7.65 11.57 7.13
8/6/2022 6:45:00 AM 19.76 67.568 0.074 7.66 10.35 7.19
8/6/2022 7:00:00 AM 19.71 67.478 0.078 7.66 11.77 7.24
8/6/2022 7:15:00 AM 19.66 67.388 0.076 7.66 9.28 7.31
8/6/2022 7:30:00 AM 19.62 67.316 0.076 7.67 11.69 7.38
8/6/2022 7:45:00 AM 19.58 67.244 0.074 7.67 12.17 7.46
8/6/2022 8:00:00 AM 19.54 67.172 0.074 7.67 9.39 7.53
8/6/2022 8:15:00 AM 19.5 67.1 0.071 7.68 13.43 7.6
8/6/2022 8:30:00 AM 19.45 67.01 0.071 7.69 9.94 7.69
8/6/2022 8:45:00 AM 19.41 66.938 0.072 7.7 8.65 7.74
8/6/2022 9:00:00 AM 19.36 66.848 0.072 7.7 11.11 7.78
8/6/2022 9:15:00 AM 19.31 66.758 0.073 7.7 8.97 7.82
8/6/2022 9:30:00 AM 19.25 66.65 0.072 7.7 8.73 7.84
8/6/2022 9:45:00 AM 19.17 66.506 0.07 7.71 8.31 7.86
8/6/2022 10:00:00 AM 19.13 66.434 0.071 7.71 8.24 8
8/6/2022 10:15:00 AM 19.08 66.344 0.07 7.72 8.27 8.1
8/6/2022 10:30:00 AM 19.02 66.236 0.072 7.72 7.59 8.14
8/6/2022 10:45:00 AM 18.98 66.164 0.069 7.72 8.56 8.19
8/6/2022 11:00:00 AM 18.97 66.146 0.07 7.73 8.25 8.28
8/6/2022 11:15:00 AM 18.97 66.146 0.069 7.74 8.33 8.39
8/6/2022 11:30:00 AM 18.99 66.182 0.07 7.75 8.18 8.53
8/6/2022 11:45:00 AM 19.07 66.326 0.069 7.77 7.66 8.8
8/6/2022 12:00:00 PM 19.12 66.416 0.069 7.78 7.09 8.95
8/6/2022 12:15:00 PM 19.22 66.596 0.069 7.8 7.32 9.07
8/6/2022 12:30:00 PM 19.36 66.848 0.069 7.82 7.11 9.26
8/6/2022 12:45:00 PM 19.53 67.154 0.067 7.85 7.28 9.43
8/6/2022 1:00:00 PM 19.71 67.478 0.068 7.87 6.83 9.55
8/6/2022 1:15:00 PM 19.84 67.712 0.069 7.89 6.79 9.62
8/6/2022 1:30:00 PM 19.93 67.874 0.068 7.9 6.58 9.62
8/6/2022 1:45:00 PM 20.04 68.07201 0.069 7.9 6.86 9.57
8/6/2022 2:00:00 PM 20.18 68.324 0.072 7.91 7.63 9.57
8/6/2022 2:15:00 PM 20.26 68.468 0.071 7.91 7.19 9.45
8/6/2022 2:30:00 PM 20.4 68.72 0.07 7.91 6.67 9.46
8/6/2022 2:45:00 PM 20.52 68.936 0.071 7.91 6.51 9.43
8/6/2022 3:00:00 PM 20.68 69.224 0.072 7.92 6.86 9.44
8/6/2022 3:15:00 PM 20.91 69.638 0.073 7.93 6.42 9.5
8/6/2022 3:30:00 PM 21.05 69.89 0.074 7.93 7.18 9.45
8/6/2022 3:45:00 PM 21.24 70.232 0.075 7.94 5.84 9.4
8/6/2022 4:00:00 PM 21.42 70.556 0.076 7.94 6.2 9.3
8/6/2022 4:15:00 PM 21.58 70.844 0.077 7.95 6.06 9.29
8/6/2022 4:30:00 PM 21.73 71.114 0.077 7.95 6.29 9.26
8/6/2022 4:45:00 PM 21.81 71.258 0.078 7.95 6.87 9.18
8/6/2022 5:00:00 PM 21.83 71.294 0.079 7.95 6.84 9.05
8/6/2022 5:15:00 PM 21.87 71.366 0.08 7.95 7 8.98
8/6/2022 5:30:00 PM 21.96 71.528 0.081 7.95 6.42 9.02
8/6/2022 5:45:00 PM 22.04 71.672 0.081 7.95 6.41 9
8/6/2022 6:00:00 PM 22.07 71.726 0.081 7.95 6.74 8.89
8/6/2022 6:15:00 PM 22.1 71.78 0.081 7.95 6.95 8.82
8/6/2022 6:30:00 PM 22.13 71.834 0.082 7.95 6.92 8.76
8/6/2022 6:45:00 PM 22.14 71.852 0.082 7.94 6.73 8.65
8/6/2022 7:00:00 PM 22.14 71.852 0.082 7.93 6.38 8.55
8/6/2022 7:15:00 PM 22.12 71.816 0.082 7.92 7.05 8.46
8/6/2022 7:30:00 PM 22.1 71.78 0.081 7.91 6.96 8.37
8/6/2022 7:45:00 PM 22.04 71.672 0.081 7.89 6.4 8.24
8/6/2022 8:00:00 PM 21.98 71.564 0.081 7.87 8.69 8.07
8/6/2022 8:15:00 PM 21.93 71.474 0.08 7.86 8.36 7.96
8/6/2022 8:30:00 PM 21.88 71.384 0.081 7.85 8.91 7.9
8/6/2022 8:45:00 PM 21.84 71.312 0.082 7.84 8.83 7.84
8/6/2022 9:00:00 PM 21.79 71.222 0.082 7.83 10.1 7.76
8/6/2022 9:15:00 PM 21.75 71.15 0.082 7.82 10.65 7.69
8/6/2022 9:30:00 PM 21.7 71.06 0.081 7.81 11.37 7.62
8/6/2022 9:45:00 PM 21.65 70.97 0.081 7.8 10.22 7.58
8/6/2022 10:00:00 PM 21.6 70.88 0.081 7.79 11 7.55
8/6/2022 10:15:00 PM 21.54 70.772 0.08 7.79 10.65 7.51
8/6/2022 10:30:00 PM 21.48 70.664 0.081 7.78 10.86 7.49
8/6/2022 10:45:00 PM 21.43 70.574 0.081 7.77 11.6 7.47
8/6/2022 11:00:00 PM 21.36 70.448 0.081 7.77 11.1 7.46
8/6/2022 11:15:00 PM 21.3 70.34 0.08 7.76 11.32 7.44
8/6/2022 11:30:00 PM 21.24 70.232 0.08 7.75 12.02 7.41
8/6/2022 11:45:00 PM 21.17 70.106 0.081 7.75 12.8 7.38
8/7/2022 12:00:00 AM 21.1 69.98 0.081 7.74 11.68 7.36
8/7/2022 12:15:00 AM 21.03 69.854 0.08 7.73 11.38 7.34
8/7/2022 12:30:00 AM 20.96 69.728 0.082 7.72 12.74 7.31
8/7/2022 12:45:00 AM 20.88 69.584 0.082 7.71 11.57 7.29
8/7/2022 1:00:00 AM 20.82 69.476 0.082 7.71 11.77 7.27
8/7/2022 1:15:00 AM 20.75 69.35 0.082 7.7 12.05 7.26
8/7/2022 1:30:00 AM 20.69 69.242 0.082 7.69 14.54 7.24
8/7/2022 1:45:00 AM 20.64 69.152 0.08 7.69 12.56 7.23
8/7/2022 2:00:00 AM 20.58 69.044 0.081 7.68 12.22 7.22
8/7/2022 2:15:00 AM 20.53 68.954 0.081 7.68 12.98 7.2
8/7/2022 2:30:00 AM 20.48 68.864 0.081 7.68 11.8 7.19
8/7/2022 2:45:00 AM 20.43 68.774 0.079 7.67 11.66 7.19
8/7/2022 3:00:00 AM 20.38 68.684 0.081 7.67 12.3 7.18
8/7/2022 3:15:00 AM 20.33 68.594 0.081 7.67 13.07 7.19
8/7/2022 3:30:00 AM 20.29 68.522 0.081 7.67 12.46 7.18
8/7/2022 3:45:00 AM 20.25 68.45 0.08 7.67 11.91 7.19
8/7/2022 4:00:00 AM 20.2 68.36 0.084 7.67 12.56 7.19
8/7/2022 4:15:00 AM 20.16 68.288 0.083 7.66 12.14 7.18
8/7/2022 4:30:00 AM 20.11 68.198 0.084 7.67 12.88 7.2
8/7/2022 4:45:00 AM 20.07 68.126 0.082 7.67 23.02 7.18
8/7/2022 5:00:00 AM 20.03 68.054 0.082 7.67 13.26 7.2
8/7/2022 5:15:00 AM 19.99 67.982 0.082 7.67 13.24 7.21
8/7/2022 5:30:00 AM 19.94 67.892 0.081 7.67 13.9 7.21
8/7/2022 5:45:00 AM 19.9 67.82 0.08 7.67 14.32 7.22
8/7/2022 6:00:00 AM 19.86 67.748 0.08 7.67 16.26 7.23
8/7/2022 6:15:00 AM 19.81 67.658 0.081 7.67 12.02 7.26
8/7/2022 6:30:00 AM 19.77 67.586 0.081 7.67 11.7 7.28
8/7/2022 6:45:00 AM 19.73 67.514 0.08 7.67 11.57 7.31
8/7/2022 7:00:00 AM 19.69 67.442 0.08 7.67 11.54 7.34
8/7/2022 7:15:00 AM 19.65 67.37 0.079 7.68 10.18 7.38
8/7/2022 7:30:00 AM 19.61 67.298 0.08 7.68 10.26 7.41
8/7/2022 7:45:00 AM 19.58 67.244 0.079 7.68 9.79 7.47
8/7/2022 8:00:00 AM 19.55 67.19 0.079 7.68 10.09 7.53
8/7/2022 8:15:00 AM 19.52 67.136 0.08 7.69 10.11 7.6
8/7/2022 8:30:00 AM 19.49 67.082 0.08 7.7 9.18 7.66
8/7/2022 8:45:00 AM 19.46 67.028 0.08 7.7 9.85 7.74
8/7/2022 9:00:00 AM 19.44 66.992 0.077 7.71 9.31 7.82
8/7/2022 9:15:00 AM 19.42 66.956 0.079 7.72 9 7.92
8/7/2022 9:30:00 AM 19.4 66.92 0.077 7.73 9.45 7.99
8/7/2022 9:45:00 AM 19.39 66.902 0.076 7.74 8.79 8.07
8/7/2022 10:00:00 AM 19.42 66.956 0.077 7.75 7.98 8.23
8/7/2022 10:15:00 AM 19.47 67.046 0.076 7.77 10.08 8.39
8/7/2022 10:30:00 AM 19.53 67.154 0.076 7.79 8.83 8.55
8/7/2022 10:45:00 AM 19.63 67.334 0.077 7.8 7.95 8.69
8/7/2022 11:00:00 AM 19.74 67.532 0.076 7.82 7.85 8.81
8/7/2022 11:15:00 AM 19.87 67.766 0.075 7.84 7.61 8.89
8/7/2022 11:30:00 AM 20 68 0.075 7.85 7.58 8.96
8/7/2022 11:45:00 AM 20.13 68.234 0.076 7.86 7.6 9.02
8/7/2022 12:00:00 PM 20.27 68.486 0.078 7.87 7.21 9.11
8/7/2022 12:15:00 PM 20.41 68.738 0.077 7.88 8.46 9.18
8/7/2022 12:30:00 PM 20.58 69.044 0.077 7.89 7.58 9.27
8/7/2022 12:45:00 PM 20.75 69.35 0.077 7.9 8.39 9.37
8/7/2022 1:00:00 PM 20.93 69.674 0.078 7.92 7.66 9.47
8/7/2022 1:15:00 PM 21.06 69.908 0.077 7.93 7.29 9.45
8/7/2022 1:30:00 PM 21.23 70.214 0.078 7.94 6.97 9.47
8/7/2022 1:45:00 PM 21.46 70.628 0.079 7.95 7.34 9.56
8/7/2022 2:00:00 PM 21.65 70.97 0.079 7.96 8.05 9.59
8/7/2022 2:15:00 PM 21.81 71.258 0.079 7.97 7.61 9.57
8/7/2022 2:30:00 PM 21.96 71.528 0.081 7.98 7.12 9.53
8/7/2022 2:45:00 PM 22.17 71.906 0.082 7.99 8.68 9.51
8/7/2022 3:00:00 PM 22.32 72.176 0.082 7.99 7.46 9.4
8/7/2022 3:15:00 PM 22.49 72.482 0.083 7.99 8.26 9.33
8/7/2022 3:30:00 PM 22.69 72.842 0.083 8 7.45 9.32
8/7/2022 3:45:00 PM 22.86 73.148 0.083 8 8.2 9.24
8/7/2022 4:00:00 PM 22.98 73.364 0.085 8 8.75 9.13
8/7/2022 4:15:00 PM 23.08 73.544 0.085 7.99 6.8 9.01
8/7/2022 4:30:00 PM 23.19 73.742 0.086 7.99 7.92 8.97
8/7/2022 4:45:00 PM 23.31 73.958 0.086 7.99 7.08 8.91
8/7/2022 5:00:00 PM 23.39 74.102 0.087 7.99 6.86 8.83
8/7/2022 5:15:00 PM 23.42 74.156 0.091 7.98 6.67 8.72
8/7/2022 5:30:00 PM 23.47 74.246 0.091 7.98 5.97 8.6
8/7/2022 5:45:00 PM 23.5 74.3 0.09 7.97 6.64 8.49
8/7/2022 6:00:00 PM 23.54 74.372 0.09 7.97 7.03 8.41
8/7/2022 6:15:00 PM 23.58 74.444 0.09 7.96 8.05 8.33
8/7/2022 6:30:00 PM 23.59 74.462 0.091 7.95 8.22 8.2
8/7/2022 6:45:00 PM 23.58 74.444 0.09 7.94 9.48 8.09
8/7/2022 7:00:00 PM 23.55 74.39 0.092 7.93 8.41 7.99
8/7/2022 7:15:00 PM 23.51 74.318 0.092 7.92 7.47 7.92
8/7/2022 7:30:00 PM 23.45 74.21 0.092 7.91 7.97 7.86
8/7/2022 7:45:00 PM 23.38 74.084 0.092 7.9 7.81 7.79
8/7/2022 8:00:00 PM 23.31 73.958 0.093 7.89 7.24 7.7
8/7/2022 8:15:00 PM 23.24 73.832 0.101 7.87 9.17 7.61
8/7/2022 8:30:00 PM 23.17 73.706 0.099 7.86 8.12 7.51
8/7/2022 8:45:00 PM 23.1 73.58 0.099 7.85 9.13 7.43
8/7/2022 9:00:00 PM 23.02 73.436 0.098 7.84 9.57 7.36
8/7/2022 9:15:00 PM 22.94 73.292 0.098 7.83 10.41 7.3
8/7/2022 9:30:00 PM 22.86 73.148 0.097 7.82 13.96 7.26
8/7/2022 9:45:00 PM 22.78 73.004 0.096 7.81 13.03 7.22
8/7/2022 10:00:00 PM 22.7 72.86 0.095 7.8 10.94 7.21
8/7/2022 10:15:00 PM 22.62 72.716 0.095 7.79 11.21 7.19
8/7/2022 10:30:00 PM 22.53 72.554 0.094 7.79 11.62 7.18
8/7/2022 10:45:00 PM 22.44 72.392 0.093 7.78 13.6 7.15
8/7/2022 11:00:00 PM 22.36 72.248 0.093 7.77 11.86 7.13
8/7/2022 11:15:00 PM 22.27 72.086 0.094 7.76 12.14 7.12
8/7/2022 11:30:00 PM 22.18 71.924 0.092 7.76 11.08 7.1
8/7/2022 11:45:00 PM 22.09 71.762 0.091 7.75 11.86 7.08
8/8/2022 12:00:00 AM 21.99 71.582 0.092 7.74 12.74 7.07
8/8/2022 12:15:00 AM 21.9 71.42 0.093 7.73 13.07 7.06
8/8/2022 12:30:00 AM 21.81 71.258 0.091 7.73 11.89 7.04
8/8/2022 12:45:00 AM 21.72 71.096 0.091 7.72 12.21 7.02
8/8/2022 1:00:00 AM 21.64 70.952 0.089 7.71 11.9 7.01
8/8/2022 1:15:00 AM 21.55 70.79 0.09 7.7 11.56 6.99
8/8/2022 1:30:00 AM 21.48 70.664 0.089 7.7 11.46 6.98
8/8/2022 1:45:00 AM 21.41 70.538 0.088 7.7 12.34 6.98
8/8/2022 2:00:00 AM 21.34 70.412 0.09 7.69 12.54 6.97
8/8/2022 2:15:00 AM 21.28 70.304 0.089 7.68 12.23 6.96
8/8/2022 2:30:00 AM 21.22 70.196 0.091 7.68 11.7 6.96
8/8/2022 2:45:00 AM 21.16 70.088 0.09 7.68 11.78 6.96
8/8/2022 3:00:00 AM 21.11 69.998 0.09 7.68 11.8 6.96
8/8/2022 3:15:00 AM 21.05 69.89 0.09 7.68 11.58 6.96
8/8/2022 3:30:00 AM 21 69.8 0.089 7.67 13.24 6.95
8/8/2022 3:45:00 AM 20.95 69.71 0.089 7.67 12.66 6.96
8/8/2022 4:00:00 AM 20.91 69.638 0.089 7.67 12.24 6.96
8/8/2022 4:15:00 AM 20.87 69.566 0.088 7.67 14.27 6.96
8/8/2022 4:30:00 AM 20.82 69.476 0.089 7.67 12.75 6.96
8/8/2022 4:45:00 AM 20.78 69.404 0.088 7.67 14.02 6.96
8/8/2022 5:00:00 AM 20.74 69.332 0.088 7.67 15.8 6.97
8/8/2022 5:15:00 AM 20.7 69.26 0.088 7.67 17.47 6.97
8/8/2022 5:30:00 AM 20.66 69.188 0.088 7.67 14.93 6.97
8/8/2022 5:45:00 AM 20.62 69.116 0.09 7.67 14.05 6.98
8/8/2022 6:00:00 AM 20.58 69.044 0.09 7.67 15.37 6.99
8/8/2022 6:15:00 AM 20.53 68.954 0.091 7.67 13.07 7.02
8/8/2022 6:30:00 AM 20.48 68.864 0.091 7.67 12.91 7.04
8/8/2022 6:45:00 AM 20.44 68.792 0.09 7.67 12.18 7.07
8/8/2022 7:00:00 AM 20.39 68.702 0.09 7.67 12.1 7.1
8/8/2022 7:15:00 AM 20.34 68.612 0.09 7.67 10.51 7.14
8/8/2022 7:30:00 AM 20.29 68.522 0.09 7.68 10.57 7.18
8/8/2022 7:45:00 AM 20.24 68.432 0.089 7.68 10.2 7.23
8/8/2022 8:00:00 AM 20.2 68.36 0.089 7.68 11.49 7.28
8/8/2022 8:15:00 AM 20.16 68.288 0.089 7.69 10.23 7.35
8/8/2022 8:30:00 AM 20.13 68.234 0.089 7.69 11.33 7.43
8/8/2022 8:45:00 AM 20.11 68.198 0.088 7.7 8.14 7.5
8/8/2022 9:00:00 AM 20.09 68.162 0.088 7.71 8.26 7.62
8/8/2022 9:15:00 AM 20.1 68.18 0.088 7.72 9.2 7.74
8/8/2022 9:30:00 AM 20.11 68.198 0.088 7.74 17.74 7.86
8/8/2022 9:45:00 AM 20.14 68.252 0.086 7.75 8.32 7.98
8/8/2022 10:00:00 AM 20.17 68.306 0.088 7.77 8.25 8.11
8/8/2022 10:15:00 AM 20.2 68.36 0.087 7.78 8.36 8.23
8/8/2022 10:30:00 AM 20.24 68.432 0.086 7.79 8.76 8.36
8/8/2022 10:45:00 AM 20.3 68.54 0.085 7.81 9.03 8.49
8/8/2022 11:00:00 AM 20.34 68.612 0.087 7.81 8.52 8.58
8/8/2022 11:15:00 AM 20.42 68.756 0.083 7.83 8.54 8.71
8/8/2022 11:30:00 AM 20.53 68.954 0.085 7.84 7.61 8.83
8/8/2022 11:45:00 AM 20.63 69.134 0.085 7.86 9.42 8.94
8/8/2022 12:00:00 PM 20.72 69.296 0.086 7.87 7.58 9.01
8/8/2022 12:15:00 PM 20.8 69.44 0.084 7.87 10 9.01
8/8/2022 12:30:00 PM 20.95 69.71 0.085 7.89 7.25 9.11
8/8/2022 12:45:00 PM 21.07 69.926 0.085 7.9 7.44 9.18
8/8/2022 1:00:00 PM 21.17 70.106 0.087 7.91 9.08 9.23
8/8/2022 1:15:00 PM 21.34 70.412 0.087 7.92 7.37 9.32
8/8/2022 1:30:00 PM 21.51 70.718 0.087 7.93 9.27 9.37
8/8/2022 1:45:00 PM 21.7 71.06 0.088 7.95 8.05 9.42
8/8/2022 2:00:00 PM 21.87 71.366 0.088 7.96 7.85 9.41
8/8/2022 2:15:00 PM 22.03 71.654 0.09 7.96 7.07 9.39
8/8/2022 2:30:00 PM 22.26 72.068 0.09 7.98 6.71 9.44
8/8/2022 2:45:00 PM 22.51 72.518 0.092 7.99 6.89 9.45
8/8/2022 3:00:00 PM 22.72 72.896 0.092 7.99 6.91 9.37
8/8/2022 3:15:00 PM 22.89 73.202 0.093 7.99 7.19 9.24
8/8/2022 3:30:00 PM 23.09 73.562 0.094 8 8.65 9.18
8/8/2022 3:45:00 PM 23.24 73.832 0.096 8 8.46 9.13
8/8/2022 4:00:00 PM 23.35 74.03 0.097 7.99 6.73 9
8/8/2022 4:15:00 PM 23.5 74.3 0.098 8 7.06 8.96
8/8/2022 4:30:00 PM 23.64 74.552 0.098 8 6.92 8.9
8/8/2022 4:45:00 PM 23.77 74.786 0.098 8 7.07 8.82
8/8/2022 5:00:00 PM 23.91 75.038 0.097 8 7.91 8.77
8/8/2022 5:15:00 PM 23.98 75.164 0.101 8 7.55 8.67
8/8/2022 5:30:00 PM 24.03 75.254 0.102 7.99 7.27 8.58
8/8/2022 5:45:00 PM 24.07 75.326 0.103 7.99 6.9 8.48
8/8/2022 6:00:00 PM 24.09 75.362 0.101 7.98 6.93 8.36
8/8/2022 6:15:00 PM 24.08 75.344 0.102 7.98 8.18 8.22
8/8/2022 6:30:00 PM 24.06 75.308 0.101 7.97 7.05 8.13
8/8/2022 6:45:00 PM 24.02 75.236 0.102 7.96 12.38 8.02
8/8/2022 7:00:00 PM 23.97 75.146 0.101 7.95 6.89 7.93
8/8/2022 7:15:00 PM 23.92 75.056 0.1 7.94 6.71 7.85
8/8/2022 7:30:00 PM 23.85 74.93 0.101 7.93 7.16 7.79
8/8/2022 7:45:00 PM 23.76 74.768 0.1 7.92 7.31 7.72
8/8/2022 8:00:00 PM 23.68 74.624 0.1 7.9 6.68 7.63
8/8/2022 8:15:00 PM 23.6 74.48 0.101 7.89 7.24 7.53
8/8/2022 8:30:00 PM 23.52 74.336 0.1 7.88 8.23 7.44
8/8/2022 8:45:00 PM 23.44 74.192 0.101 7.86 8.81 7.35
8/8/2022 9:00:00 PM 23.36 74.048 0.102 7.85 9.49 7.28
8/8/2022 9:15:00 PM 23.27 73.886 0.102 7.84 11.98 7.21
8/8/2022 9:30:00 PM 23.19 73.742 0.102 7.83 10.84 7.17
8/8/2022 9:45:00 PM 23.11 73.598 0.102 7.82 12.15 7.13
8/8/2022 10:00:00 PM 23.02 73.436 0.101 7.81 11.45 7.11
8/8/2022 10:15:00 PM 22.94 73.292 0.101 7.8 11.88 7.1
8/8/2022 10:30:00 PM 22.86 73.148 0.102 7.79 11.33 7.09
8/8/2022 10:45:00 PM 22.78 73.004 0.102 7.78 11.04 7.08
8/8/2022 11:00:00 PM 22.69 72.842 0.103 7.78 10.42 7.06
8/8/2022 11:15:00 PM 22.6 72.68 0.103 7.77 11.68 7.05
8/8/2022 11:30:00 PM 22.51 72.518 0.102 7.76 12.14 7.04
8/8/2022 11:45:00 PM 22.41 72.338 0.102 7.76 10.99 7.02
8/9/2022 12:00:00 AM 22.31 72.158 0.1 7.75 10.42 7.01
8/9/2022 12:15:00 AM 22.21 71.978 0.102 7.74 11.02 6.98
8/9/2022 12:30:00 AM 22.12 71.816 0.101 7.73 10.65 6.96
8/9/2022 12:45:00 AM 22.02 71.636 0.099 7.72 10.98 6.94
8/9/2022 1:00:00 AM 21.94 71.492 0.098 7.72 11.66 6.93
8/9/2022 1:15:00 AM 21.85 71.33 0.097 7.71 11.94 6.91
8/9/2022 1:30:00 AM 21.78 71.204 0.097 7.71 11.11 6.88
8/9/2022 1:45:00 AM 21.71 71.078 0.097 7.7 11.29 6.88
8/9/2022 2:00:00 AM 21.64 70.952 0.098 7.7 11.63 6.88
8/9/2022 2:15:00 AM 21.59 70.862 0.098 7.7 11.57 6.87
8/9/2022 2:30:00 AM 21.53 70.754 0.098 7.69 11.24 6.86
8/9/2022 2:45:00 AM 21.48 70.664 0.099 7.69 11.53 6.86
8/9/2022 3:00:00 AM 21.43 70.574 0.097 7.69 11.24 6.85
8/9/2022 3:15:00 AM 21.39 70.502 0.097 7.69 11.1 6.84
8/9/2022 3:30:00 AM 21.35 70.43 0.097 7.68 11.87 6.83
8/9/2022 3:45:00 AM 21.3 70.34 0.097 7.68 11.51 6.83
8/9/2022 4:00:00 AM 21.27 70.286 0.097 7.68 11.55 6.83
8/9/2022 4:15:00 AM 21.23 70.214 0.098 7.68 11.85 6.83
8/9/2022 4:30:00 AM 21.19 70.142 0.097 7.68 12.07 6.83
8/9/2022 4:45:00 AM 21.15 70.07 0.097 7.68 11.77 6.83
8/9/2022 5:00:00 AM 21.11 69.998 0.097 7.68 12.73 6.84
8/9/2022 5:15:00 AM 21.06 69.908 0.094 7.68 13.37 6.84
8/9/2022 5:30:00 AM 21.01 69.818 0.094 7.68 13.72 6.85
8/9/2022 5:45:00 AM 20.97 69.746 0.095 7.68 12.39 6.86
8/9/2022 6:00:00 AM 20.92 69.656 0.093 7.68 13.44 6.87
8/9/2022 6:15:00 AM 20.87 69.566 0.094 7.68 11.7 6.89
8/9/2022 6:30:00 AM 20.83 69.494 0.093 7.68 10.7 6.91
8/9/2022 6:45:00 AM 20.77 69.386 0.095 7.68 10.7 6.94
8/9/2022 7:00:00 AM 20.72 69.296 0.093 7.68 10.63 6.97
8/9/2022 7:15:00 AM 20.67 69.206 0.094 7.68 9.89 7.01
8/9/2022 7:30:00 AM 20.62 69.116 0.093 7.68 11.92 7.04
8/9/2022 7:45:00 AM 20.57 69.026 0.093 7.68 10.39 7.09
8/9/2022 8:00:00 AM 20.53 68.954 0.092 7.68 11.09 7.12
8/9/2022 8:15:00 AM 20.48 68.864 0.092 7.69 9.73 7.2
8/9/2022 8:30:00 AM 20.46 68.828 0.09 7.69 9.21 7.27
8/9/2022 8:45:00 AM 20.43 68.774 0.092 7.7 8.86 7.35
8/9/2022 9:00:00 AM 20.42 68.756 0.09 7.71 8.48 7.47
8/9/2022 9:15:00 AM 20.42 68.756 0.088 7.73 8.33 7.61
8/9/2022 9:30:00 AM 20.43 68.774 0.088 7.74 8.52 7.75
8/9/2022 9:45:00 AM 20.46 68.828 0.088 7.76 8.22 7.88
8/9/2022 10:00:00 AM 20.48 68.864 0.087 7.77 7.86 8.01
8/9/2022 10:15:00 AM 20.51 68.918 0.087 7.79 8.08 8.17
8/9/2022 10:30:00 AM 20.55 68.99 0.087 7.8 8.05 8.31
8/9/2022 10:45:00 AM 20.6 69.08 0.085 7.82 8.04 8.46
8/9/2022 11:00:00 AM 20.66 69.188 0.086 7.83 8.24 8.58
8/9/2022 11:15:00 AM 20.73 69.314 0.084 7.84 8.14 8.68
8/9/2022 11:30:00 AM 20.73 69.314 0.084 7.84 8.2 8.68
8/9/2022 11:45:00 AM 20.75 69.35 0.083 7.85 7.96 8.71
8/9/2022 12:00:00 PM 20.88 69.584 0.085 7.86 8.03 8.9
8/9/2022 12:15:00 PM 20.92 69.656 0.084 7.87 7.51 8.95
8/9/2022 12:30:00 PM 20.95 69.71 0.085 7.88 7.18 8.96
8/9/2022 12:45:00 PM 21.08 69.944 0.084 7.89 7.44 9.08
8/9/2022 1:00:00 PM 21.22 70.196 0.083 7.9 7.08 9.21
8/9/2022 1:15:00 PM 21.31 70.358 0.084 7.92 7.08 9.27
8/9/2022 1:30:00 PM 21.4 70.52 0.083 7.92 6.54 9.23
8/9/2022 1:45:00 PM 21.59 70.862 0.084 7.93 6.64 9.28
8/9/2022 2:00:00 PM 21.86 71.348 0.085 7.96 6.4 9.43
8/9/2022 2:15:00 PM 22.09 71.762 0.085 7.97 6.64 9.52
8/9/2022 2:30:00 PM 22.28 72.104 0.085 7.98 6.45 9.5
8/9/2022 2:45:00 PM 22.42 72.356 0.087 7.98 6.95 9.36
8/9/2022 3:00:00 PM 22.62 72.716 0.089 7.99 6.29 9.33
8/9/2022 3:15:00 PM 22.88 73.184 0.09 8 6.28 9.33
8/9/2022 3:30:00 PM 23.08 73.544 0.092 8 6.45 9.28
8/9/2022 3:45:00 PM 23.24 73.832 0.093 8 6.35 9.09
8/9/2022 4:00:00 PM 23.44 74.192 0.093 8.01 11.66 8.77
8/9/2022 4:15:00 PM 24.62 76.316 0.097 8.01 28.66 8.11
8/9/2022 4:30:00 PM 24.16 75.488 0.096 7.97 31.5 7.94
8/9/2022 4:45:00 PM 23.81 74.858 0.092 7.94 42.89 7.8
8/9/2022 5:00:00 PM 23.63 74.534 0.094 7.91 42.31 7.63
8/9/2022 5:15:00 PM 23.58 74.444 0.093 7.88 39.63 7.53
8/9/2022 5:30:00 PM 23.59 74.462 0.092 7.88 37.64 7.59
8/9/2022 5:45:00 PM 23.7 74.66 0.092 7.87 39.26 7.56
8/9/2022 6:00:00 PM 23.83 74.894 0.093 7.86 39.8 7.5
8/9/2022 6:15:00 PM 23.87 74.966 0.092 7.86 35.27 7.51
8/9/2022 6:30:00 PM 23.97 75.146 0.091 7.85 33.61 7.44
8/9/2022 6:45:00 PM 23.98 75.164 0.092 7.82 35.58 7.31
8/9/2022 7:00:00 PM 23.84 74.912 0.089 7.8 41.12 7.23
8/9/2022 7:15:00 PM 23.67 74.606 0.09 7.79 38.42 7.21
8/9/2022 7:30:00 PM 23.48 74.264 0.09 7.78 30.9 7.19
8/9/2022 7:45:00 PM 23.29 73.922 0.091 7.76 24.65 7.14
8/9/2022 8:00:00 PM 23.12 73.616 0.091 7.75 21.05 7.11
8/9/2022 8:15:00 PM 22.94 73.292 0.091 7.74 18.73 7.09
8/9/2022 8:30:00 PM 22.8 73.04 0.093 7.73 18.1 7.05
8/9/2022 8:45:00 PM 22.66 72.788 0.092 7.72 17.49 7.01
8/9/2022 9:00:00 PM 22.55 72.59 0.091 7.71 16.58 6.95
8/9/2022 9:15:00 PM 22.46 72.42799 0.09 7.7 16.76 6.88
8/9/2022 9:30:00 PM 22.41 72.338 0.09 7.68 15.95 6.81
8/9/2022 9:45:00 PM 22.37 72.266 0.09 7.67 15.81 6.76
8/9/2022 10:00:00 PM 22.35 72.23 0.092 7.66 15.38 6.71
8/9/2022 10:15:00 PM 22.31 72.158 0.091 7.66 15.13 6.7
8/9/2022 10:30:00 PM 22.25 72.05 0.089 7.65 13.86 6.7
8/9/2022 10:45:00 PM 22.16 71.888 0.089 7.65 13.72 6.72
8/9/2022 11:00:00 PM 22.06 71.708 0.088 7.65 14.38 6.73
8/9/2022 11:15:00 PM 21.94 71.492 0.085 7.64 14.55 6.75
8/9/2022 11:30:00 PM 21.83 71.294 0.086 7.64 13.86 6.73
8/9/2022 11:45:00 PM 21.73 71.114 0.085 7.63 13.55 6.71
8/10/2022 12:00:00 AM 21.64 70.952 0.085 7.61 13.05 6.66
8/10/2022 12:15:00 AM 21.58 70.844 0.084 7.6 13.31 6.6
8/10/2022 12:30:00 AM 21.55 70.79 0.084 7.59 13.43 6.51
8/10/2022 12:45:00 AM 21.53 70.754 0.084 7.57 13.55 6.41
8/10/2022 1:00:00 AM 21.53 70.754 0.084 7.56 13.32 6.32
8/10/2022 1:15:00 AM 21.55 70.79 0.085 7.54 13.29 6.23
8/10/2022 1:30:00 AM 21.58 70.844 0.086 7.53 12.86 6.15
8/10/2022 1:45:00 AM 21.61 70.898 0.087 7.52 12.29 6.08
8/10/2022 2:00:00 AM 21.63 70.934 0.086 7.51 13.02 6.03
8/10/2022 2:15:00 AM 21.65 70.97 0.087 7.51 11.71 5.99
8/10/2022 2:30:00 AM 21.67 71.006 0.087 7.51 11.76 5.97
8/10/2022 2:45:00 AM 21.67 71.006 0.087 7.5 11.27 5.96
8/10/2022 3:00:00 AM 21.66 70.988 0.087 7.5 11.43 5.96
8/10/2022 3:15:00 AM 21.64 70.952 0.087 7.5 11.68 5.97
8/10/2022 3:30:00 AM 21.62 70.916 0.087 7.5 11.42 5.98
8/10/2022 3:45:00 AM 21.58 70.844 0.088 7.5 12.06 5.99
8/10/2022 4:00:00 AM 21.54 70.772 0.087 7.5 11.6 6.02
8/10/2022 4:15:00 AM 21.5 70.7 0.087 7.51 10.81 6.05
8/10/2022 4:30:00 AM 21.45 70.61 0.086 7.51 11.09 6.08
8/10/2022 4:45:00 AM 21.4 70.52 0.085 7.51 11.2 6.12
8/10/2022 5:00:00 AM 21.34 70.412 0.086 7.51 12.29 6.16
8/10/2022 5:15:00 AM 21.28 70.304 0.085 7.52 11.46 6.2
8/10/2022 5:30:00 AM 21.23 70.214 0.085 7.52 11.74 6.24
8/10/2022 5:45:00 AM 21.16 70.088 0.085 7.52 12.06 6.29
8/10/2022 6:00:00 AM 21.09 69.962 0.085 7.53 11.81 6.35
8/10/2022 6:15:00 AM 21.02 69.836 0.084 7.54 10.52 6.4
8/10/2022 6:30:00 AM 20.96 69.728 0.084 7.54 10.56 6.46
8/10/2022 6:45:00 AM 20.89 69.602 0.084 7.55 9.94 6.52
8/10/2022 7:00:00 AM 20.82 69.476 0.083 7.55 9.49 6.58
8/10/2022 7:15:00 AM 20.75 69.35 0.082 7.56 8.87 6.66
8/10/2022 7:30:00 AM 20.68 69.224 0.084 7.57 8.86 6.74
8/10/2022 7:45:00 AM 20.61 69.098 0.082 7.57 8.86 6.82
8/10/2022 8:00:00 AM 20.54 68.972 0.093 7.58 9.14 6.89
8/10/2022 8:15:00 AM 20.48 68.864 0.089 7.59 8.52 6.97
8/10/2022 8:30:00 AM 20.43 68.774 0.087 7.6 8.56 7.06
8/10/2022 8:45:00 AM 20.38 68.684 0.085 7.61 8.84 7.16
8/10/2022 9:00:00 AM 20.32 68.576 0.083 7.63 9.31 7.3
8/10/2022 9:15:00 AM 20.27 68.486 0.082 7.64 8.25 7.43
8/10/2022 9:30:00 AM 20.26 68.468 0.082 7.66 8.47 7.62
8/10/2022 9:45:00 AM 20.27 68.486 0.081 7.68 7.83 7.84
8/10/2022 10:00:00 AM 20.24 68.432 0.079 7.7 7.77 7.95
8/10/2022 10:15:00 AM 20.23 68.414 0.079 7.71 8.18 8.07
8/10/2022 10:30:00 AM 20.24 68.432 0.078 7.74 8.1 8.3
8/10/2022 10:45:00 AM 20.21 68.378 0.077 7.75 8.6 8.42
8/10/2022 11:00:00 AM 20.18 68.324 0.077 7.76 8.12 8.47
8/10/2022 11:15:00 AM 20.19 68.342 0.078 7.77 8.31 8.56
8/10/2022 11:30:00 AM 20.24 68.432 0.077 7.78 8.81 8.67
8/10/2022 11:45:00 AM 20.26 68.468 0.078 7.79 8.21 8.73
8/10/2022 12:00:00 PM 20.25 68.45 0.077 7.79 8.38 8.76
8/10/2022 12:15:00 PM 20.29 68.522 0.078 7.8 8.03 8.84
8/10/2022 12:30:00 PM 20.35 68.63 0.079 7.82 7.56 8.94
8/10/2022 12:45:00 PM 20.37 68.666 0.079 7.83 7.61 8.97
8/10/2022 1:00:00 PM 20.4 68.72 0.08 7.84 7.12 8.98
8/10/2022 1:15:00 PM 20.47 68.846 0.079 7.86 7.42 9.09
8/10/2022 1:30:00 PM 20.64 69.152 0.08 7.88 6.8 9.36
8/10/2022 1:45:00 PM 20.78 69.404 0.081 7.9 6.61 9.45
8/10/2022 2:00:00 PM 20.94 69.692 0.082 7.91 6.99 9.49
8/10/2022 2:15:00 PM 21.14 70.052 0.084 7.93 6.69 9.5
8/10/2022 2:30:00 PM 21.38 70.484 0.084 7.95 6.64 9.53
8/10/2022 2:45:00 PM 21.57 70.826 0.085 7.96 6.75 9.48
8/10/2022 3:00:00 PM 21.83 71.294 0.087 7.97 6.64 9.47
8/10/2022 3:15:00 PM 22.04 71.672 0.089 7.97 7.11 9.43
8/10/2022 3:30:00 PM 22.21 71.978 0.09 7.98 6.61 9.36
8/10/2022 3:45:00 PM 22.39 72.302 0.092 7.98 6.18 9.3
8/10/2022 4:00:00 PM 22.54 72.57201 0.092 7.98 5.95 9.25
8/10/2022 4:15:00 PM 22.69 72.842 0.096 7.99 6.35 9.16
8/10/2022 4:30:00 PM 22.81 73.058 0.095 7.98 6.51 9.06
8/10/2022 4:45:00 PM 22.91 73.238 0.096 7.98 6.54 8.99
8/10/2022 5:00:00 PM 22.99 73.382 0.096 7.98 6.81 8.93
8/10/2022 5:15:00 PM 23.04 73.472 0.097 7.98 6.58 8.86
8/10/2022 5:30:00 PM 23.06 73.508 0.098 7.97 6.85 8.74
8/10/2022 5:45:00 PM 23.05 73.49 0.098 7.96 6.61 8.61
8/10/2022 6:00:00 PM 23.02 73.436 0.098 7.96 6.42 8.5
8/10/2022 6:15:00 PM 22.96 73.328 0.099 7.95 6.71 8.4
8/10/2022 6:30:00 PM 22.91 73.238 0.096 7.94 6.32 8.34
8/10/2022 6:45:00 PM 22.85 73.13 0.099 7.94 6.53 8.26
8/10/2022 7:00:00 PM 22.8 73.04 0.098 7.93 6.42 8.17
8/10/2022 7:15:00 PM 22.74 72.932 0.096 7.92 7.06 8.07
8/10/2022 7:30:00 PM 22.69 72.842 0.098 7.9 7.72 8
8/10/2022 7:45:00 PM 22.66 72.788 0.097 7.9 7.82 7.91
8/10/2022 8:00:00 PM 22.63 72.734 0.098 7.89 7.34 7.82
8/10/2022 8:15:00 PM 22.61 72.698 0.096 7.88 6.93 7.73
8/10/2022 8:30:00 PM 22.58 72.644 0.095 7.87 7.94 7.65
8/10/2022 8:45:00 PM 22.55 72.59 0.097 7.86 9.21 7.56
8/10/2022 9:00:00 PM 22.51 72.518 0.096 7.85 10.14 7.48
8/10/2022 9:15:00 PM 22.47 72.446 0.097 7.84 10.57 7.41
8/10/2022 9:30:00 PM 22.42 72.356 0.097 7.83 10.64 7.37
8/10/2022 9:45:00 PM 22.36 72.248 0.098 7.83 10.71 7.33
8/10/2022 10:00:00 PM 22.3 72.14 0.098 7.82 11 7.31
8/10/2022 10:15:00 PM 22.24 72.032 0.096 7.81 11.87 7.28
8/10/2022 10:30:00 PM 22.17 71.906 0.097 7.8 10.93 7.25
8/10/2022 10:45:00 PM 22.09 71.762 0.096 7.8 10.91 7.23
8/10/2022 11:00:00 PM 22.01 71.618 0.097 7.79 12.01 7.21
8/10/2022 11:15:00 PM 21.92 71.456 0.096 7.78 11.14 7.18
8/10/2022 11:30:00 PM 21.83 71.294 0.096 7.77 10.99 7.16
8/10/2022 11:45:00 PM 21.74 71.132 0.095 7.76 10.73 7.13
8/11/2022 12:00:00 AM 21.65 70.97 0.095 7.75 11.35 7.11
8/11/2022 12:15:00 AM 21.56 70.808 0.097 7.75 11.03 7.09
8/11/2022 12:30:00 AM 21.49 70.682 0.096 7.74 11.23 7.07
8/11/2022 12:45:00 AM 21.41 70.538 0.096 7.73 11.31 7.05
8/11/2022 1:00:00 AM 21.35 70.43 0.097 7.72 11.29 7.03
8/11/2022 1:15:00 AM 21.29 70.32201 0.098 7.72 11.24 7
8/11/2022 1:30:00 AM 21.23 70.214 0.098 7.71 11 6.97
8/11/2022 1:45:00 AM 21.18 70.124 0.097 7.7 10.25 6.96
8/11/2022 2:00:00 AM 21.14 70.052 0.099 7.7 10.09 6.95
8/11/2022 2:15:00 AM 21.09 69.962 0.099 7.7 10.61 6.94
8/11/2022 2:30:00 AM 21.05 69.89 0.1 7.69 10.33 6.92
8/11/2022 2:45:00 AM 21.02 69.836 0.1 7.69 10.12 6.91
8/11/2022 3:00:00 AM 20.98 69.764 0.1 7.69 10.1 6.9
8/11/2022 3:15:00 AM 20.95 69.71 0.102 7.68 10.03 6.89
8/11/2022 3:30:00 AM 20.92 69.656 0.1 7.68 10.02 6.88
8/11/2022 3:45:00 AM 20.89 69.602 0.102 7.68 9.92 6.88
8/11/2022 4:00:00 AM 20.86 69.548 0.101 7.68 10 6.87
8/11/2022 4:15:00 AM 20.82 69.476 0.101 7.68 10.17 6.87
8/11/2022 4:30:00 AM 20.79 69.422 0.103 7.68 9.8 6.87
8/11/2022 4:45:00 AM 20.75 69.35 0.104 7.67 10.25 6.88
8/11/2022 5:00:00 AM 20.71 69.278 0.101 7.67 10.02 6.89
8/11/2022 5:15:00 AM 20.68 69.224 0.101 7.67 10.63 6.89
8/11/2022 5:30:00 AM 20.64 69.152 0.103 7.68 10.97 6.89
8/11/2022 5:45:00 AM 20.6 69.08 0.103 7.67 10.56 6.89
8/11/2022 6:00:00 AM 20.57 69.026 0.103 7.67 10.66 6.9
8/11/2022 6:15:00 AM 20.53 68.954 0.102 7.67 17.39 6.89
8/11/2022 6:30:00 AM 20.49 68.882 0.102 7.67 9.56 6.93
8/11/2022 6:45:00 AM 20.45 68.81 0.102 7.68 11.62 6.95
8/11/2022 7:00:00 AM 20.42 68.756 0.102 7.68 9.15 6.97
8/11/2022 7:15:00 AM 20.37 68.666 0.102 7.68 8.34 7.01
8/11/2022 7:30:00 AM 20.33 68.594 0.101 7.68 8.13 7.04
8/11/2022 7:45:00 AM 20.29 68.522 0.099 7.69 7.62 7.12
8/11/2022 8:00:00 AM 20.25 68.45 0.1 7.7 7.76 7.2
8/11/2022 8:15:00 AM 20.19 68.342 0.098 7.7 7.09 7.24
8/11/2022 8:30:00 AM 20.14 68.252 0.099 7.71 7.31 7.31
8/11/2022 8:45:00 AM 20.1 68.18 0.097 7.72 7.38 7.42
8/11/2022 9:00:00 AM 20.06 68.108 0.095 7.73 7.03 7.52
8/11/2022 9:15:00 AM 20.02 68.036 0.094 7.74 7.08 7.63
8/11/2022 9:30:00 AM 19.99 67.982 0.093 7.75 7.21 7.75
8/11/2022 9:45:00 AM 19.97 67.946 0.093 7.76 8.41 7.86
8/11/2022 10:00:00 AM 19.98 67.964 0.092 7.77 7.28 8.03
8/11/2022 10:15:00 AM 19.98 67.964 0.092 7.79 7.24 8.2
8/11/2022 10:30:00 AM 20.01 68.018 0.091 7.8 7.83 8.39
8/11/2022 10:45:00 AM 20.06 68.108 0.09 7.83 7.78 8.58
8/11/2022 11:00:00 AM 20.12 68.216 0.089 7.84 7.44 8.71
8/11/2022 11:15:00 AM 20.2 68.36 0.091 7.85 7.14 8.82
8/11/2022 11:30:00 AM 20.28 68.504 0.089 7.87 7.01 8.89
8/11/2022 11:45:00 AM 20.34 68.612 0.089 7.87 7.33 8.94
8/11/2022 12:00:00 PM 20.43 68.774 0.089 7.88 7.03 9.01
8/11/2022 12:15:00 PM 20.54 68.972 0.089 7.89 6.96 9.11
8/11/2022 12:30:00 PM 20.69 69.242 0.09 7.9 6.82 9.19
8/11/2022 12:45:00 PM 20.85 69.53 0.09 7.92 6.7 9.25
8/11/2022 1:00:00 PM 21.02 69.836 0.089 7.93 6.45 9.35
8/11/2022 1:15:00 PM 21.2 70.16 0.091 7.94 6.69 9.4
8/11/2022 1:30:00 PM 21.39 70.502 0.091 7.96 6.31 9.45
8/11/2022 1:45:00 PM 21.59 70.862 0.091 7.97 6.36 9.5
8/11/2022 2:00:00 PM 21.79 71.222 0.092 7.98 6.94 9.54
8/11/2022 2:15:00 PM 21.98 71.564 0.094 7.99 7.06 9.55
8/11/2022 2:30:00 PM 22.16 71.888 0.095 8 6.53 9.53
8/11/2022 2:45:00 PM 22.33 72.194 0.096 8 6.81 9.49
8/11/2022 3:00:00 PM 22.5 72.5 0.098 8 7.58 9.44
8/11/2022 3:15:00 PM 22.66 72.788 0.099 8.01 6.66 9.39
8/11/2022 3:30:00 PM 22.82 73.076 0.101 8.01 6.49 9.32
8/11/2022 3:45:00 PM 22.97 73.346 0.101 8.02 6.13 9.26
8/11/2022 4:00:00 PM 23.1 73.58 0.103 8.02 6.69 9.18
8/11/2022 4:15:00 PM 23.21 73.778 0.103 8.02 6.61 9.09
8/11/2022 4:30:00 PM 23.29 73.922 0.102 8.02 6.13 9.01
8/11/2022 4:45:00 PM 23.38 74.084 0.104 8.02 5.89 8.93
8/11/2022 5:00:00 PM 23.45 74.21 0.104 8.01 5.79 8.83
8/11/2022 5:15:00 PM 23.51 74.318 0.105 8.01 5.87 8.76
8/11/2022 5:30:00 PM 23.54 74.372 0.107 8 6.59 8.69
8/11/2022 5:45:00 PM 23.56 74.408 0.106 7.99 5.76 8.55
8/11/2022 6:00:00 PM 23.56 74.408 0.106 7.98 6.13 8.41
8/11/2022 6:15:00 PM 23.54 74.372 0.108 7.97 6.04 8.29
8/11/2022 6:30:00 PM 23.52 74.336 0.106 7.96 5.5 8.17
8/11/2022 6:45:00 PM 23.51 74.318 0.107 7.95 6.04 8.07
8/11/2022 7:00:00 PM 23.5 74.3 0.108 7.95 6.12 7.99
8/11/2022 7:15:00 PM 23.48 74.264 0.11 7.94 6.53 7.89
8/11/2022 7:30:00 PM 23.46 74.228 0.109 7.93 6.13 7.82
8/11/2022 7:45:00 PM 23.41 74.138 0.111 7.91 6.29 7.7
8/11/2022 8:00:00 PM 23.35 74.03 0.11 7.9 6.89 7.56
8/11/2022 8:15:00 PM 23.29 73.922 0.11 7.89 6.68 7.45
8/11/2022 8:30:00 PM 23.21 73.778 0.11 7.87 8.54 7.33
8/11/2022 8:45:00 PM 23.14 73.652 0.111 7.86 9.6 7.25
8/11/2022 9:00:00 PM 23.05 73.49 0.109 7.85 9.11 7.19
8/11/2022 9:15:00 PM 22.97 73.346 0.109 7.85 10.25 7.16
8/11/2022 9:30:00 PM 22.88 73.184 0.106 7.84 9.86 7.13
8/11/2022 9:45:00 PM 22.78 73.004 0.107 7.83 10.28 7.11
8/11/2022 10:00:00 PM 22.69 72.842 0.108 7.82 10.33 7.09
8/11/2022 10:15:00 PM 22.6 72.68 0.107 7.82 11.07 7.07
8/11/2022 10:30:00 PM 22.51 72.518 0.107 7.81 10.36 7.04
8/11/2022 10:45:00 PM 22.42 72.356 0.107 7.8 10.25 7.02
8/11/2022 11:00:00 PM 22.32 72.176 0.107 7.79 10.33 7.01
8/11/2022 11:15:00 PM 22.22 71.996 0.108 7.79 12.43 6.98
8/11/2022 11:30:00 PM 22.11 71.798 0.106 7.78 10.92 6.97
8/11/2022 11:45:00 PM 22.01 71.618 0.107 7.77 11.16 6.94
8/12/2022 12:00:00 AM 21.91 71.438 0.105 7.76 10.36 6.91
8/12/2022 12:15:00 AM 21.8 71.24 0.106 7.75 10.45 6.86
8/12/2022 12:30:00 AM 21.71 71.078 0.105 7.74 10.64 6.82
8/12/2022 12:45:00 AM 21.61 70.898 0.107 7.73 10.29 6.79
8/12/2022 1:00:00 AM 21.52 70.736 0.106 7.72 10.88 6.76
8/12/2022 1:15:00 AM 21.43 70.574 0.106 7.71 11.47 6.73
8/12/2022 1:30:00 AM 21.35 70.43 0.106 7.71 11.05 6.69
8/12/2022 1:45:00 AM 21.28 70.304 0.106 7.7 10.42 6.69
8/12/2022 2:00:00 AM 21.2 70.16 0.105 7.69 10.65 6.66
8/12/2022 2:15:00 AM 21.13 70.034 0.105 7.69 10.06 6.65
8/12/2022 2:30:00 AM 21.06 69.908 0.105 7.68 9.92 6.64
8/12/2022 2:45:00 AM 20.98 69.764 0.106 7.68 10.26 6.64
8/12/2022 3:00:00 AM 20.91 69.638 0.105 7.68 10.44 6.62
8/12/2022 3:15:00 AM 20.84 69.512 0.105 7.68 10.57 6.62
8/12/2022 3:30:00 AM 20.77 69.386 0.104 7.68 11.04 6.62
8/12/2022 3:45:00 AM 20.7 69.26 0.106 7.68 10.67 6.63
8/12/2022 4:00:00 AM 20.63 69.134 0.106 7.67 10.66 6.63
8/12/2022 4:15:00 AM 20.55 68.99 0.105 7.67 10.17 6.64
8/12/2022 4:30:00 AM 20.48 68.864 0.104 7.67 10.54 6.64
8/12/2022 4:45:00 AM 20.41 68.738 0.105 7.67 10.63 6.67
8/12/2022 5:00:00 AM 20.34 68.612 0.104 7.67 11.05 6.66
8/12/2022 5:15:00 AM 20.27 68.486 0.104 7.67 10.64 6.68
8/12/2022 5:30:00 AM 20.2 68.36 0.104 7.68 11.41 6.68
8/12/2022 5:45:00 AM 20.13 68.234 0.104 7.67 13.43 6.71
8/12/2022 6:00:00 AM 20.05 68.09 0.103 7.68 12.36 6.72
8/12/2022 6:15:00 AM 19.98 67.964 0.104 7.68 11.42 6.75
8/12/2022 6:30:00 AM 19.9 67.82 0.104 7.68 11.81 6.79
8/12/2022 6:45:00 AM 19.82 67.676 0.102 7.68 10.25 6.83
8/12/2022 7:00:00 AM 19.75 67.55 0.103 7.68 9.9 6.88
8/12/2022 7:15:00 AM 19.68 67.424 0.102 7.69 9.17 6.95
8/12/2022 7:30:00 AM 19.61 67.298 0.102 7.69 9.03 6.99
8/12/2022 7:45:00 AM 19.54 67.172 0.103 7.69 9.13 7.05
8/12/2022 8:00:00 AM 19.49 67.082 0.101 7.7 8.7 7.12
8/12/2022 8:15:00 AM 19.43 66.974 0.1 7.7 8.23 7.2
8/12/2022 8:30:00 AM 19.39 66.902 0.099 7.71 8.24 7.28
8/12/2022 8:45:00 AM 19.34 66.812 0.099 7.72 8.41 7.35
8/12/2022 9:00:00 AM 19.3 66.74 0.097 7.73 7.84 7.46
8/12/2022 9:15:00 AM 19.27 66.686 0.096 7.74 8.3 7.59
8/12/2022 9:30:00 AM 19.26 66.668 0.096 7.76 7.66 7.76
8/12/2022 9:45:00 AM 19.25 66.65 0.096 7.77 8.1 7.92
8/12/2022 10:00:00 AM 19.27 66.686 0.096 7.79 8.59 8.08
8/12/2022 10:15:00 AM 19.28 66.704 0.094 7.8 7.98 8.22
8/12/2022 10:30:00 AM 19.31 66.758 0.094 7.82 8.16 8.37
8/12/2022 10:45:00 AM 19.36 66.848 0.093 7.83 8.45 8.51
8/12/2022 11:00:00 AM 19.4 66.92 0.094 7.85 10.43 8.64
8/12/2022 11:15:00 AM 19.46 67.028 0.093 7.86 9.55 8.76
8/12/2022 11:30:00 AM 19.52 67.136 0.092 7.87 10.05 8.88
8/12/2022 11:45:00 AM 19.59 67.262 0.093 7.88 8.99 8.96
8/12/2022 12:00:00 PM 19.67 67.406 0.093 7.89 8.72 9.06
8/12/2022 12:15:00 PM 19.73 67.514 0.093 7.9 8.53 9.12
8/12/2022 12:30:00 PM 19.86 67.748 0.092 7.92 8.43 9.23
8/12/2022 12:45:00 PM 20.02 68.036 0.094 7.93 7.48 9.35
8/12/2022 1:00:00 PM 20.15 68.27 0.094 7.94 7.24 9.4
8/12/2022 1:15:00 PM 20.27 68.486 0.093 7.95 7.67 9.45
8/12/2022 1:30:00 PM 20.39 68.702 0.095 7.96 7.72 9.52
8/12/2022 1:45:00 PM 20.55 68.99 0.095 7.98 6.93 9.58
8/12/2022 2:00:00 PM 20.63 69.134 0.094 7.98 6.46 9.57
8/12/2022 2:15:00 PM 20.8 69.44 0.095 7.99 6.33 9.64
8/12/2022 2:30:00 PM 20.93 69.674 0.099 8 6.81 9.61
8/12/2022 2:45:00 PM 21.09 69.962 0.099 8.01 7.3 9.6
8/12/2022 3:00:00 PM 21.24 70.232 0.101 8.01 6.55 9.56
8/12/2022 3:15:00 PM 21.39 70.502 0.1 8.01 6.77 9.49
8/12/2022 3:30:00 PM 21.6 70.88 0.102 8.02 6.38 9.45
8/12/2022 3:45:00 PM 21.76 71.168 0.104 8.02 7.02 9.38
8/12/2022 4:00:00 PM 21.92 71.456 0.105 8.02 6.68 9.31
8/12/2022 4:15:00 PM 22.06 71.708 0.107 8.03 6.26 9.25
8/12/2022 4:30:00 PM 22.18 71.924 0.108 8.03 6.58 9.19
8/12/2022 4:45:00 PM 22.29 72.122 0.109 8.03 6.5 9.14
8/12/2022 5:00:00 PM 22.36 72.248 0.108 8.03 6.4 9.08
8/12/2022 5:15:00 PM 22.41 72.338 0.11 8.03 6.43 8.98
8/12/2022 5:30:00 PM 22.43 72.374 0.109 8.02 6.1 8.87
8/12/2022 5:45:00 PM 22.44 72.392 0.11 8.02 6.8 8.75
8/12/2022 6:00:00 PM 22.42 72.356 0.11 8.01 6.37 8.64
8/12/2022 6:15:00 PM 22.38 72.284 0.11 8 6.46 8.54
8/12/2022 6:30:00 PM 22.33 72.194 0.11 7.99 6.28 8.42
8/12/2022 6:45:00 PM 22.27 72.086 0.109 7.98 6.05 8.33
8/12/2022 7:00:00 PM 22.24 72.032 0.108 7.97 6.32 8.25
8/12/2022 7:15:00 PM 22.2 71.96 0.108 7.96 6.32 8.19
8/12/2022 7:30:00 PM 22.16 71.888 0.108 7.95 6.38 8.11
8/12/2022 7:45:00 PM 22.1 71.78 0.108 7.94 6.4 7.97
8/12/2022 8:00:00 PM 22.04 71.672 0.108 7.92 6.48 7.86
8/12/2022 8:15:00 PM 21.99 71.582 0.107 7.91 6.59 7.78
8/12/2022 8:30:00 PM 21.92 71.456 0.107 7.9 7.49 7.7
8/12/2022 8:45:00 PM 21.83 71.294 0.109 7.89 8.55 7.62
8/12/2022 9:00:00 PM 21.74 71.132 0.109 7.88 10.04 7.55
8/12/2022 9:15:00 PM 21.64 70.952 0.11 7.87 11.61 7.49
8/12/2022 9:30:00 PM 21.54 70.772 0.109 7.86 11.09 7.44
8/12/2022 9:45:00 PM 21.44 70.592 0.109 7.85 10.27 7.42
8/12/2022 10:00:00 PM 21.33 70.394 0.109 7.84 10.44 7.4
8/12/2022 10:15:00 PM 21.22 70.196 0.108 7.84 10.64 7.38
8/12/2022 10:30:00 PM 21.11 69.998 0.108 7.83 10.57 7.36
8/12/2022 10:45:00 PM 21 69.8 0.108 7.82 10.28 7.36
8/12/2022 11:00:00 PM 20.89 69.602 0.11 7.82 10.33 7.35
8/12/2022 11:15:00 PM 20.77 69.386 0.112 7.81 10.52 7.35
8/12/2022 11:30:00 PM 20.65 69.17 0.11 7.8 10.74 7.35
8/12/2022 11:45:00 PM 20.52 68.936 0.11 7.8 10.01 7.34
8/13/2022 12:00:00 AM 20.39 68.702 0.11 7.79 10.72 7.33
8/13/2022 12:15:00 AM 20.26 68.468 0.111 7.79 11.35 7.32
8/13/2022 12:30:00 AM 20.12 68.216 0.11 7.78 10.54 7.31
8/13/2022 12:45:00 AM 19.99 67.982 0.109 7.77 11.06 7.32
8/13/2022 1:00:00 AM 19.86 67.748 0.109 7.77 10.8 7.31
8/13/2022 1:15:00 AM 19.73 67.514 0.108 7.76 10.68 7.31
8/13/2022 1:30:00 AM 19.6 67.28 0.108 7.76 10.08 7.31
8/13/2022 1:45:00 AM 19.49 67.082 0.108 7.75 10.01 7.31
8/13/2022 2:00:00 AM 19.38 66.884 0.106 7.75 9.78 7.3
8/13/2022 2:15:00 AM 19.27 66.686 0.107 7.74 10.27 7.31
8/13/2022 2:30:00 AM 19.17 66.506 0.106 7.74 10.54 7.31
8/13/2022 2:45:00 AM 19.07 66.326 0.107 7.74 10.07 7.31
8/13/2022 3:00:00 AM 18.97 66.146 0.106 7.73 10.13 7.31
8/13/2022 3:15:00 AM 18.87 65.966 0.106 7.73 10.28 7.31
8/13/2022 3:30:00 AM 18.78 65.804 0.105 7.73 9.98 7.32
8/13/2022 3:45:00 AM 18.7 65.66 0.105 7.73 10.16 7.33
8/13/2022 4:00:00 AM 18.61 65.498 0.106 7.73 9.78 7.33
8/13/2022 4:15:00 AM 18.52 65.336 0.106 7.73 11.64 7.35
8/13/2022 4:30:00 AM 18.43 65.174 0.106 7.73 10.37 7.36
8/13/2022 4:45:00 AM 18.34 65.012 0.107 7.72 11.31 7.36
8/13/2022 5:00:00 AM 18.26 64.868 0.107 7.72 11.13 7.37
8/13/2022 5:15:00 AM 18.17 64.706 0.107 7.72 12.41 7.39
8/13/2022 5:30:00 AM 18.08 64.544 0.107 7.72 11.95 7.4
8/13/2022 5:45:00 AM 17.99 64.382 0.106 7.72 10.7 7.43
8/13/2022 6:00:00 AM 17.9 64.22 0.105 7.72 10.4 7.45
8/13/2022 6:15:00 AM 17.82 64.076 0.104 7.72 9.85 7.47
8/13/2022 6:30:00 AM 17.73 63.914 0.103 7.72 9.7 7.49
8/13/2022 6:45:00 AM 17.66 63.788 0.104 7.73 9.9 7.53
8/13/2022 7:00:00 AM 17.58 63.644 0.104 7.73 9.6 7.56
8/13/2022 7:15:00 AM 17.51 63.518 0.104 7.73 8.89 7.6
8/13/2022 7:30:00 AM 17.44 63.392 0.104 7.73 8.87 7.65
8/13/2022 7:45:00 AM 17.39 63.302 0.103 7.73 8.49 7.68
8/13/2022 8:00:00 AM 17.35 63.23 0.103 7.73 8.62 7.73
8/13/2022 8:15:00 AM 17.32 63.176 0.103 7.74 7.93 7.79
8/13/2022 8:30:00 AM 17.3 63.14 0.102 7.74 8.6 7.86
8/13/2022 8:45:00 AM 17.28 63.104 0.102 7.75 7.99 7.91
8/13/2022 9:00:00 AM 17.29 63.122 0.104 7.75 8.87 8
8/13/2022 9:15:00 AM 17.32 63.176 0.104 7.76 8.05 8.11
8/13/2022 9:30:00 AM 17.36 63.248 0.102 7.78 7.97 8.25
8/13/2022 9:45:00 AM 17.42 63.356 0.102 7.79 7.68 8.39
8/13/2022 10:00:00 AM 17.49 63.482 0.103 7.81 7.46 8.52
8/13/2022 10:15:00 AM 17.56 63.608 0.101 7.82 7.14 8.65
8/13/2022 10:30:00 AM 17.64 63.752 0.102 7.83 7.46 8.79
8/13/2022 10:45:00 AM 17.74 63.932 0.103 7.85 6.87 8.91
8/13/2022 11:00:00 AM 17.84 64.112 0.102 7.86 7.34 9.03
8/13/2022 11:15:00 AM 17.94 64.292 0.103 7.88 7.12 9.16
8/13/2022 11:30:00 AM 18.06 64.508 0.103 7.89 7.12 9.26
8/13/2022 11:45:00 AM 18.18 64.724 0.104 7.9 7.05 9.35
8/13/2022 12:00:00 PM 18.29 64.922 0.106 7.91 7.18 9.41
8/13/2022 12:15:00 PM 18.42 65.156 0.105 7.92 6.94 9.5
8/13/2022 12:30:00 PM 18.56 65.408 0.104 7.93 6.65 9.58
8/13/2022 12:45:00 PM 18.72 65.696 0.105 7.94 7.72 9.64
8/13/2022 1:00:00 PM 18.9 66.02 0.105 7.95 7.47 9.69
8/13/2022 1:15:00 PM 19.08 66.344 0.105 7.96 7.04 9.77
8/13/2022 1:30:00 PM 19.28 66.704 0.106 7.96 7.39 9.84
8/13/2022 1:45:00 PM 19.48 67.064 0.106 7.97 7.44 9.9
8/13/2022 2:00:00 PM 19.69 67.442 0.107 7.99 7.1 9.93
8/13/2022 2:15:00 PM 19.88 67.784 0.108 8 6.47 9.94
8/13/2022 2:30:00 PM 20.05 68.09 0.108 8.01 7 9.93
8/13/2022 2:45:00 PM 20.21 68.378 0.11 8.02 6.3 9.89
8/13/2022 3:00:00 PM 20.37 68.666 0.108 8.03 6.35 9.84
8/13/2022 3:15:00 PM 20.51 68.918 0.11 8.03 6.74 9.78
8/13/2022 3:30:00 PM 20.66 69.188 0.111 8.03 6.37 9.73
8/13/2022 3:45:00 PM 20.81 69.458 0.113 8.03 6.78 9.66
8/13/2022 4:00:00 PM 20.95 69.71 0.114 8.04 6.44 9.58
8/13/2022 4:15:00 PM 21.09 69.962 0.114 8.04 6.08 9.5
8/13/2022 4:30:00 PM 21.23 70.214 0.116 8.04 5.9 9.41
8/13/2022 4:45:00 PM 21.37 70.466 0.118 8.04 6.5 9.34
8/13/2022 5:00:00 PM 21.51 70.718 0.118 8.03 6.39 9.24
8/13/2022 5:15:00 PM 21.62 70.916 0.12 8.03 6.96 9.11
8/13/2022 5:30:00 PM 21.7 71.06 0.119 8.02 7.22 8.97
8/13/2022 5:45:00 PM 21.74 71.132 0.12 8.01 6.61 8.84
8/13/2022 6:00:00 PM 21.79 71.222 0.12 8 6.57 8.73
8/13/2022 6:15:00 PM 21.82 71.276 0.12 8 7.41 8.6
8/13/2022 6:30:00 PM 21.82 71.276 0.121 7.99 7.93 8.48
8/13/2022 6:45:00 PM 21.81 71.258 0.121 7.98 7.12 8.39
8/13/2022 7:00:00 PM 21.79 71.222 0.12 7.97 7.47 8.31
8/13/2022 7:15:00 PM 21.76 71.168 0.12 7.96 8.13 8.24
8/13/2022 7:30:00 PM 21.71 71.078 0.12 7.95 7.24 8.17
8/13/2022 7:45:00 PM 21.66 70.988 0.12 7.94 7.18 8.08
8/13/2022 8:00:00 PM 21.6 70.88 0.119 7.93 7.01 7.97
8/13/2022 8:15:00 PM 21.53 70.754 0.119 7.92 7.39 7.88
8/13/2022 8:30:00 PM 21.45 70.61 0.118 7.91 8.72 7.79
8/13/2022 8:45:00 PM 21.37 70.466 0.117 7.9 10.46 7.72
8/13/2022 9:00:00 PM 21.28 70.304 0.118 7.89 11.14 7.66
8/13/2022 9:15:00 PM 21.2 70.16 0.117 7.88 10.28 7.6
8/13/2022 9:30:00 PM 21.11 69.998 0.117 7.87 9.17 7.55
8/13/2022 9:45:00 PM 21.02 69.836 0.116 7.87 10.84 7.51
8/13/2022 10:00:00 PM 20.93 69.674 0.117 7.86 12.15 7.49
8/13/2022 10:15:00 PM 20.84 69.512 0.116 7.85 11.65 7.47
8/13/2022 10:30:00 PM 20.75 69.35 0.116 7.85 12.03 7.44
8/13/2022 10:45:00 PM 20.65 69.17 0.116 7.84 11.44 7.43
8/13/2022 11:00:00 PM 20.56 69.008 0.114 7.83 11.99 7.4
8/13/2022 11:15:00 PM 20.47 68.846 0.114 7.83 11.19 7.4
8/13/2022 11:30:00 PM 20.37 68.666 0.115 7.82 11.27 7.39
8/13/2022 11:45:00 PM 20.27 68.486 0.115 7.81 12.85 7.38
8/14/2022 12:00:00 AM 20.17 68.306 0.114 7.8 12.08 7.37
8/14/2022 12:15:00 AM 20.08 68.144 0.115 7.8 11.38 7.36
8/14/2022 12:30:00 AM 20 68 0.115 7.79 11.8 7.35
8/14/2022 12:45:00 AM 19.91 67.838 0.116 7.78 10.88 7.32
8/14/2022 1:00:00 AM 19.82 67.676 0.115 7.78 11.16 7.32
8/14/2022 1:15:00 AM 19.74 67.532 0.115 7.77 11.05 7.3
8/14/2022 1:30:00 AM 19.65 67.37 0.115 7.76 10.9 7.29
8/14/2022 1:45:00 AM 19.57 67.226 0.114 7.76 10.56 7.28
8/14/2022 2:00:00 AM 19.49 67.082 0.115 7.75 10.86 7.27
8/14/2022 2:15:00 AM 19.41 66.938 0.114 7.75 10.74 7.27
8/14/2022 2:30:00 AM 19.33 66.794 0.113 7.74 9.84 7.26
8/14/2022 2:45:00 AM 19.25 66.65 0.114 7.74 10.53 7.27
8/14/2022 3:00:00 AM 19.17 66.506 0.114 7.73 9.59 7.26
8/14/2022 3:15:00 AM 19.1 66.38 0.114 7.73 9.92 7.27
8/14/2022 3:30:00 AM 19.03 66.254 0.114 7.73 10.02 7.27
8/14/2022 3:45:00 AM 18.96 66.128 0.112 7.73 9.41 7.28
8/14/2022 4:00:00 AM 18.9 66.02 0.112 7.72 11.85 7.29
8/14/2022 4:15:00 AM 18.82 65.876 0.111 7.72 9.53 7.29
8/14/2022 4:30:00 AM 18.76 65.768 0.112 7.72 9.61 7.3
8/14/2022 4:45:00 AM 18.69 65.642 0.113 7.72 10.22 7.31
8/14/2022 5:00:00 AM 18.63 65.534 0.112 7.72 9.8 7.32
8/14/2022 5:15:00 AM 18.57 65.426 0.113 7.72 9.77 7.33
8/14/2022 5:30:00 AM 18.5 65.3 0.112 7.72 9.58 7.32
8/14/2022 5:45:00 AM 18.44 65.192 0.111 7.72 9.52 7.34
8/14/2022 6:00:00 AM 18.39 65.102 0.114 7.72 9.48 7.35
8/14/2022 6:15:00 AM 18.33 64.994 0.113 7.72 9.86 7.36
8/14/2022 6:30:00 AM 18.27 64.886 0.113 7.72 8.83 7.39
8/14/2022 6:45:00 AM 18.22 64.796 0.114 7.72 9 7.4
8/14/2022 7:00:00 AM 18.18 64.724 0.114 7.72 8.75 7.43
8/14/2022 7:15:00 AM 18.13 64.634 0.113 7.72 8.5 7.47
8/14/2022 7:30:00 AM 18.1 64.58 0.113 7.72 8.26 7.49
8/14/2022 7:45:00 AM 18.06 64.508 0.113 7.72 8.19 7.52
8/14/2022 8:00:00 AM 18.03 64.454 0.113 7.73 7.87 7.57
8/14/2022 8:15:00 AM 18.01 64.418 0.112 7.73 7.77 7.62
8/14/2022 8:30:00 AM 18 64.4 0.113 7.73 7.6 7.68
8/14/2022 8:45:00 AM 17.98 64.364 0.113 7.74 7.58 7.74
8/14/2022 9:00:00 AM 17.99 64.382 0.112 7.75 7.4 7.8
8/14/2022 9:15:00 AM 18.01 64.418 0.112 7.76 7.55 7.91
8/14/2022 9:30:00 AM 18.06 64.508 0.113 7.77 7.93 8.05
8/14/2022 9:45:00 AM 18.12 64.616 0.112 7.78 7.62 8.19
8/14/2022 10:00:00 AM 18.19 64.742 0.114 7.8 8.12 8.36
8/14/2022 10:15:00 AM 18.26 64.868 0.112 7.82 8.2 8.49
8/14/2022 10:30:00 AM 18.34 65.012 0.114 7.83 7.75 8.63
8/14/2022 10:45:00 AM 18.43 65.174 0.113 7.85 7.89 8.76
8/14/2022 11:00:00 AM 18.54 65.372 0.113 7.86 7.58 8.91
8/14/2022 11:15:00 AM 18.64 65.552 0.114 7.87 7.14 9.03
8/14/2022 11:30:00 AM 18.75 65.75 0.112 7.89 7.15 9.13
8/14/2022 11:45:00 AM 18.86 65.948 0.114 7.9 7.35 9.2
8/14/2022 12:00:00 PM 18.97 66.146 0.114 7.91 6.94 9.29
8/14/2022 12:15:00 PM 19.1 66.38 0.116 7.92 6.71 9.38
8/14/2022 12:30:00 PM 19.24 66.632 0.114 7.93 8.21 9.46
8/14/2022 12:45:00 PM 19.39 66.902 0.115 7.94 7.29 9.54
8/14/2022 1:00:00 PM 19.56 67.208 0.116 7.95 6.81 9.6
8/14/2022 1:15:00 PM 19.73 67.514 0.115 7.96 6.55 9.67
8/14/2022 1:30:00 PM 19.92 67.856 0.118 7.98 6.45 9.74
8/14/2022 1:45:00 PM 20.09 68.162 0.119 7.99 6.41 9.76
8/14/2022 2:00:00 PM 20.27 68.486 0.12 8 7.89 9.82
8/14/2022 2:15:00 PM 20.45 68.81 0.121 8.01 6.27 9.86
8/14/2022 2:30:00 PM 20.58 69.044 0.121 8.02 6.61 9.85
8/14/2022 2:45:00 PM 20.72 69.296 0.122 8.02 6.14 9.83
8/14/2022 3:00:00 PM 20.85 69.53 0.122 8.03 6.7 9.79
8/14/2022 3:15:00 PM 20.97 69.746 0.123 8.03 6.61 9.75
8/14/2022 3:30:00 PM 21.11 69.998 0.123 8.04 7.2 9.7
8/14/2022 3:45:00 PM 21.23 70.214 0.124 8.04 6.59 9.64
8/14/2022 4:00:00 PM 21.33 70.394 0.126 8.04 6.05 9.55
8/14/2022 4:15:00 PM 21.42 70.556 0.128 8.04 6.09 9.43
8/14/2022 4:30:00 PM 21.51 70.718 0.128 8.03 8.57 9.33
8/14/2022 4:45:00 PM 21.62 70.916 0.13 8.04 6.07 9.3
8/14/2022 5:00:00 PM 21.74 71.132 0.13 8.04 6.16 9.25
8/14/2022 5:15:00 PM 21.84 71.312 0.13 8.04 6.18 9.16
8/14/2022 5:30:00 PM 21.9 71.42 0.133 8.03 6.17 9.02
8/14/2022 5:45:00 PM 21.95 71.51 0.136 8.02 6.31 8.91
8/14/2022 6:00:00 PM 22.02 71.636 0.135 8.02 6.04 8.86
8/14/2022 6:15:00 PM 22.07 71.726 0.136 8.02 6.65 8.8
8/14/2022 6:30:00 PM 22.11 71.798 0.136 8.02 6.16 8.71
8/14/2022 6:45:00 PM 22.11 71.798 0.137 8.01 6.32 8.59
8/14/2022 7:00:00 PM 22.09 71.762 0.135 8 6.12 8.43
8/14/2022 7:15:00 PM 22.07 71.726 0.136 7.99 6.23 8.32
8/14/2022 7:30:00 PM 22.05 71.69 0.137 7.98 6.14 8.25
8/14/2022 7:45:00 PM 22.02 71.636 0.138 7.97 6.32 8.18
8/14/2022 8:00:00 PM 21.99 71.582 0.135 7.96 6.31 8.08
8/14/2022 8:15:00 PM 21.94 71.492 0.135 7.95 7.84 7.97
8/14/2022 8:30:00 PM 21.87 71.366 0.135 7.94 7.34 7.84
8/14/2022 8:45:00 PM 21.78 71.204 0.135 7.92 9.1 7.72
8/14/2022 9:00:00 PM 21.69 71.042 0.135 7.91 9.71 7.64
8/14/2022 9:15:00 PM 21.6 70.88 0.133 7.9 9.93 7.58
8/14/2022 9:30:00 PM 21.5 70.7 0.132 7.89 9.17 7.53
8/14/2022 9:45:00 PM 21.4 70.52 0.133 7.88 9.76 7.49
8/14/2022 10:00:00 PM 21.31 70.358 0.133 7.87 9.85 7.46
8/14/2022 10:15:00 PM 21.21 70.17799 0.135 7.87 9.84 7.44
8/14/2022 10:30:00 PM 21.12 70.016 0.133 7.86 9.96 7.43
8/14/2022 10:45:00 PM 21.03 69.854 0.133 7.86 9.85 7.42
8/14/2022 11:00:00 PM 20.94 69.692 0.134 7.85 10.04 7.38
8/14/2022 11:15:00 PM 20.85 69.53 0.132 7.84 10.1 7.38
8/14/2022 11:30:00 PM 20.75 69.35 0.133 7.84 9.92 7.37
8/14/2022 11:45:00 PM 20.66 69.188 0.133 7.83 10.03 7.37
8/15/2022 12:00:00 AM 20.56 69.008 0.129 7.82 9.73 7.35
8/15/2022 12:15:00 AM 20.47 68.846 0.13 7.82 9.86 7.34
8/15/2022 12:30:00 AM 20.37 68.666 0.131 7.81 9.74 7.33
8/15/2022 12:45:00 AM 20.28 68.504 0.13 7.8 10.27 7.32
8/15/2022 1:00:00 AM 20.19 68.342 0.13 7.8 10.52 7.31
8/15/2022 1:15:00 AM 20.1 68.18 0.127 7.79 10.23 7.28
8/15/2022 1:30:00 AM 20.02 68.036 0.13 7.78 10.55 7.28
8/15/2022 1:45:00 AM 19.94 67.892 0.13 7.78 10.24 7.25
8/15/2022 2:00:00 AM 19.86 67.748 0.129 7.77 10.96 7.24
8/15/2022 2:15:00 AM 19.79 67.622 0.131 7.76 11.18 7.23
8/15/2022 2:30:00 AM 19.72 67.496 0.131 7.76 11.63 7.22
8/15/2022 2:45:00 AM 19.65 67.37 0.133 7.76 11.89 7.22
8/15/2022 3:00:00 AM 19.58 67.244 0.132 7.75 12.07 7.21
8/15/2022 3:15:00 AM 19.52 67.136 0.134 7.75 11.66 7.21
8/15/2022 3:30:00 AM 19.47 67.046 0.132 7.75 10.54 7.2
8/15/2022 3:45:00 AM 19.42 66.956 0.134 7.75 10.91 7.2
8/15/2022 4:00:00 AM 19.37 66.866 0.133 7.74 10.36 7.19
8/15/2022 4:15:00 AM 19.32 66.776 0.133 7.74 9.9 7.19
8/15/2022 4:30:00 AM 19.28 66.704 0.133 7.74 10.39 7.19
8/15/2022 4:45:00 AM 19.25 66.65 0.133 7.74 11.79 7.19
8/15/2022 5:00:00 AM 19.22 66.596 0.133 7.74 10.54 7.18
8/15/2022 5:15:00 AM 19.18 66.524 0.133 7.74 9.66 7.18
8/15/2022 5:30:00 AM 19.15 66.47 0.133 7.74 9.44 7.19
8/15/2022 5:45:00 AM 19.12 66.416 0.134 7.74 9.81 7.19
8/15/2022 6:00:00 AM 19.08 66.344 0.132 7.74 9.6 7.19
8/15/2022 6:15:00 AM 19.05 66.29 0.134 7.74 9.9 7.17
8/15/2022 6:30:00 AM 19.02 66.236 0.133 7.74 9.53 7.18
8/15/2022 6:45:00 AM 18.99 66.182 0.133 7.74 9.49 7.19
8/15/2022 7:00:00 AM 18.96 66.128 0.133 7.74 9.16 7.2
8/15/2022 7:15:00 AM 18.93 66.074 0.132 7.74 9.05 7.22
8/15/2022 7:30:00 AM 18.9 66.02 0.131 7.74 8.91 7.23
8/15/2022 7:45:00 AM 18.88 65.984 0.131 7.74 8.57 7.25
8/15/2022 8:00:00 AM 18.86 65.948 0.131 7.74 8.14 7.29
8/15/2022 8:15:00 AM 18.85 65.93 0.132 7.75 7.69 7.33
8/15/2022 8:30:00 AM 18.84 65.912 0.132 7.75 7.79 7.4
8/15/2022 8:45:00 AM 18.83 65.894 0.132 7.75 7.98 7.43
8/15/2022 9:00:00 AM 18.83 65.894 0.131 7.76 7.51 7.5
8/15/2022 9:15:00 AM 18.84 65.912 0.13 7.77 7.35 7.58
8/15/2022 9:30:00 AM 18.85 65.93 0.131 7.78 8.32 7.73
8/15/2022 9:45:00 AM 18.87 65.966 0.137 7.79 7.63 7.88
8/15/2022 10:00:00 AM 18.88 65.984 0.134 7.8 7.43 8.03
8/15/2022 10:15:00 AM 18.89 66.002 0.132 7.81 7.79 8.11
8/15/2022 10:30:00 AM 18.92 66.056 0.132 7.82 7.83 8.24
8/15/2022 10:45:00 AM 19 66.2 0.134 7.84 7.51 8.46
8/15/2022 11:00:00 AM 19.07 66.326 0.134 7.86 8.41 8.68
8/15/2022 11:15:00 AM 19.07 66.326 0.133 7.88 7.59 8.8
8/15/2022 11:30:00 AM 19.11 66.398 0.131 7.89 7.14 8.92
8/15/2022 11:45:00 AM 19.19 66.542 0.131 7.9 6.82 9.01
8/15/2022 12:00:00 PM 19.29 66.722 0.131 7.91 7.2 9.12
8/15/2022 12:15:00 PM 19.35 66.83 0.132 7.92 6.47 9.16
8/15/2022 12:30:00 PM 19.36 66.848 0.133 7.93 6.26 9.18
8/15/2022 12:45:00 PM 19.38 66.884 0.13 7.93 6.08 9.25
8/15/2022 1:00:00 PM 19.41 66.938 0.131 7.94 6.05 9.37
8/15/2022 1:15:00 PM 19.46 67.028 0.13 7.95 6.04 9.47
8/15/2022 1:30:00 PM 19.56 67.208 0.131 7.96 6.39 9.55
8/15/2022 1:45:00 PM 19.73 67.514 0.132 7.97 5.71 9.68
8/15/2022 2:00:00 PM 19.84 67.712 0.133 7.98 5.7 9.72
8/15/2022 2:15:00 PM 19.99 67.982 0.136 8 5.71 9.82
8/15/2022 2:30:00 PM 20.2 68.36 0.137 8.01 5.99 9.9
8/15/2022 2:45:00 PM 20.4 68.72 0.14 8.03 5.64 9.98
8/15/2022 3:00:00 PM 20.57 69.026 0.139 8.04 5.81 10
8/15/2022 3:15:00 PM 20.7 69.26 0.141 8.04 6.16 10
8/15/2022 3:30:00 PM 20.88 69.584 0.143 8.05 6.39 9.98
8/15/2022 3:45:00 PM 21.04 69.872 0.142 8.06 7.63 9.97
8/15/2022 4:00:00 PM 21.17 70.106 0.144 8.06 6.37 9.92
8/15/2022 4:15:00 PM 21.3 70.34 0.146 8.07 6.89 9.85
8/15/2022 4:30:00 PM 21.36 70.448 0.15 8.06 7.3 9.73
8/15/2022 4:45:00 PM 21.42 70.556 0.147 8.06 6.57 9.66
8/15/2022 5:00:00 PM 21.49 70.682 0.148 8.05 7.07 9.6
8/15/2022 5:15:00 PM 21.55 70.79 0.148 8.05 6.78 9.46
8/15/2022 5:30:00 PM 21.61 70.898 0.148 8.04 7.22 9.3
8/15/2022 5:45:00 PM 21.66 70.988 0.149 8.04 6.97 9.18
8/15/2022 6:00:00 PM 21.68 71.024 0.149 8.03 6.63 9.02
8/15/2022 6:15:00 PM 21.67 71.006 0.149 8.02 6.45 8.85
8/15/2022 6:30:00 PM 21.61 70.898 0.148 8.01 6.35 8.69
8/15/2022 6:45:00 PM 21.54 70.772 0.148 7.99 6.14 8.53
8/15/2022 7:00:00 PM 21.47 70.646 0.148 7.97 6.2 8.4
8/15/2022 7:15:00 PM 21.44 70.592 0.147 7.96 6.07 8.31
8/15/2022 7:30:00 PM 21.42 70.556 0.147 7.95 6.28 8.2
8/15/2022 7:45:00 PM 21.43 70.574 0.146 7.94 6.29 8.08
8/15/2022 8:00:00 PM 21.44 70.592 0.147 7.93 7.5 8
8/15/2022 8:15:00 PM 21.46 70.628 0.148 7.93 6.92 7.93
8/15/2022 8:30:00 PM 21.46 70.628 0.146 7.92 7.78 7.87
8/15/2022 8:45:00 PM 21.45 70.61 0.146 7.92 8.93 7.8
8/15/2022 9:00:00 PM 21.42 70.556 0.144 7.91 9.38 7.73
8/15/2022 9:15:00 PM 21.38 70.484 0.143 7.9 9.83 7.68
8/15/2022 9:30:00 PM 21.32 70.376 0.142 7.9 9.64 7.63
8/15/2022 9:45:00 PM 21.25 70.25 0.142 7.89 9.99 7.61
8/15/2022 10:00:00 PM 21.18 70.124 0.14 7.88 9.79 7.57
8/15/2022 10:15:00 PM 21.1 69.98 0.14 7.87 9.88 7.55
8/15/2022 10:30:00 PM 21.02 69.836 0.139 7.86 9.49 7.52
8/15/2022 10:45:00 PM 20.94 69.692 0.14 7.85 10.05 7.5
8/15/2022 11:00:00 PM 20.85 69.53 0.14 7.84 10.45 7.46
8/15/2022 11:15:00 PM 20.75 69.35 0.138 7.83 10.78 7.42
8/15/2022 11:30:00 PM 20.65 69.17 0.138 7.82 11.03 7.39
8/15/2022 11:45:00 PM 20.54 68.972 0.138 7.81 10.52 7.36
8/16/2022 12:00:00 AM 20.43 68.774 0.136 7.8 10.58 7.32
8/16/2022 12:15:00 AM 20.32 68.576 0.137 7.79 10.57 7.29
8/16/2022 12:30:00 AM 20.22 68.396 0.134 7.78 11.14 7.27
8/16/2022 12:45:00 AM 20.12 68.216 0.133 7.77 11.5 7.25
8/16/2022 1:00:00 AM 20.02 68.036 0.133 7.76 11.99 7.2
8/16/2022 1:15:00 AM 19.92 67.856 0.133 7.76 11.78 7.21
8/16/2022 1:30:00 AM 19.84 67.712 0.133 7.75 11.56 7.19
8/16/2022 1:45:00 AM 19.75 67.55 0.132 7.74 11.38 7.19
8/16/2022 2:00:00 AM 19.67 67.406 0.132 7.74 10.78 7.2
8/16/2022 2:15:00 AM 19.59 67.262 0.131 7.74 10.91 7.19
8/16/2022 2:30:00 AM 19.51 67.118 0.131 7.73 11.25 7.19
8/16/2022 2:45:00 AM 19.43 66.974 0.132 7.73 11.04 7.2
8/16/2022 3:00:00 AM 19.36 66.848 0.131 7.73 10.96 7.2
8/16/2022 3:15:00 AM 19.28 66.704 0.13 7.73 11.02 7.21
8/16/2022 3:30:00 AM 19.21 66.578 0.129 7.73 18.32 7.22
8/16/2022 3:45:00 AM 19.13 66.434 0.13 7.73 11.1 7.22
8/16/2022 4:00:00 AM 19.06 66.308 0.131 7.72 10.66 7.23
8/16/2022 4:15:00 AM 19 66.2 0.128 7.73 10.79 7.25
8/16/2022 4:30:00 AM 18.93 66.074 0.129 7.72 10.76 7.26
8/16/2022 4:45:00 AM 18.87 65.966 0.129 7.72 10.48 7.27
8/16/2022 5:00:00 AM 18.81 65.858 0.129 7.72 10.87 7.28
8/16/2022 5:15:00 AM 18.76 65.768 0.129 7.72 10.62 7.28
8/16/2022 5:30:00 AM 18.7 65.66 0.128 7.72 10.77 7.3
8/16/2022 5:45:00 AM 18.65 65.57 0.126 7.72 10.98 7.27
8/16/2022 6:00:00 AM 18.6 65.48 0.126 7.72 11.55 7.3
8/16/2022 6:15:00 AM 18.55 65.39 0.127 7.72 11.07 7.33
8/16/2022 6:30:00 AM 18.5 65.3 0.128 7.72 10.6 7.34
8/16/2022 6:45:00 AM 18.46 65.228 0.127 7.73 9.89 7.37
8/16/2022 7:00:00 AM 18.42 65.156 0.128 7.73 9.97 7.4
8/16/2022 7:15:00 AM 18.38 65.084 0.128 7.73 9.25 7.45
8/16/2022 7:30:00 AM 18.34 65.012 0.128 7.73 8.84 7.49
8/16/2022 7:45:00 AM 18.31 64.958 0.127 7.74 8.67 7.56
8/16/2022 8:00:00 AM 18.29 64.922 0.116 7.74 8.35 7.61
8/16/2022 8:15:00 AM 18.26 64.868 0.103 7.75 8.05 7.66
8/16/2022 8:30:00 AM 18.23 64.814 0.1 7.75 8.41 7.75
8/16/2022 8:45:00 AM 18.21 64.778 0.105 7.76 8.1 7.83
8/16/2022 9:00:00 AM 18.2 64.76 0.108 7.77 7.81 7.93
8/16/2022 9:15:00 AM 18.21 64.778 0.109 7.78 8.16 8.06
8/16/2022 9:30:00 AM 18.21 64.778 0.11 7.79 8.21 8.17
8/16/2022 9:45:00 AM 18.21 64.778 0.111 7.8 7.94 8.27
8/16/2022 10:00:00 AM 18.23 64.814 0.112 7.81 7.93 8.4
8/16/2022 10:15:00 AM 18.27 64.886 0.113 7.83 8.4 8.61
8/16/2022 10:30:00 AM 18.32 64.976 0.113 7.85 7.67 8.82
8/16/2022 10:45:00 AM 18.34 65.012 0.113 7.87 9.3 8.95
8/16/2022 11:00:00 AM 18.37 65.066 0.113 7.88 10.08 9.07
8/16/2022 11:15:00 AM 18.46 65.228 0.112 7.89 7.41 9.24
8/16/2022 11:30:00 AM 18.51 65.318 0.112 7.91 7.35 9.34
8/16/2022 11:45:00 AM 18.56 65.408 0.112 7.92 7.29 9.46
8/16/2022 12:00:00 PM 18.62 65.516 0.112 7.93 7.3 9.57
8/16/2022 12:15:00 PM 18.75 65.75 0.113 7.95 7.29 9.69
8/16/2022 12:30:00 PM 18.88 65.984 0.113 7.96 7.73 9.76
8/16/2022 12:45:00 PM 19.04 66.272 0.114 7.97 7.91 9.85
8/16/2022 1:00:00 PM 19.21 66.578 0.115 7.98 9.81 9.97
8/16/2022 1:15:00 PM 19.35 66.83 0.116 8 7.34 10.04
8/16/2022 1:30:00 PM 19.45 67.01 0.116 8.01 7.15 10.09
8/16/2022 1:45:00 PM 19.57 67.226 0.119 8.02 6.78 10.14
8/16/2022 2:00:00 PM 19.68 67.424 0.12 8.03 6.7 10.16
8/16/2022 2:15:00 PM 19.84 67.712 0.12 8.04 6.76 10.22
8/16/2022 2:30:00 PM 20.02 68.036 0.122 8.06 6.2 10.3
8/16/2022 2:45:00 PM 20.14 68.252 0.122 8.06 6.71 10.25
8/16/2022 3:00:00 PM 20.3 68.54 0.124 8.07 6.44 10.22
8/16/2022 3:15:00 PM 20.46 68.828 0.123 8.07 6.96 10.14
8/16/2022 3:30:00 PM 20.61 69.098 0.127 8.08 6.75 10.08
8/16/2022 3:45:00 PM 20.78 69.404 0.125 8.08 6.13 10
8/16/2022 4:00:00 PM 20.93 69.674 0.124 8.08 6.28 9.89
8/16/2022 4:15:00 PM 21.05 69.89 0.111 8.08 6.11 9.77
8/16/2022 4:30:00 PM 21.17 70.106 0.099 8.08 6.25 9.68
8/16/2022 4:45:00 PM 21.28 70.304 0.091 8.07 6.04 9.57
8/16/2022 5:00:00 PM 21.38 70.484 0.098 8.07 6.13 9.48
8/16/2022 5:15:00 PM 21.46 70.628 0.104 8.06 5.93 9.37
8/16/2022 5:30:00 PM 21.5 70.7 0.106 8.06 6.14 9.24
8/16/2022 5:45:00 PM 21.53 70.754 0.109 8.05 6.1 9.12
8/16/2022 6:00:00 PM 21.56 70.808 0.105 8.04 6.26 9.05
8/16/2022 6:15:00 PM 21.57 70.826 0.107 8.04 6.22 8.97
8/16/2022 6:30:00 PM 21.55 70.79 0.096 8.03 6.3 8.85
8/16/2022 6:45:00 PM 21.52 70.736 0.09 8.02 6.07 8.71
8/16/2022 7:00:00 PM 21.48 70.664 0.094 8.01 5.84 8.58
8/16/2022 7:15:00 PM 21.45 70.61 0.095 8 6.02 8.49
8/16/2022 7:30:00 PM 21.43 70.574 0.097 7.99 6 8.4
8/16/2022 7:45:00 PM 21.39 70.502 0.1 7.99 6.04 8.32
8/16/2022 8:00:00 PM 21.34 70.412 0.101 7.98 6.8 8.24
8/16/2022 8:15:00 PM 21.28 70.304 0.103 7.96 7.22 8.12
8/16/2022 8:30:00 PM 21.21 70.17799 0.104 7.95 8.04 8.01
8/16/2022 8:45:00 PM 21.14 70.052 0.104 7.94 9.65 7.91
8/16/2022 9:00:00 PM 21.07 69.926 0.104 7.93 9.83 7.81
8/16/2022 9:15:00 PM 20.99 69.782 0.105 7.92 9.64 7.74
8/16/2022 9:30:00 PM 20.91 69.638 0.106 7.9 9.47 7.69
8/16/2022 9:45:00 PM 20.83 69.494 0.105 7.9 9.77 7.65
8/16/2022 10:00:00 PM 20.75 69.35 0.106 7.89 9.89 7.61
8/16/2022 10:15:00 PM 20.67 69.206 0.107 7.88 10.54 7.59
8/16/2022 10:30:00 PM 20.6 69.08 0.106 7.87 9.65 7.57
8/16/2022 10:45:00 PM 20.52 68.936 0.107 7.86 10.53 7.52
8/16/2022 11:00:00 PM 20.44 68.792 0.106 7.85 10.5 7.5
8/16/2022 11:15:00 PM 20.35 68.63 0.107 7.85 10.42 7.48
8/16/2022 11:30:00 PM 20.26 68.468 0.108 7.84 11.32 7.46
8/16/2022 11:45:00 PM 20.17 68.306 0.106 7.83 11.05 7.45
8/17/2022 12:00:00 AM 20.08 68.144 0.107 7.82 11.45 7.44
8/17/2022 12:15:00 AM 19.98 67.964 0.106 7.81 11.31 7.42
8/17/2022 12:30:00 AM 19.88 67.784 0.107 7.81 10.65 7.4
8/17/2022 12:45:00 AM 19.78 67.604 0.105 7.8 10.62 7.39
8/17/2022 1:00:00 AM 19.69 67.442 0.105 7.79 10.38 7.38
8/17/2022 1:15:00 AM 19.59 67.262 0.105 7.79 10.97 7.37
8/17/2022 1:30:00 AM 19.51 67.118 0.105 7.78 10.82 7.36
8/17/2022 1:45:00 AM 19.41 66.938 0.105 7.77 12.17 7.35
8/17/2022 2:00:00 AM 19.34 66.812 0.105 7.77 12.61 7.33
8/17/2022 2:15:00 AM 19.26 66.668 0.105 7.76 12.2 7.33
8/17/2022 2:30:00 AM 19.19 66.542 0.105 7.76 11.07 7.32
8/17/2022 2:45:00 AM 19.12 66.416 0.106 7.75 10.98 7.31
8/17/2022 3:00:00 AM 19.06 66.308 0.105 7.75 10.74 7.3
8/17/2022 3:15:00 AM 19 66.2 0.105 7.74 10.67 7.31
8/17/2022 3:30:00 AM 18.94 66.092 0.107 7.74 10.81 7.3
8/17/2022 3:45:00 AM 18.87 65.966 0.105 7.74 11 7.31
8/17/2022 4:00:00 AM 18.81 65.858 0.107 7.74 10.56 7.31
8/17/2022 4:15:00 AM 18.74 65.732 0.107 7.74 10.47 7.32
8/17/2022 4:30:00 AM 18.67 65.606 0.108 7.74 11.31 7.33
8/17/2022 4:45:00 AM 18.6 65.48 0.107 7.74 10.82 7.33
8/17/2022 5:00:00 AM 18.53 65.354 0.108 7.74 10.66 7.35
8/17/2022 5:15:00 AM 18.46 65.228 0.109 7.74 10.4 7.36
8/17/2022 5:30:00 AM 18.4 65.12 0.107 7.73 10.55 7.37
8/17/2022 5:45:00 AM 18.35 65.03 0.109 7.73 10.19 7.38
8/17/2022 6:00:00 AM 18.3 64.94 0.109 7.74 9.91 7.39
8/17/2022 6:15:00 AM 18.24 64.832 0.109 7.73 9.71 7.41
8/17/2022 6:30:00 AM 18.2 64.76 0.11 7.74 9.7 7.42
8/17/2022 6:45:00 AM 18.16 64.688 0.11 7.74 8.89 7.44
8/17/2022 7:00:00 AM 18.13 64.634 0.108 7.74 8.94 7.46
8/17/2022 7:15:00 AM 18.1 64.58 0.109 7.74 8.35 7.49
8/17/2022 7:30:00 AM 18.08 64.544 0.109 7.74 8.06 7.53
8/17/2022 7:45:00 AM 18.07 64.526 0.109 7.75 7.91 7.59
8/17/2022 8:00:00 AM 18.05 64.49 0.109 7.75 7.75 7.64
8/17/2022 8:15:00 AM 18.04 64.472 0.109 7.75 7.55 7.69
8/17/2022 8:30:00 AM 18.04 64.472 0.11 7.76 8.33 7.78
8/17/2022 8:45:00 AM 18.05 64.49 0.109 7.77 7.75 7.89
8/17/2022 9:00:00 AM 18.08 64.544 0.109 7.78 8.21 8.05
8/17/2022 9:15:00 AM 18.11 64.598 0.114 7.8 8.42 8.19
8/17/2022 9:30:00 AM 18.14 64.652 0.11 7.81 7.95 8.35
8/17/2022 9:45:00 AM 18.18 64.724 0.11 7.83 7.79 8.51
8/17/2022 10:00:00 AM 18.23 64.814 0.109 7.84 8.36 8.66
8/17/2022 10:15:00 AM 18.28 64.904 0.11 7.86 8.98 8.81
8/17/2022 10:30:00 AM 18.3 64.94 0.108 7.87 7.64 8.9
8/17/2022 10:45:00 AM 18.28 64.904 0.108 7.88 7.2 8.96
8/17/2022 11:00:00 AM 18.27 64.886 0.108 7.89 7.06 9.06
8/17/2022 11:15:00 AM 18.28 64.904 0.108 7.9 7.3 9.2
8/17/2022 11:30:00 AM 18.28 64.904 0.107 7.9 7.67 9.31
8/17/2022 11:45:00 AM 18.27 64.886 0.106 7.91 7.62 9.37
8/17/2022 12:00:00 PM 18.28 64.904 0.107 7.91 8.14 9.42
8/17/2022 12:15:00 PM 18.32 64.976 0.106 7.92 7.9 9.52
8/17/2022 12:30:00 PM 18.38 65.084 0.106 7.93 8.14 9.61
8/17/2022 12:45:00 PM 18.46 65.228 0.106 7.94 7.17 9.71
8/17/2022 1:00:00 PM 18.54 65.372 0.106 7.95 7.01 9.79
8/17/2022 1:15:00 PM 18.62 65.516 0.106 7.96 7.17 9.83
8/17/2022 1:30:00 PM 18.71 65.67799 0.107 7.97 6.71 9.86
8/17/2022 1:45:00 PM 18.8 65.84 0.107 7.98 6.82 9.89
8/17/2022 2:00:00 PM 18.94 66.092 0.109 8 6.12 10.05
8/17/2022 2:15:00 PM 19.02 66.236 0.109 8.01 6.05 10.08
8/17/2022 2:30:00 PM 19.16 66.488 0.109 8.02 6.08 10.11
8/17/2022 2:45:00 PM 19.26 66.668 0.111 8.02 5.79 10.04
8/17/2022 3:00:00 PM 19.29 66.722 0.112 8.01 6.7 9.75
8/17/2022 3:15:00 PM 19.36 66.848 0.112 8.01 6.28 9.56
8/17/2022 3:30:00 PM 19.45 67.01 0.112 8 7.77 9.41
8/17/2022 3:45:00 PM 19.47 67.046 0.113 7.99 6.64 9.22
8/17/2022 4:00:00 PM 19.5 67.1 0.115 7.97 7.52 9.06
8/17/2022 4:15:00 PM 19.52 67.136 0.134 7.96 6.48 8.95
8/17/2022 4:30:00 PM 19.53 67.154 0.133 7.94 6.31 8.85
8/17/2022 4:45:00 PM 19.57 67.226 0.133 7.93 6.01 8.74
8/17/2022 5:00:00 PM 19.63 67.334 0.133 7.93 6.25 8.74
8/17/2022 5:15:00 PM 19.7 67.46 0.132 7.94 5.88 8.77
8/17/2022 5:30:00 PM 19.79 67.622 0.132 7.95 8.31 8.8
8/17/2022 5:45:00 PM 19.88 67.784 0.134 7.96 7.03 8.83
8/17/2022 6:00:00 PM 19.98 67.964 0.134 7.97 8.2 8.84
8/17/2022 6:15:00 PM 20.05 68.09 0.13 7.97 10.55 8.79
8/17/2022 6:30:00 PM 20.09 68.162 0.122 7.96 13.05 8.75
8/17/2022 6:45:00 PM 20.11 68.198 0.112 7.95 10.26 8.68
8/17/2022 7:00:00 PM 20.12 68.216 0.117 7.95 10 8.63
8/17/2022 7:15:00 PM 20.1 68.18 0.119 7.94 10.27 8.53
8/17/2022 7:30:00 PM 20.06 68.108 0.121 7.92 9.21 8.41
8/17/2022 7:45:00 PM 20.01 68.018 0.118 7.9 9.36 8.28
8/17/2022 8:00:00 PM 19.93 67.874 0.12 7.88 9.5 8.15
8/17/2022 8:15:00 PM 19.83 67.694 0.12 7.87 9.13 8.03
8/17/2022 8:30:00 PM 19.73 67.514 0.121 7.85 10.11 7.95
8/17/2022 8:45:00 PM 19.62 67.316 0.123 7.83 11.34 7.88
8/17/2022 9:00:00 PM 19.54 67.172 0.123 7.82 11.52 7.81
8/17/2022 9:15:00 PM 19.46 67.028 0.123 7.81 11.97 7.77
8/17/2022 9:30:00 PM 19.39 66.902 0.123 7.8 10.35 7.74
8/17/2022 9:45:00 PM 19.33 66.794 0.124 7.79 10.94 7.71
8/17/2022 10:00:00 PM 19.27 66.686 0.124 7.79 10.61 7.71
8/17/2022 10:15:00 PM 19.21 66.578 0.123 7.78 10.34 7.72
8/17/2022 10:30:00 PM 19.15 66.47 0.114 7.78 10.59 7.74
8/17/2022 10:45:00 PM 19.06 66.308 0.113 7.79 11.44 7.77
8/17/2022 11:00:00 PM 18.97 66.146 0.1 7.78 10.51 7.79
8/17/2022 11:15:00 PM 18.88 65.984 0.093 7.78 11.01 7.8
8/17/2022 11:30:00 PM 18.79 65.82201 0.084 7.77 11.35 7.79
8/17/2022 11:45:00 PM 18.71 65.67799 0.078 7.76 11.12 7.74
8/18/2022 12:00:00 AM 18.64 65.552 0.071 7.75 11.26 7.68
8/18/2022 12:15:00 AM 18.57 65.426 0.067 7.73 11.45 7.6
8/18/2022 12:30:00 AM 18.51 65.318 0.062 7.72 11.17 7.5
8/18/2022 12:45:00 AM 18.46 65.228 0.069 7.7 11.09 7.4
8/18/2022 1:00:00 AM 18.43 65.174 0.077 7.68 11.41 7.31
8/18/2022 1:15:00 AM 18.42 65.156 0.072 7.67 10.94 7.22
8/18/2022 1:30:00 AM 18.41 65.138 0.071 7.65 11.08 7.14
8/18/2022 1:45:00 AM 18.4 65.12 0.077 7.64 12.59 7.08
8/18/2022 2:00:00 AM 18.4 65.12 0.081 7.63 11.68 7.02
8/18/2022 2:15:00 AM 18.4 65.12 0.084 7.62 11.12 6.97
8/18/2022 2:30:00 AM 18.4 65.12 0.087 7.61 11.31 6.94
8/18/2022 2:45:00 AM 18.39 65.102 0.09 7.61 11.34 6.92
8/18/2022 3:00:00 AM 18.38 65.084 0.091 7.61 10.74 6.91
8/18/2022 3:15:00 AM 18.37 65.066 0.09 7.61 10.64 6.91
8/18/2022 3:30:00 AM 18.35 65.03 0.092 7.61 11.88 6.9
8/18/2022 3:45:00 AM 18.32 64.976 0.092 7.61 11.3 6.91
8/18/2022 4:00:00 AM 18.29 64.922 0.094 7.61 11.25 6.92
8/18/2022 4:15:00 AM 18.26 64.868 0.095 7.61 11.3 6.93
8/18/2022 4:30:00 AM 18.22 64.796 0.097 7.61 11.82 6.96
8/18/2022 4:45:00 AM 18.18 64.724 0.098 7.62 10.34 6.97
8/18/2022 5:00:00 AM 18.15 64.67 0.099 7.62 11.08 6.99
8/18/2022 5:15:00 AM 18.1 64.58 0.094 7.62 10.25 7.02
8/18/2022 5:30:00 AM 18.06 64.508 0.094 7.62 10.43 7.04
8/18/2022 5:45:00 AM 18.01 64.418 0.095 7.62 10.47 7.06
8/18/2022 6:00:00 AM 17.97 64.346 0.096 7.63 11.11 7.09
8/18/2022 6:15:00 AM 17.92 64.256 0.097 7.63 10.59 7.11
8/18/2022 6:30:00 AM 17.87 64.166 0.097 7.63 10.02 7.15
8/18/2022 6:45:00 AM 17.81 64.058 0.097 7.64 9.54 7.19
8/18/2022 7:00:00 AM 17.77 63.986 0.098 7.64 9.02 7.25
8/18/2022 7:15:00 AM 17.72 63.896 0.099 7.65 8.83 7.28
8/18/2022 7:30:00 AM 17.68 63.824 0.1 7.65 8.86 7.34
8/18/2022 7:45:00 AM 17.64 63.752 0.099 7.66 8.28 7.39
8/18/2022 8:00:00 AM 17.61 63.698 0.099 7.66 8.93 7.45
8/18/2022 8:15:00 AM 17.59 63.662 0.099 7.67 7.9 7.5
8/18/2022 8:30:00 AM 17.57 63.626 0.101 7.68 7.39 7.57
8/18/2022 8:45:00 AM 17.56 63.608 0.1 7.68 7.24 7.66
8/18/2022 9:00:00 AM 17.56 63.608 0.1 7.69 7.37 7.75
8/18/2022 9:15:00 AM 17.59 63.662 0.096 7.71 7.08 7.87
8/18/2022 9:30:00 AM 17.62 63.716 0.098 7.72 7.05 8.01
8/18/2022 9:45:00 AM 17.67 63.806 0.096 7.74 7.38 8.18
8/18/2022 10:00:00 AM 17.73 63.914 0.096 7.75 7.36 8.34
8/18/2022 10:15:00 AM 17.8 64.04 0.097 7.77 7.37 8.49
8/18/2022 10:30:00 AM 17.88 64.184 0.097 7.79 7.62 8.64
8/18/2022 10:45:00 AM 17.97 64.346 0.097 7.8 7.57 8.76
8/18/2022 11:00:00 AM 18.06 64.508 0.098 7.81 8.69 8.88
8/18/2022 11:15:00 AM 18.16 64.688 0.098 7.83 8.69 8.99
8/18/2022 11:30:00 AM 18.26 64.868 0.098 7.84 7.88 9.09
8/18/2022 11:45:00 AM 18.38 65.084 0.099 7.85 9.04 9.17
8/18/2022 12:00:00 PM 18.5 65.3 0.099 7.85 8.04 9.24
8/18/2022 12:15:00 PM 18.65 65.57 0.1 7.87 7.78 9.32
8/18/2022 12:30:00 PM 18.8 65.84 0.101 7.88 7.2 9.39
8/18/2022 12:45:00 PM 18.96 66.128 0.101 7.89 7.23 9.45
8/18/2022 1:00:00 PM 19.16 66.488 0.102 7.9 6.85 9.56
8/18/2022 1:15:00 PM 19.36 66.848 0.103 7.92 6.35 9.65
8/18/2022 1:30:00 PM 19.57 67.226 0.103 7.93 6.28 9.73
8/18/2022 1:45:00 PM 19.79 67.622 0.105 7.95 6.67 9.8
8/18/2022 2:00:00 PM 20.01 68.018 0.105 7.96 6.19 9.85
8/18/2022 2:15:00 PM 20.22 68.396 0.107 7.98 6.71 9.86
8/18/2022 2:30:00 PM 20.41 68.738 0.108 7.98 6.66 9.83
8/18/2022 2:45:00 PM 20.62 69.116 0.109 7.99 6.34 9.82
8/18/2022 3:00:00 PM 20.81 69.458 0.111 8 5.95 9.76
8/18/2022 3:15:00 PM 21.01 69.818 0.112 8.01 5.86 9.73
8/18/2022 3:30:00 PM 21.21 70.17799 0.113 8.01 5.77 9.68
8/18/2022 3:45:00 PM 21.38 70.484 0.114 8.02 5.6 9.61
8/18/2022 4:00:00 PM 21.51 70.718 0.116 8.02 6.11 9.5
8/18/2022 4:15:00 PM 21.64 70.952 0.117 8.02 5.68 9.42
8/18/2022 4:30:00 PM 21.74 71.132 0.118 8.02 5.67 9.31
8/18/2022 4:45:00 PM 21.84 71.312 0.119 8.02 5.48 9.23
8/18/2022 5:00:00 PM 21.95 71.51 0.12 8.02 5.44 9.18
8/18/2022 5:15:00 PM 22.03 71.654 0.123 8.02 6.28 9.11
8/18/2022 5:30:00 PM 22.08 71.744 0.123 8.02 5.74 8.95
8/18/2022 5:45:00 PM 22.11 71.798 0.123 8.01 5.84 8.81
8/18/2022 6:00:00 PM 22.12 71.816 0.124 8 5.95 8.7
8/18/2022 6:15:00 PM 22.14 71.852 0.124 7.99 6.03 8.59
8/18/2022 6:30:00 PM 22.15 71.87 0.125 7.99 6.21 8.51
8/18/2022 6:45:00 PM 22.14 71.852 0.125 7.98 6.02 8.43
8/18/2022 7:00:00 PM 22.13 71.834 0.126 7.97 6.09 8.34
8/18/2022 7:15:00 PM 22.12 71.816 0.126 7.96 5.87 8.25
8/18/2022 7:30:00 PM 22.09 71.762 0.126 7.95 5.91 8.19
8/18/2022 7:45:00 PM 22.05 71.69 0.126 7.94 6.28 8.08
8/18/2022 8:00:00 PM 22.01 71.618 0.126 7.94 6.19 8.01
8/18/2022 8:15:00 PM 21.96 71.528 0.126 7.93 7.6 7.91
8/18/2022 8:30:00 PM 21.89 71.402 0.128 7.92 8.37 7.8
8/18/2022 8:45:00 PM 21.8 71.24 0.127 7.9 8.89 7.7
8/18/2022 9:00:00 PM 21.71 71.078 0.126 7.89 9.9 7.62
8/18/2022 9:15:00 PM 21.61 70.898 0.126 7.88 10.12 7.56
8/18/2022 9:30:00 PM 21.5 70.7 0.127 7.87 11.27 7.52
8/18/2022 9:45:00 PM 21.39 70.502 0.125 7.86 10.81 7.5
8/18/2022 10:00:00 PM 21.28 70.304 0.124 7.85 10.63 7.48
8/18/2022 10:15:00 PM 21.17 70.106 0.123 7.84 10.91 7.45
8/18/2022 10:30:00 PM 21.05 69.89 0.123 7.83 10.52 7.43
8/18/2022 10:45:00 PM 20.93 69.674 0.123 7.82 10.39 7.41
8/18/2022 11:00:00 PM 20.82 69.476 0.122 7.82 10.55 7.39
8/18/2022 11:15:00 PM 20.71 69.278 0.122 7.81 10.26 7.38
8/18/2022 11:30:00 PM 20.62 69.116 0.122 7.8 11.93 7.35
8/18/2022 11:45:00 PM 20.52 68.936 0.122 7.79 10.98 7.34
8/19/2022 12:00:00 AM 20.43 68.774 0.122 7.79 12.63 7.31
8/19/2022 12:15:00 AM 20.33 68.594 0.121 7.78 11.31 7.3
8/19/2022 12:30:00 AM 20.22 68.396 0.12 7.78 12.02 7.29
8/19/2022 12:45:00 AM 20.12 68.216 0.121 7.77 11.06 7.28
8/19/2022 1:00:00 AM 20.02 68.036 0.12 7.76 11.05 7.27
8/19/2022 1:15:00 AM 19.93 67.874 0.12 7.76 12.13 7.27
8/19/2022 1:30:00 AM 19.83 67.694 0.12 7.75 12.41 7.25
8/19/2022 1:45:00 AM 19.75 67.55 0.12 7.75 12.54 7.24
8/19/2022 2:00:00 AM 19.67 67.406 0.12 7.74 12.41 7.23
8/19/2022 2:15:00 AM 19.6 67.28 0.121 7.74 11.88 7.22
8/19/2022 2:30:00 AM 19.53 67.154 0.12 7.74 11.81 7.2
8/19/2022 2:45:00 AM 19.47 67.046 0.119 7.73 13.75 7.19
8/19/2022 3:00:00 AM 19.4 66.92 0.12 7.73 12.81 7.19
8/19/2022 3:15:00 AM 19.34 66.812 0.119 7.73 12.2 7.19
8/19/2022 3:30:00 AM 19.27 66.686 0.12 7.73 11.83 7.2
8/19/2022 3:45:00 AM 19.2 66.56 0.12 7.73 11.53 7.22
8/19/2022 4:00:00 AM 19.13 66.434 0.119 7.73 11.05 7.23
8/19/2022 4:15:00 AM 19.06 66.308 0.121 7.73 11.28 7.25
8/19/2022 4:30:00 AM 18.99 66.182 0.12 7.73 11.59 7.26
8/19/2022 4:45:00 AM 18.92 66.056 0.119 7.73 10.81 7.28
8/19/2022 5:00:00 AM 18.86 65.948 0.119 7.73 11.56 7.29
8/19/2022 5:15:00 AM 18.79 65.82201 0.12 7.73 10.89 7.3
8/19/2022 5:30:00 AM 18.73 65.714 0.12 7.73 11.02 7.32
8/19/2022 5:45:00 AM 18.66 65.588 0.119 7.73 10.73 7.32
8/19/2022 6:00:00 AM 18.6 65.48 0.119 7.73 10.96 7.34
8/19/2022 6:15:00 AM 18.54 65.372 0.118 7.72 10.37 7.35
8/19/2022 6:30:00 AM 18.48 65.264 0.117 7.73 9.91 7.37
8/19/2022 6:45:00 AM 18.43 65.174 0.118 7.73 9.56 7.4
8/19/2022 7:00:00 AM 18.37 65.066 0.118 7.73 9.15 7.43
8/19/2022 7:15:00 AM 18.33 64.994 0.118 7.73 8.88 7.45
8/19/2022 7:30:00 AM 18.29 64.922 0.118 7.73 8.02 7.49
8/19/2022 7:45:00 AM 18.25 64.85 0.118 7.73 8.09 7.53
8/19/2022 8:00:00 AM 18.22 64.796 0.118 7.74 8.34 7.58
8/19/2022 8:15:00 AM 18.2 64.76 0.118 7.74 7.91 7.64
8/19/2022 8:30:00 AM 18.18 64.724 0.117 7.75 7.43 7.7
8/19/2022 8:45:00 AM 18.16 64.688 0.116 7.75 7.55 7.76
8/19/2022 9:00:00 AM 18.16 64.688 0.117 7.76 7.31 7.85
8/19/2022 9:15:00 AM 18.18 64.724 0.116 7.77 7.17 7.97
8/19/2022 9:30:00 AM 18.21 64.778 0.114 7.78 8.22 8.09
8/19/2022 9:45:00 AM 18.26 64.868 0.114 7.79 7.62 8.24
8/19/2022 10:00:00 AM 18.31 64.958 0.114 7.81 7.38 8.4
8/19/2022 10:15:00 AM 18.37 65.066 0.114 7.82 7.69 8.54
8/19/2022 10:30:00 AM 18.44 65.192 0.114 7.83 8.26 8.67
8/19/2022 10:45:00 AM 18.52 65.336 0.114 7.85 7.38 8.83
8/19/2022 11:00:00 AM 18.61 65.498 0.113 7.86 7.37 8.96
8/19/2022 11:15:00 AM 18.7 65.66 0.114 7.87 7.05 9.08
8/19/2022 11:30:00 AM 18.79 65.82201 0.112 7.88 7.38 9.16
8/19/2022 11:45:00 AM 18.88 65.984 0.113 7.89 8.04 9.23
8/19/2022 12:00:00 PM 19 66.2 0.113 7.9 6.76 9.3
8/19/2022 12:15:00 PM 19.14 66.452 0.114 7.91 6.61 9.39
8/19/2022 12:30:00 PM 19.3 66.74 0.114 7.92 6.4 9.47
8/19/2022 12:45:00 PM 19.48 67.064 0.115 7.93 6.46 9.57
8/19/2022 1:00:00 PM 19.68 67.424 0.116 7.95 6.08 9.66
8/19/2022 1:15:00 PM 19.87 67.766 0.118 7.96 6.22 9.74
8/19/2022 1:30:00 PM 20.01 68.018 0.117 7.97 6.1 9.73
8/19/2022 1:45:00 PM 20.19 68.342 0.117 7.98 5.91 9.75
8/19/2022 2:00:00 PM 20.35 68.63 0.118 7.99 6.07 9.71
8/19/2022 2:15:00 PM 20.55 68.99 0.119 8 5.81 9.74
8/19/2022 2:30:00 PM 20.73 69.314 0.12 8.01 5.86 9.76
8/19/2022 2:45:00 PM 20.87 69.566 0.122 8.01 6.1 9.68
8/19/2022 3:00:00 PM 20.98 69.764 0.123 8 6.43 9.51
8/19/2022 3:15:00 PM 21.14 70.052 0.124 7.99 6.27 9.43
8/19/2022 3:30:00 PM 21.29 70.32201 0.126 8 6.19 9.4
8/19/2022 3:45:00 PM 21.39 70.502 0.126 7.99 6.37 9.26
8/19/2022 4:00:00 PM 21.52 70.736 0.126 7.99 6.61 9.14
8/19/2022 4:15:00 PM 21.63 70.934 0.128 7.99 6.1 9.07
8/19/2022 4:30:00 PM 21.76 71.168 0.13 7.99 5.86 9.04
8/19/2022 4:45:00 PM 21.91 71.438 0.131 7.99 5.56 9.01
8/19/2022 5:00:00 PM 22 71.6 0.133 7.99 6.44 8.91
8/19/2022 5:15:00 PM 22.09 71.762 0.134 7.99 5.87 8.82
8/19/2022 5:30:00 PM 22.16 71.888 0.136 7.99 5.86 8.77
8/19/2022 5:45:00 PM 22.24 72.032 0.135 7.99 6.12 8.76
8/19/2022 6:00:00 PM 22.31 72.158 0.137 8 5.87 8.72
8/19/2022 6:15:00 PM 22.34 72.212 0.137 8 5.93 8.65
8/19/2022 6:30:00 PM 22.34 72.212 0.136 7.99 5.73 8.54
8/19/2022 6:45:00 PM 22.33 72.194 0.136 7.99 5.73 8.44
8/19/2022 7:00:00 PM 22.31 72.158 0.137 7.98 6.83 8.34
8/19/2022 7:15:00 PM 22.29 72.122 0.136 7.97 6.12 8.24
8/19/2022 7:30:00 PM 22.26 72.068 0.137 7.96 5.74 8.17
8/19/2022 7:45:00 PM 22.23 72.014 0.137 7.95 5.74 8.09
8/19/2022 8:00:00 PM 22.18 71.924 0.138 7.93 6.43 7.97
8/19/2022 8:15:00 PM 22.13 71.834 0.138 7.92 6.68 7.86
8/19/2022 8:30:00 PM 22.07 71.726 0.138 7.91 9.42 7.77
8/19/2022 8:45:00 PM 22.01 71.618 0.136 7.9 10.16 7.68
8/19/2022 9:00:00 PM 21.95 71.51 0.136 7.88 9.72 7.59
8/19/2022 9:15:00 PM 21.88 71.384 0.137 7.87 9.33 7.52
8/19/2022 9:30:00 PM 21.8 71.24 0.136 7.86 10.01 7.47
8/19/2022 9:45:00 PM 21.73 71.114 0.136 7.85 9.56 7.43
8/19/2022 10:00:00 PM 21.65 70.97 0.135 7.84 9.3 7.4
8/19/2022 10:15:00 PM 21.58 70.844 0.135 7.84 9.61 7.38
8/19/2022 10:30:00 PM 21.5 70.7 0.134 7.83 9.01 7.36
8/19/2022 10:45:00 PM 21.43 70.574 0.134 7.83 9.72 7.34
8/19/2022 11:00:00 PM 21.35 70.43 0.134 7.82 10.17 7.34
8/19/2022 11:15:00 PM 21.28 70.304 0.133 7.82 9.92 7.32
8/19/2022 11:30:00 PM 21.2 70.16 0.133 7.81 9.46 7.31
8/19/2022 11:45:00 PM 21.13 70.034 0.132 7.8 9.48 7.29
8/20/2022 12:00:00 AM 21.06 69.908 0.131 7.8 10.3 7.27
8/20/2022 12:15:00 AM 20.99 69.782 0.13 7.79 11.32 7.27
8/20/2022 12:30:00 AM 20.92 69.656 0.131 7.78 10.79 7.27
8/20/2022 12:45:00 AM 20.85 69.53 0.13 7.78 10.33 7.26
8/20/2022 1:00:00 AM 20.78 69.404 0.13 7.77 10.94 7.25
8/20/2022 1:15:00 AM 20.72 69.296 0.13 7.77 11.39 7.23
8/20/2022 1:30:00 AM 20.67 69.206 0.13 7.76 10.64 7.22
8/20/2022 1:45:00 AM 20.61 69.098 0.131 7.75 10.08 7.2
8/20/2022 2:00:00 AM 20.56 69.008 0.13 7.75 9.88 7.17
8/20/2022 2:15:00 AM 20.51 68.918 0.131 7.74 10.21 7.16
8/20/2022 2:30:00 AM 20.46 68.828 0.131 7.74 10.12 7.14
8/20/2022 2:45:00 AM 20.41 68.738 0.13 7.74 9.96 7.13
8/20/2022 3:00:00 AM 20.37 68.666 0.132 7.73 9.56 7.13
8/20/2022 3:15:00 AM 20.31 68.558 0.13 7.73 9.89 7.12
8/20/2022 3:30:00 AM 20.27 68.486 0.13 7.73 9.86 7.13
8/20/2022 3:45:00 AM 20.22 68.396 0.129 7.72 10.81 7.13
8/20/2022 4:00:00 AM 20.17 68.306 0.129 7.72 10.5 7.14
8/20/2022 4:15:00 AM 20.12 68.216 0.129 7.72 9.79 7.15
8/20/2022 4:30:00 AM 20.07 68.126 0.127 7.72 10.05 7.15
8/20/2022 4:45:00 AM 20.03 68.054 0.125 7.72 10.63 7.15
8/20/2022 5:00:00 AM 19.99 67.982 0.123 7.72 11.31 7.15
8/20/2022 5:15:00 AM 19.94 67.892 0.124 7.72 11.66 7.16
8/20/2022 5:30:00 AM 19.89 67.802 0.124 7.72 12.72 7.16
8/20/2022 5:45:00 AM 19.85 67.73 0.124 7.72 12.16 7.17
8/20/2022 6:00:00 AM 19.81 67.658 0.125 7.72 12.21 7.17
8/20/2022 6:15:00 AM 19.78 67.604 0.311 7.71 13.92 7.17
8/20/2022 6:30:00 AM 19.76 67.568 0.174 7.72 10.64 7.18
8/20/2022 6:45:00 AM 19.73 67.514 0.16 7.72 9.97 7.18
8/20/2022 7:00:00 AM 19.71 67.478 0.154 7.71 9.81 7.21
8/20/2022 7:15:00 AM 19.69 67.442 0.149 7.72 9.22 7.24
8/20/2022 7:30:00 AM 19.68 67.424 0.145 7.72 8.92 7.29
8/20/2022 7:45:00 AM 19.66 67.388 0.144 7.72 8.87 7.32
8/20/2022 8:00:00 AM 19.65 67.37 0.142 7.73 8.74 7.38
8/20/2022 8:15:00 AM 19.64 67.352 0.141 7.73 7.9 7.46
8/20/2022 8:30:00 AM 19.63 67.334 0.141 7.74 8.43 7.53
8/20/2022 8:45:00 AM 19.63 67.334 0.141 7.74 7.85 7.6
8/20/2022 9:00:00 AM 19.63 67.334 0.139 7.75 7.18 7.7
8/20/2022 9:15:00 AM 19.63 67.334 0.138 7.76 6.93 7.79
8/20/2022 9:30:00 AM 19.64 67.352 0.138 7.77 7.05 7.91
8/20/2022 9:45:00 AM 19.65 67.37 0.138 7.78 6.95 8
8/20/2022 10:00:00 AM 19.69 67.442 0.137 7.79 6.69 8.12
8/20/2022 10:15:00 AM 19.74 67.532 0.135 7.81 6.71 8.3
8/20/2022 10:30:00 AM 19.81 67.658 0.135 7.83 6.83 8.5
8/20/2022 10:45:00 AM 19.89 67.802 0.136 7.85 6.77 8.66
8/20/2022 11:00:00 AM 19.99 67.982 0.136 7.86 6.73 8.81
8/20/2022 11:15:00 AM 20.1 68.18 0.136 7.88 6.28 8.92
8/20/2022 11:30:00 AM 20.19 68.342 0.136 7.9 6.51 9.01
8/20/2022 11:45:00 AM 20.33 68.594 0.137 7.91 7.54 9.14
8/20/2022 12:00:00 PM 20.45 68.81 0.137 7.92 6.19 9.25
8/20/2022 12:15:00 PM 20.59 69.062 0.137 7.94 6.23 9.35
8/20/2022 12:30:00 PM 20.72 69.296 0.134 7.95 6.07 9.47
8/20/2022 12:45:00 PM 20.87 69.566 0.134 7.96 6.25 9.52
8/20/2022 1:00:00 PM 21 69.8 0.129 7.97 5.99 9.55
8/20/2022 1:15:00 PM 21.15 70.07 0.13 7.98 6.38 9.6
8/20/2022 1:30:00 PM 21.31 70.358 0.13 7.99 6.52 9.63
8/20/2022 1:45:00 PM 21.41 70.538 0.132 8 6.41 9.66
8/20/2022 2:00:00 PM 21.49 70.682 0.131 8 6.51 9.61
8/20/2022 2:15:00 PM 21.58 70.844 0.129 8.01 6.38 9.6
8/20/2022 2:30:00 PM 21.71 71.078 0.13 8.02 6.36 9.68
8/20/2022 2:45:00 PM 21.82 71.276 0.131 8.03 6.55 9.69
8/20/2022 3:00:00 PM 21.92 71.456 0.134 8.03 6.14 9.67
8/20/2022 3:15:00 PM 21.99 71.582 0.133 8.03 5.93 9.53
8/20/2022 3:30:00 PM 22.11 71.798 0.137 8.03 5.92 9.49
8/20/2022 3:45:00 PM 22.28 72.104 0.136 8.04 6.42 9.49
8/20/2022 4:00:00 PM 22.43 72.374 0.133 8.04 5.96 9.42
8/20/2022 4:15:00 PM 22.57 72.626 0.136 8.04 5.96 9.34
8/20/2022 4:30:00 PM 22.7 72.86 0.139 8.04 5.98 9.21
8/20/2022 4:45:00 PM 22.84 73.112 0.141 8.04 5.92 9.12
8/20/2022 5:00:00 PM 22.98 73.364 0.141 8.04 5.64 9.05
8/20/2022 5:15:00 PM 23.12 73.616 0.145 8.04 5.66 8.94
8/20/2022 5:30:00 PM 23.21 73.778 0.141 8.03 6.77 8.83
8/20/2022 5:45:00 PM 23.28 73.904 0.139 8.02 5.69 8.72
8/20/2022 6:00:00 PM 23.32 73.976 0.132 8.02 5.92 8.6
8/20/2022 6:15:00 PM 23.34 74.012 0.129 8.01 7.08 8.47
8/20/2022 6:30:00 PM 23.34 74.012 0.129 8 5.5 8.32
8/20/2022 6:45:00 PM 23.32 73.976 0.131 7.99 5.41 8.23
8/20/2022 7:00:00 PM 23.28 73.904 0.129 7.98 6.07 8.11
8/20/2022 7:15:00 PM 23.23 73.814 0.127 7.97 6.42 8
8/20/2022 7:30:00 PM 23.16 73.688 0.118 7.96 6.11 7.91
8/20/2022 7:45:00 PM 23.09 73.562 0.124 7.95 5.32 7.85
8/20/2022 8:00:00 PM 23.01 73.418 0.126 7.94 6.02 7.79
8/20/2022 8:15:00 PM 22.91 73.238 0.122 7.93 6.82 7.69
8/20/2022 8:30:00 PM 22.82 73.076 0.11 7.91 7.82 7.59
8/20/2022 8:45:00 PM 22.72 72.896 0.105 7.9 9.06 7.49
8/20/2022 9:00:00 PM 22.61 72.698 0.106 7.89 9.69 7.42
8/20/2022 9:15:00 PM 22.51 72.518 0.11 7.88 11.27 7.35
8/20/2022 9:30:00 PM 22.41 72.338 0.111 7.87 12.12 7.28
8/20/2022 9:45:00 PM 22.31 72.158 0.112 7.86 10.68 7.25
8/20/2022 10:00:00 PM 22.21 71.978 0.112 7.86 10.41 7.24
8/20/2022 10:15:00 PM 22.12 71.816 0.109 7.85 10.25 7.21
8/20/2022 10:30:00 PM 22.04 71.672 0.11 7.85 9.94 7.22
8/20/2022 10:45:00 PM 21.96 71.528 0.111 7.85 9.97 7.21
8/20/2022 11:00:00 PM 21.88 71.384 0.11 7.84 11.14 7.19
8/20/2022 11:15:00 PM 21.79 71.222 0.108 7.83 14.13 7.17
8/20/2022 11:30:00 PM 21.7 71.06 0.11 7.83 13.48 7.17
8/20/2022 11:45:00 PM 21.61 70.898 0.112 7.82 12.52 7.15
8/21/2022 12:00:00 AM 21.51 70.718 0.112 7.81 11.73 7.15
8/21/2022 12:15:00 AM 21.42 70.556 0.107 7.81 11.26 7.12
8/21/2022 12:30:00 AM 21.32 70.376 0.109 7.8 10.98 7.11
8/21/2022 12:45:00 AM 21.22 70.196 0.113 7.79 10.24 7.09
8/21/2022 1:00:00 AM 21.12 70.016 0.113 7.79 9.99 7.08
8/21/2022 1:15:00 AM 21.03 69.854 0.114 7.78 10.64 7.06
8/21/2022 1:30:00 AM 20.93 69.674 0.115 7.77 10.48 7.05
8/21/2022 1:45:00 AM 20.84 69.512 0.116 7.77 10.29 7.05
8/21/2022 2:00:00 AM 20.75 69.35 0.115 7.76 10.64 7.04
8/21/2022 2:15:00 AM 20.66 69.188 0.117 7.76 10.15 7.03
8/21/2022 2:30:00 AM 20.58 69.044 0.117 7.76 10.76 7.04
8/21/2022 2:45:00 AM 20.5 68.9 0.118 7.75 11.68 7.04
8/21/2022 3:00:00 AM 20.43 68.774 0.119 7.75 12.08 7.04
8/21/2022 3:15:00 AM 20.35 68.63 0.117 7.75 11.32 7.05
8/21/2022 3:30:00 AM 20.29 68.522 0.12 7.74 11.86 7.05
8/21/2022 3:45:00 AM 20.22 68.396 0.119 7.74 10.99 7.06
8/21/2022 4:00:00 AM 20.16 68.288 0.12 7.74 11.14 7.06
8/21/2022 4:15:00 AM 20.09 68.162 0.121 7.74 10.32 7.07
8/21/2022 4:30:00 AM 20.03 68.054 0.121 7.74 10.64 7.08
8/21/2022 4:45:00 AM 19.98 67.964 0.122 7.74 10.73 7.09
8/21/2022 5:00:00 AM 19.91 67.838 0.123 7.74 10.77 7.1
8/21/2022 5:15:00 AM 19.86 67.748 0.123 7.74 10.96 7.1
8/21/2022 5:30:00 AM 19.81 67.658 0.122 7.74 10.72 7.1
8/21/2022 5:45:00 AM 19.75 67.55 0.122 7.74 11.23 7.12
8/21/2022 6:00:00 AM 19.7 67.46 0.124 7.74 11.49 7.12
8/21/2022 6:15:00 AM 19.65 67.37 0.123 7.74 10.07 7.14
8/21/2022 6:30:00 AM 19.6 67.28 0.124 7.74 9.81 7.15
8/21/2022 6:45:00 AM 19.57 67.226 0.125 7.74 9.44 7.18
8/21/2022 7:00:00 AM 19.53 67.154 0.125 7.74 9 7.22
8/21/2022 7:15:00 AM 19.5 67.1 0.123 7.74 8.8 7.27
8/21/2022 7:30:00 AM 19.48 67.064 0.126 7.75 8.72 7.32
8/21/2022 7:45:00 AM 19.47 67.046 0.124 7.75 8.65 7.39
8/21/2022 8:00:00 AM 19.46 67.028 0.126 7.75 8.45 7.46
8/21/2022 8:15:00 AM 19.46 67.028 0.125 7.76 8.26 7.55
8/21/2022 8:30:00 AM 19.47 67.046 0.127 7.77 8.47 7.64
8/21/2022 8:45:00 AM 19.48 67.064 0.126 7.78 8.47 7.71
8/21/2022 9:00:00 AM 19.5 67.1 0.127 7.78 7.72 7.81
8/21/2022 9:15:00 AM 19.52 67.136 0.127 7.8 7.78 7.95
8/21/2022 9:30:00 AM 19.54 67.172 0.128 7.81 7.5 8.04
8/21/2022 9:45:00 AM 19.57 67.226 0.128 7.82 8.36 8.13
8/21/2022 10:00:00 AM 19.61 67.298 0.127 7.83 7.76 8.24
8/21/2022 10:15:00 AM 19.64 67.352 0.127 7.84 7.71 8.28
8/21/2022 10:30:00 AM 19.66 67.388 0.128 7.85 7.35 8.39
8/21/2022 10:45:00 AM 19.75 67.55 0.127 7.87 8.23 8.62
8/21/2022 11:00:00 AM 19.85 67.73 0.127 7.88 7.77 8.81
8/21/2022 11:15:00 AM 19.94 67.892 0.127 7.9 7.66 9
8/21/2022 11:30:00 AM 19.97 67.946 0.127 7.92 7.58 9.14
8/21/2022 11:45:00 AM 20.06 68.108 0.126 7.93 7.46 9.26
8/21/2022 12:00:00 PM 20.2 68.36 0.126 7.95 7.5 9.38
8/21/2022 12:15:00 PM 20.35 68.63 0.126 7.97 7.4 9.54
8/21/2022 12:30:00 PM 20.43 68.774 0.128 7.98 6.93 9.61
8/21/2022 12:45:00 PM 20.51 68.918 0.127 7.99 6.61 9.65
8/21/2022 1:00:00 PM 20.59 69.062 0.127 7.99 6.51 9.67
8/21/2022 1:15:00 PM 20.71 69.278 0.127 8 6.65 9.74
8/21/2022 1:30:00 PM 20.82 69.476 0.128 8.02 6.78 9.82
8/21/2022 1:45:00 PM 20.89 69.602 0.127 8.03 6.82 9.89
8/21/2022 2:00:00 PM 21.01 69.818 0.129 8.04 6.73 9.99
8/21/2022 2:15:00 PM 21.08 69.944 0.128 8.05 6.42 9.98
8/21/2022 2:30:00 PM 21.19 70.142 0.128 8.05 6.17 9.98
8/21/2022 2:45:00 PM 21.31 70.358 0.129 8.07 6.38 9.96
8/21/2022 3:00:00 PM 21.41 70.538 0.13 8.07 6.22 9.93
8/21/2022 3:15:00 PM 21.51 70.718 0.132 8.08 6.26 9.92
8/21/2022 3:30:00 PM 21.6 70.88 0.131 8.08 6.05 9.86
8/21/2022 3:45:00 PM 21.66 70.988 0.133 8.08 5.89 9.74
8/21/2022 4:00:00 PM 21.76 71.168 0.134 8.08 6.01 9.67
8/21/2022 4:15:00 PM 21.83 71.294 0.134 8.08 5.96 9.63
8/21/2022 4:30:00 PM 21.88 71.384 0.135 8.08 5.9 9.52
8/21/2022 4:45:00 PM 21.94 71.492 0.137 8.08 7.2 9.44
8/21/2022 5:00:00 PM 22 71.6 0.139 8.07 6.45 9.31
8/21/2022 5:15:00 PM 22.05 71.69 0.139 8.07 6.41 9.21
8/21/2022 5:30:00 PM 22.13 71.834 0.141 8.06 5.96 9.12
8/21/2022 5:45:00 PM 22.2 71.96 0.143 8.05 6.2 9.01
8/21/2022 6:00:00 PM 22.26 72.068 0.143 8.05 6.17 8.89
8/21/2022 6:15:00 PM 22.29 72.122 0.145 8.04 6.28 8.75
8/21/2022 6:30:00 PM 22.31 72.158 0.145 8.03 5.72 8.61
8/21/2022 6:45:00 PM 22.32 72.176 0.147 8.02 5.6 8.49
8/21/2022 7:00:00 PM 22.32 72.176 0.146 8.01 5.84 8.35
8/21/2022 7:15:00 PM 22.31 72.158 0.148 8 6.23 8.25
8/21/2022 7:30:00 PM 22.3 72.14 0.147 7.99 5.71 8.17
8/21/2022 7:45:00 PM 22.28 72.104 0.149 7.98 6.05 8.12
8/21/2022 8:00:00 PM 22.26 72.068 0.148 7.97 6.65 8.04
8/21/2022 8:15:00 PM 22.24 72.032 0.149 7.96 7.73 7.93
8/21/2022 8:30:00 PM 22.21 71.978 0.148 7.95 10.07 7.83
8/21/2022 8:45:00 PM 22.17 71.906 0.148 7.94 8.77 7.71
8/21/2022 9:00:00 PM 22.13 71.834 0.149 7.93 9.02 7.62
8/21/2022 9:15:00 PM 22.09 71.762 0.149 7.91 9.46 7.54
8/21/2022 9:30:00 PM 22.04 71.672 0.151 7.9 9.65 7.46
8/21/2022 9:45:00 PM 21.99 71.582 0.151 7.89 14.2 7.41
8/21/2022 10:00:00 PM 21.94 71.492 0.151 7.88 16.51 7.34
8/21/2022 10:15:00 PM 21.88 71.384 0.152 7.87 13.5 7.33
8/21/2022 10:30:00 PM 21.82 71.276 0.151 7.86 12.27 7.32
8/21/2022 10:45:00 PM 21.76 71.168 0.152 7.86 12.33 7.3
8/21/2022 11:00:00 PM 21.7 71.06 0.152 7.85 11.47 7.28
8/21/2022 11:15:00 PM 21.63 70.934 0.153 7.85 11.34 7.25
8/21/2022 11:30:00 PM 21.56 70.808 0.152 7.84 10.13 7.22
8/21/2022 11:45:00 PM 21.49 70.682 0.153 7.83 10.37 7.2
8/22/2022 12:00:00 AM 21.42 70.556 0.152 7.82 10.77 7.17
8/22/2022 12:15:00 AM 21.35 70.43 0.152 7.82 10.79 7.16
8/22/2022 12:30:00 AM 21.28 70.304 0.152 7.81 10.04 7.14
8/22/2022 12:45:00 AM 21.22 70.196 0.15 7.8 10.11 7.12
8/22/2022 1:00:00 AM 21.16 70.088 0.151 7.79 10.22 7.1
8/22/2022 1:15:00 AM 21.09 69.962 0.15 7.78 10.34 7.08
8/22/2022 1:30:00 AM 21.03 69.854 0.151 7.78 10.35 7.07
8/22/2022 1:45:00 AM 20.97 69.746 0.15 7.78 9.94 7.05
8/22/2022 2:00:00 AM 20.92 69.656 0.149 7.77 10.01 7.04
8/22/2022 2:15:00 AM 20.86 69.548 0.149 7.77 9.62 7.02
8/22/2022 2:30:00 AM 20.81 69.458 0.149 7.76 9.71 7
8/22/2022 2:45:00 AM 20.75 69.35 0.149 7.76 9.82 6.99
8/22/2022 3:00:00 AM 20.71 69.278 0.148 7.75 9.66 6.97
8/22/2022 3:15:00 AM 20.66 69.188 0.147 7.75 9.9 6.96
8/22/2022 3:30:00 AM 20.62 69.116 0.15 7.74 10.35 6.95
8/22/2022 3:45:00 AM 20.58 69.044 0.149 7.74 10.68 6.94
8/22/2022 4:00:00 AM 20.54 68.972 0.148 7.74 11.14 6.94
8/22/2022 4:15:00 AM 20.51 68.918 0.147 7.74 11.14 6.93
8/22/2022 4:30:00 AM 20.48 68.864 0.148 7.74 10.57 6.92
8/22/2022 4:45:00 AM 20.46 68.828 0.148 7.73 11.19 6.92
8/22/2022 5:00:00 AM 20.43 68.774 0.148 7.73 11.02 6.92
8/22/2022 5:15:00 AM 20.41 68.738 0.149 7.73 11.22 6.93
8/22/2022 5:30:00 AM 20.39 68.702 0.148 7.73 10.52 6.92
8/22/2022 5:45:00 AM 20.37 68.666 0.149 7.73 11.12 6.91
8/22/2022 6:00:00 AM 20.35 68.63 0.148 7.73 10.77 6.9
8/22/2022 6:15:00 AM 20.32 68.576 0.149 7.73 10.99 6.91
8/22/2022 6:30:00 AM 20.3 68.54 0.149 7.72 11.21 6.91
8/22/2022 6:45:00 AM 20.27 68.486 0.148 7.72 10.33 6.92
8/22/2022 7:00:00 AM 20.25 68.45 0.148 7.72 12.08 6.94
8/22/2022 7:15:00 AM 20.22 68.396 0.15 7.72 9.46 6.97
8/22/2022 7:30:00 AM 20.2 68.36 0.153 7.73 8.79 7.01
8/22/2022 7:45:00 AM 20.17 68.306 0.154 7.73 8.7 7.04
8/22/2022 8:00:00 AM 20.15 68.27 0.169 7.73 7.92 7.1
8/22/2022 8:15:00 AM 20.12 68.216 0.182 7.74 7.57 7.13
8/22/2022 8:30:00 AM 20.09 68.162 0.171 7.74 7.68 7.19
8/22/2022 8:45:00 AM 20.06 68.108 0.172 7.74 7.81 7.23
8/22/2022 9:00:00 AM 20.03 68.054 0.17 7.75 7.65 7.29
8/22/2022 9:15:00 AM 20 68 0.172 7.75 7.42 7.38
8/22/2022 9:30:00 AM 19.96 67.92799 0.158 7.76 7.01 7.46
8/22/2022 9:45:00 AM 19.93 67.874 0.157 7.76 6.96 7.55
8/22/2022 10:00:00 AM 19.93 67.874 0.16 7.78 7.56 7.73
8/22/2022 10:15:00 AM 19.92 67.856 0.157 7.79 7.21 7.88
8/22/2022 10:30:00 AM 19.94 67.892 0.163 7.8 7.82 8.07
8/22/2022 10:45:00 AM 19.93 67.874 0.151 7.81 7.66 8.17
8/22/2022 11:00:00 AM 19.98 67.964 0.152 7.83 7.24 8.38
8/22/2022 11:15:00 AM 20.08 68.144 0.147 7.85 7.52 8.66
8/22/2022 11:30:00 AM 20.15 68.27 0.148 7.87 7.22 8.83
8/22/2022 11:45:00 AM 20.2 68.36 0.144 7.89 7.04 8.97
8/22/2022 12:00:00 PM 20.28 68.504 0.139 7.9 6.79 9.12
8/22/2022 12:15:00 PM 20.41 68.738 0.14 7.92 6.93 9.25
8/22/2022 12:30:00 PM 20.48 68.864 0.137 7.92 6.72 9.12
8/22/2022 12:45:00 PM 20.56 69.008 0.14 7.92 7.07 9.04
8/22/2022 1:00:00 PM 20.64 69.152 0.138 7.93 6.96 9.15
8/22/2022 1:15:00 PM 20.57 69.026 0.137 7.92 6.88 9.01
8/22/2022 1:30:00 PM 20.46 68.828 0.138 7.91 6.7 8.86
8/22/2022 1:45:00 PM 20.38 68.684 0.137 7.9 6.46 8.82
8/22/2022 2:00:00 PM 20.41 68.738 0.132 7.91 6.23 9.06
8/22/2022 2:15:00 PM 20.46 68.828 0.131 7.93 6.43 9.23
8/22/2022 2:30:00 PM 20.5 68.9 0.139 7.93 6.37 9.25
8/22/2022 2:45:00 PM 20.6 69.08 0.136 7.94 6.07 9.28
8/22/2022 3:00:00 PM 20.76 69.368 0.144 7.95 6.06 9.42
8/22/2022 3:15:00 PM 20.91 69.638 0.15 7.97 6.32 9.44
8/22/2022 3:30:00 PM 21.04 69.872 0.148 7.98 6.07 9.42
8/22/2022 3:45:00 PM 21.17 70.106 0.148 7.99 5.8 9.4
8/22/2022 4:00:00 PM 21.25 70.25 0.146 7.99 5.83 9.32
8/22/2022 4:15:00 PM 21.32 70.376 0.147 7.98 5.71 9.2
8/22/2022 4:30:00 PM 21.37 70.466 0.144 7.97 5.78 9.05
8/22/2022 4:45:00 PM 21.36 70.448 0.137 7.96 5.88 8.87
8/22/2022 5:00:00 PM 21.35 70.43 0.139 7.95 5.68 8.74
8/22/2022 5:15:00 PM 21.31 70.358 0.135 7.94 5.84 8.61
8/22/2022 5:30:00 PM 21.25 70.25 0.132 7.93 6.15 8.47
8/22/2022 5:45:00 PM 21.2 70.16 0.132 7.91 6.11 8.37
8/22/2022 6:00:00 PM 21.16 70.088 0.136 7.91 6.2 8.25
8/22/2022 6:15:00 PM 21.15 70.07 0.137 7.9 5.87 8.15
8/22/2022 6:30:00 PM 21.15 70.07 0.132 7.89 5.57 8.13
8/22/2022 6:45:00 PM 21.15 70.07 0.128 7.89 5.97 8.08
8/22/2022 7:00:00 PM 21.15 70.07 0.123 7.88 5.75 8.03
8/22/2022 7:15:00 PM 21.15 70.07 0.121 7.88 5.83 7.99
8/22/2022 7:30:00 PM 21.14 70.052 0.123 7.88 5.55 7.95
8/22/2022 7:45:00 PM 21.15 70.07 0.128 7.88 5.66 7.96
8/22/2022 8:00:00 PM 21.16 70.088 0.125 7.88 6.07 7.95
8/22/2022 8:15:00 PM 21.17 70.106 0.126 7.88 7.18 7.91
8/22/2022 8:30:00 PM 21.17 70.106 0.126 7.87 7.8 7.83
8/22/2022 8:45:00 PM 21.15 70.07 0.128 7.87 8.85 7.74
8/22/2022 9:00:00 PM 21.14 70.052 0.138 7.86 9.01 7.66
8/22/2022 9:15:00 PM 21.11 69.998 0.131 7.85 9.35 7.59
8/22/2022 9:30:00 PM 21.07 69.926 0.121 7.84 9.49 7.54
8/22/2022 9:45:00 PM 21.01 69.818 0.122 7.83 9.54 7.49
8/22/2022 10:00:00 PM 20.95 69.71 0.121 7.82 10.06 7.45
8/22/2022 10:15:00 PM 20.87 69.566 0.132 7.82 10.48 7.41
8/22/2022 10:30:00 PM 20.78 69.404 0.139 7.8 10.57 7.38
8/22/2022 10:45:00 PM 20.69 69.242 0.125 7.8 10.85 7.36
8/22/2022 11:00:00 PM 20.59 69.062 0.128 7.78 11.39 7.34
8/22/2022 11:15:00 PM 20.49 68.882 0.128 7.78 11.93 7.32
8/22/2022 11:30:00 PM 20.4 68.72 0.125 7.77 12.18 7.31
8/22/2022 11:45:00 PM 20.32 68.576 0.123 7.76 11.67 7.29
8/23/2022 12:00:00 AM 20.25 68.45 0.123 7.75 11.6 7.28
8/23/2022 12:15:00 AM 20.18 68.324 0.122 7.75 11.52 7.26
8/23/2022 12:30:00 AM 20.13 68.234 0.125 7.74 11.78 7.24
8/23/2022 12:45:00 AM 20.07 68.126 0.127 7.74 11.68 7.24
8/23/2022 1:00:00 AM 20.03 68.054 0.127 7.73 11.48 7.22
8/23/2022 1:15:00 AM 19.98 67.964 0.121 7.73 11.51 7.21
8/23/2022 1:30:00 AM 19.93 67.874 0.123 7.72 10.87 7.2
8/23/2022 1:45:00 AM 19.88 67.784 0.123 7.72 11.72 7.2
8/23/2022 2:00:00 AM 19.83 67.694 0.124 7.72 11.09 7.19
8/23/2022 2:15:00 AM 19.78 67.604 0.122 7.72 11.02 7.19
8/23/2022 2:30:00 AM 19.73 67.514 0.12 7.72 10.89 7.19
8/23/2022 2:45:00 AM 19.68 67.424 0.118 7.71 11.29 7.18
8/23/2022 3:00:00 AM 19.63 67.334 0.119 7.71 11.31 7.19
8/23/2022 3:15:00 AM 19.58 67.244 0.115 7.71 11.8 7.2
8/23/2022 3:30:00 AM 19.53 67.154 0.147 7.71 11.33 7.19
8/23/2022 3:45:00 AM 19.48 67.064 0.124 7.71 10.59 7.21
8/23/2022 4:00:00 AM 19.42 66.956 0.123 7.72 10.95 7.23
8/23/2022 4:15:00 AM 19.37 66.866 0.12 7.72 11.21 7.23
8/23/2022 4:30:00 AM 19.32 66.776 0.128 7.72 11.7 7.24
8/23/2022 4:45:00 AM 19.27 66.686 0.12 7.71 11.04 7.26
8/23/2022 5:00:00 AM 19.23 66.614 0.137 7.72 11.26 7.27
8/23/2022 5:15:00 AM 19.18 66.524 0.123 7.72 11.14 7.28
8/23/2022 5:30:00 AM 19.15 66.47 0.123 7.72 11.36 7.29
8/23/2022 5:45:00 AM 19.12 66.416 0.122 7.72 11.46 7.28
8/23/2022 6:00:00 AM 19.09 66.362 0.121 7.71 10.96 7.28
8/23/2022 6:15:00 AM 19.07 66.326 0.12 7.71 10.25 7.28
8/23/2022 6:30:00 AM 19.04 66.272 0.121 7.71 10.14 7.28
8/23/2022 6:45:00 AM 19.02 66.236 0.12 7.71 9.57 7.28
8/23/2022 7:00:00 AM 19 66.2 0.121 7.71 8.75 7.3
8/23/2022 7:15:00 AM 18.98 66.164 0.12 7.71 8.74 7.31
8/23/2022 7:30:00 AM 18.96 66.128 0.124 7.71 8.2 7.33
8/23/2022 7:45:00 AM 18.95 66.11 0.124 7.71 8.15 7.35
8/23/2022 8:00:00 AM 18.94 66.092 0.124 7.71 12.63 7.36
8/23/2022 8:15:00 AM 18.93 66.074 0.131 7.71 8.38 7.4
8/23/2022 8:30:00 AM 18.93 66.074 0.135 7.72 7.45 7.47
8/23/2022 8:45:00 AM 18.93 66.074 0.135 7.72 7.59 7.57
8/23/2022 9:00:00 AM 18.95 66.11 0.132 7.73 7.63 7.66
8/23/2022 9:15:00 AM 18.96 66.128 0.125 7.74 7.63 7.75
8/23/2022 9:30:00 AM 18.99 66.182 0.127 7.75 7.42 7.9
8/23/2022 9:45:00 AM 19 66.2 0.122 7.75 7.58 7.95
8/23/2022 10:00:00 AM 19.01 66.218 0.117 7.76 7.62 8.04
8/23/2022 10:15:00 AM 19.05 66.29 0.118 7.78 7.62 8.22
8/23/2022 10:30:00 AM 19.12 66.416 0.113 7.8 7.8 8.46
8/23/2022 10:45:00 AM 19.14 66.452 0.114 7.82 7.79 8.63
8/23/2022 11:00:00 AM 19.12 66.416 0.119 7.82 7.64 8.68
8/23/2022 11:15:00 AM 19.12 66.416 0.121 7.83 7.95 8.74
8/23/2022 11:30:00 AM 19.18 66.524 0.121 7.84 7.69 8.9
8/23/2022 11:45:00 AM 19.25 66.65 0.115 7.86 7.49 9.02
8/23/2022 12:00:00 PM 19.31 66.758 0.116 7.87 7.36 9.11
8/23/2022 12:15:00 PM 19.39 66.902 0.109 7.88 6.97 9.18
8/23/2022 12:30:00 PM 19.51 67.118 0.111 7.89 7.54 9.23
8/23/2022 12:45:00 PM 19.63 67.334 0.112 7.9 6.87 9.31
8/23/2022 1:00:00 PM 19.75 67.55 0.112 7.91 6.56 9.35
8/23/2022 1:15:00 PM 19.88 67.784 0.111 7.92 6.42 9.38
8/23/2022 1:30:00 PM 19.95 67.91 0.116 7.93 6.28 9.38
8/23/2022 1:45:00 PM 20.06 68.108 0.141 7.94 6.34 9.48
8/23/2022 2:00:00 PM 20.23 68.414 0.122 7.95 6.15 9.58
8/23/2022 2:15:00 PM 20.36 68.648 0.129 7.96 5.92 9.66
8/23/2022 2:30:00 PM 20.46 68.828 0.125 7.97 5.49 9.6
8/23/2022 2:45:00 PM 20.67 69.206 0.134 7.98 5.93 9.63
8/23/2022 3:00:00 PM 20.86 69.548 0.131 7.99 5.52 9.64
8/23/2022 3:15:00 PM 21.09 69.962 0.128 8.01 5.72 9.71
8/23/2022 3:30:00 PM 21.31 70.358 0.13 8.02 5.7 9.7
8/23/2022 3:45:00 PM 21.42 70.556 0.128 8.02 6.09 9.55
8/23/2022 4:00:00 PM 21.53 70.754 0.13 8.02 5.7 9.44
8/23/2022 4:15:00 PM 21.65 70.97 0.128 8.02 5.62 9.38
8/23/2022 4:30:00 PM 21.74 71.132 0.126 8.03 5.53 9.35
8/23/2022 4:45:00 PM 21.81 71.258 0.128 8.03 5.39 9.31
8/23/2022 5:00:00 PM 21.88 71.384 0.133 8.03 5.84 9.23
8/23/2022 5:15:00 PM 21.93 71.474 0.134 8.02 5.41 9.13
8/23/2022 5:30:00 PM 21.97 71.546 0.127 8.02 5.27 8.98
8/23/2022 5:45:00 PM 21.99 71.582 0.127 8.01 5.55 8.81
8/23/2022 6:00:00 PM 22.04 71.672 0.129 8.01 5.39 8.74
8/23/2022 6:15:00 PM 22.05 71.69 0.13 8 5.72 8.66
8/23/2022 6:30:00 PM 22.08 71.744 0.131 8 6.08 8.54
8/23/2022 6:45:00 PM 22.09 71.762 0.126 7.99 5.59 8.43
8/23/2022 7:00:00 PM 22.07 71.726 0.125 7.98 5.38 8.3
8/23/2022 7:15:00 PM 22.03 71.654 0.124 7.97 5.62 8.2
8/23/2022 7:30:00 PM 22 71.6 0.127 7.96 5.99 8.15
8/23/2022 7:45:00 PM 21.96 71.528 0.134 7.96 5.72 8.07
8/23/2022 8:00:00 PM 21.91 71.438 0.138 7.95 6.2 8
8/23/2022 8:15:00 PM 21.86 71.348 0.133 7.94 6.96 7.93
8/23/2022 8:30:00 PM 21.8 71.24 0.132 7.93 8.28 7.82
8/23/2022 8:45:00 PM 21.74 71.132 0.13 7.92 9.31 7.74
8/23/2022 9:00:00 PM 21.67 71.006 0.127 7.91 9.51 7.66
8/23/2022 9:15:00 PM 21.62 70.916 0.129 7.9 8.88 7.59
8/23/2022 9:30:00 PM 21.57 70.826 0.127 7.89 10.13 7.53
8/23/2022 9:45:00 PM 21.51 70.718 0.128 7.88 10.37 7.49
8/23/2022 10:00:00 PM 21.47 70.646 0.135 7.87 10.54 7.45
8/23/2022 10:15:00 PM 21.43 70.574 0.137 7.87 10.51 7.43
8/23/2022 10:30:00 PM 21.39 70.502 0.143 7.86 10.43 7.4
8/23/2022 10:45:00 PM 21.35 70.43 0.142 7.85 9.82 7.38
8/23/2022 11:00:00 PM 21.3 70.34 0.137 7.84 10.31 7.35
8/23/2022 11:15:00 PM 21.25 70.25 0.138 7.84 10.41 7.34
8/23/2022 11:30:00 PM 21.2 70.16 0.139 7.83 10.34 7.3
8/23/2022 11:45:00 PM 21.13 70.034 0.143 7.82 9.75 7.28
8/24/2022 12:00:00 AM 21.05 69.89 0.148 7.81 9.95 7.27
8/24/2022 12:15:00 AM 20.97 69.746 0.143 7.8 10.28 7.24
8/24/2022 12:30:00 AM 20.88 69.584 0.143 7.79 10.97 7.22
8/24/2022 12:45:00 AM 20.79 69.422 0.146 7.79 11.27 7.2
8/24/2022 1:00:00 AM 20.69 69.242 0.146 7.78 11.76 7.2
8/24/2022 1:15:00 AM 20.6 69.08 0.14 7.77 12.54 7.18
8/24/2022 1:30:00 AM 20.52 68.936 0.153 7.76 12.04 7.16
8/24/2022 1:45:00 AM 20.44 68.792 0.17 7.76 11.53 7.14
8/24/2022 2:00:00 AM 20.37 68.666 0.173 7.75 11.33 7.13
8/24/2022 2:15:00 AM 20.3 68.54 0.167 7.75 11.84 7.11
8/24/2022 2:30:00 AM 20.23 68.414 0.177 7.74 11.64 7.11
8/24/2022 2:45:00 AM 20.17 68.306 0.186 7.74 11.71 7.1
8/24/2022 3:00:00 AM 20.1 68.18 0.191 7.74 11.49 7.1
8/24/2022 3:15:00 AM 20.04 68.07201 0.197 7.73 12.27 7.1
8/24/2022 3:30:00 AM 19.97 67.946 0.195 7.73 10.98 7.1
8/24/2022 3:45:00 AM 19.92 67.856 0.197 7.73 11.16 7.09
8/24/2022 4:00:00 AM 19.87 67.766 0.21 7.73 11.34 7.09
8/24/2022 4:15:00 AM 19.81 67.658 0.208 7.73 11.52 7.09
8/24/2022 4:30:00 AM 19.76 67.568 0.216 7.73 11.56 7.09
8/24/2022 4:45:00 AM 19.71 67.478 0.231 7.73 11.35 7.09
8/24/2022 5:00:00 AM 19.66 67.388 0.234 7.73 11.48 7.11
8/24/2022 5:15:00 AM 19.61 67.298 0.234 7.72 11.42 7.11
8/24/2022 5:30:00 AM 19.56 67.208 0.237 7.73 11.65 7.11
8/24/2022 5:45:00 AM 19.52 67.136 0.237 7.72 12.17 7.11
8/24/2022 6:00:00 AM 19.47 67.046 0.229 7.72 12.22 7.12
8/24/2022 6:15:00 AM 19.42 66.956 0.245 7.72 11.16 7.13
8/24/2022 6:30:00 AM 19.37 66.866 0.25 7.72 11.14 7.14
8/24/2022 6:45:00 AM 19.32 66.776 0.246 7.72 10.35 7.16
8/24/2022 7:00:00 AM 19.27 66.686 0.241 7.72 9.99 7.19
8/24/2022 7:15:00 AM 19.23 66.614 0.236 7.73 9.34 7.22
8/24/2022 7:30:00 AM 19.2 66.56 0.238 7.73 8.87 7.26
8/24/2022 7:45:00 AM 19.16 66.488 0.239 7.73 8.47 7.31
8/24/2022 8:00:00 AM 19.13 66.434 0.233 7.74 8.33 7.35
8/24/2022 8:15:00 AM 19.11 66.398 0.233 7.74 9.01 7.39
8/24/2022 8:30:00 AM 19.08 66.344 0.233 7.74 8.98 7.46
8/24/2022 8:45:00 AM 19.07 66.326 0.233 7.75 8.22 7.51
8/24/2022 9:00:00 AM 19.07 66.326 0.228 7.76 8.67 7.6
8/24/2022 9:15:00 AM 19.07 66.326 0.228 7.77 8.87 7.71
8/24/2022 9:30:00 AM 19.1 66.38 0.244 7.78 8.44 7.83
8/24/2022 9:45:00 AM 19.13 66.434 0.239 7.79 8.07 7.99
8/24/2022 10:00:00 AM 19.19 66.542 0.237 7.81 7.66 8.16
8/24/2022 10:15:00 AM 19.24 66.632 0.242 7.83 8.02 8.31
8/24/2022 10:30:00 AM 19.3 66.74 0.242 7.84 7.74 8.48
8/24/2022 10:45:00 AM 19.37 66.866 0.244 7.86 7.9 8.66
8/24/2022 11:00:00 AM 19.44 66.992 0.243 7.87 8.39 8.8
8/24/2022 11:15:00 AM 19.5 67.1 0.239 7.88 7.65 8.9
8/24/2022 11:30:00 AM 19.52 67.136 0.233 7.89 7.42 8.97
8/24/2022 11:45:00 AM 19.61 67.298 0.229 7.91 7.09 9.11
8/24/2022 12:00:00 PM 19.67 67.406 0.226 7.92 7.36 9.22
8/24/2022 12:15:00 PM 19.77 67.586 0.223 7.93 7.41 9.34
8/24/2022 12:30:00 PM 19.87 67.766 0.225 7.94 6.95 9.43
8/24/2022 12:45:00 PM 19.97 67.946 0.222 7.95 6.86 9.46
8/24/2022 1:00:00 PM 20.12 68.216 0.22 7.96 6.58 9.58
8/24/2022 1:15:00 PM 20.22 68.396 0.221 7.97 6.58 9.56
8/24/2022 1:30:00 PM 20.37 68.666 0.224 7.98 6.11 9.64
8/24/2022 1:45:00 PM 20.52 68.936 0.222 7.99 7.59 9.71
8/24/2022 2:00:00 PM 20.64 69.152 0.226 8 6.04 9.75
8/24/2022 2:15:00 PM 20.69 69.242 0.227 8 6.08 9.67
8/24/2022 2:30:00 PM 20.69 69.242 0.226 8 5.94 9.54
8/24/2022 2:45:00 PM 20.77 69.386 0.227 8 5.92 9.5
8/24/2022 3:00:00 PM 20.84 69.512 0.23 8 5.83 9.42
8/24/2022 3:15:00 PM 20.98 69.764 0.25 8 5.94 9.43
8/24/2022 3:30:00 PM 21.08 69.944 0.249 8.01 6.26 9.41
8/24/2022 3:45:00 PM 21.19 70.142 0.257 8.01 5.91 9.34
8/24/2022 4:00:00 PM 21.35 70.43 0.249 8.02 5.75 9.35
8/24/2022 4:15:00 PM 21.46 70.628 0.253 8.02 6.28 9.3
8/24/2022 4:30:00 PM 21.57 70.826 0.252 8.02 6.3 9.25
8/24/2022 4:45:00 PM 21.73 71.114 0.256 8.03 6.55 9.22
8/24/2022 5:00:00 PM 21.81 71.258 0.265 8.03 6.92 9.13
8/24/2022 5:15:00 PM 21.89 71.402 0.265 8.03 6.84 9.04
8/24/2022 5:30:00 PM 21.98 71.564 0.269 8.03 6.58 8.95
8/24/2022 5:45:00 PM 22.05 71.69 0.273 8.03 6.36 8.87
8/24/2022 6:00:00 PM 22.11 71.798 0.274 8.03 6.4 8.78
8/24/2022 6:15:00 PM 22.16 71.888 0.292 8.03 6.15 8.69
8/24/2022 6:30:00 PM 22.18 71.924 0.291 8.02 5.92 8.58
8/24/2022 6:45:00 PM 22.18 71.924 0.308 8.01 5.89 8.46
8/24/2022 7:00:00 PM 22.17 71.906 0.304 8 5.78 8.36
8/24/2022 7:15:00 PM 22.15 71.87 0.3 8 5.71 8.25
8/24/2022 7:30:00 PM 22.11 71.798 0.297 7.99 5.61 8.18
8/24/2022 7:45:00 PM 22.06 71.708 0.299 7.98 6.13 8.09
8/24/2022 8:00:00 PM 22 71.6 0.3 7.96 6.23 7.97
8/24/2022 8:15:00 PM 21.91 71.438 0.295 7.95 7.49 7.86
8/24/2022 8:30:00 PM 21.82 71.276 0.278 7.94 7.88 7.75
8/24/2022 8:45:00 PM 21.73 71.114 0.279 7.93 8.76 7.66
8/24/2022 9:00:00 PM 21.64 70.952 0.277 7.91 8.97 7.59
8/24/2022 9:15:00 PM 21.55 70.79 0.271 7.9 9.39 7.54
8/24/2022 9:30:00 PM 21.47 70.646 0.272 7.89 8.69 7.49
8/24/2022 9:45:00 PM 21.38 70.484 0.27 7.89 9.51 7.47
8/24/2022 10:00:00 PM 21.29 70.32201 0.273 7.88 9.38 7.45
8/24/2022 10:15:00 PM 21.21 70.17799 0.269 7.87 9.88 7.43
8/24/2022 10:30:00 PM 21.13 70.034 0.273 7.86 9.52 7.42
8/24/2022 10:45:00 PM 21.06 69.908 0.275 7.86 9.88 7.42
8/24/2022 11:00:00 PM 20.98 69.764 0.268 7.86 9.12 7.42
8/24/2022 11:15:00 PM 20.91 69.638 0.266 7.85 9.71 7.42
8/24/2022 11:30:00 PM 20.82 69.476 0.263 7.85 10.24 7.41
8/24/2022 11:45:00 PM 20.75 69.35 0.261 7.84 10.04 7.41
8/25/2022 12:00:00 AM 20.67 69.206 0.261 7.84 10.14 7.4
8/25/2022 12:15:00 AM 20.58 69.044 0.257 7.83 10.72 7.39
8/25/2022 12:30:00 AM 20.49 68.882 0.264 7.83 10.89 7.38
8/25/2022 12:45:00 AM 20.38 68.684 0.256 7.82 10.73 7.38
8/25/2022 1:00:00 AM 20.28 68.504 0.257 7.81 11.09 7.35
8/25/2022 1:15:00 AM 20.18 68.324 0.255 7.81 11.5 7.35
8/25/2022 1:30:00 AM 20.08 68.144 0.251 7.8 10.91 7.34
8/25/2022 1:45:00 AM 19.98 67.964 0.255 7.79 10.48 7.32
8/25/2022 2:00:00 AM 19.89 67.802 0.254 7.79 11.76 7.31
8/25/2022 2:15:00 AM 19.8 67.64 0.258 7.78 11.01 7.3
8/25/2022 2:30:00 AM 19.71 67.478 0.256 7.78 12.13 7.3
8/25/2022 2:45:00 AM 19.63 67.334 0.252 7.77 11.12 7.28
8/25/2022 3:00:00 AM 19.56 67.208 0.253 7.77 10.98 7.28
8/25/2022 3:15:00 AM 19.5 67.1 0.254 7.77 10.67 7.27
8/25/2022 3:30:00 AM 19.43 66.974 0.256 7.76 10.82 7.27
8/25/2022 3:45:00 AM 19.37 66.866 0.254 7.76 10.65 7.26
8/25/2022 4:00:00 AM 19.31 66.758 0.252 7.76 11.4 7.26
8/25/2022 4:15:00 AM 19.25 66.65 0.253 7.76 11.1 7.26
8/25/2022 4:30:00 AM 19.19 66.542 0.263 7.76 10.88 7.27
8/25/2022 4:45:00 AM 19.13 66.434 0.259 7.76 11.09 7.26
8/25/2022 5:00:00 AM 19.08 66.344 0.258 7.76 11.99 7.28
8/25/2022 5:15:00 AM 19.02 66.236 0.258 7.75 13.32 7.28
8/25/2022 5:30:00 AM 18.96 66.128 0.26 7.75 11.76 7.29
8/25/2022 5:45:00 AM 18.9 66.02 0.257 7.75 11 7.3
8/25/2022 6:00:00 AM 18.85 65.93 0.255 7.75 11.17 7.3
8/25/2022 6:15:00 AM 18.79 65.82201 0.251 7.75 10.52 7.32
8/25/2022 6:30:00 AM 18.74 65.732 0.258 7.75 9.74 7.34
8/25/2022 6:45:00 AM 18.68 65.624 0.257 7.75 9.77 7.36
8/25/2022 7:00:00 AM 18.64 65.552 0.252 7.75 9.18 7.39
8/25/2022 7:15:00 AM 18.59 65.462 0.251 7.76 9.38 7.42
8/25/2022 7:30:00 AM 18.55 65.39 0.254 7.76 9.08 7.46
8/25/2022 7:45:00 AM 18.52 65.336 0.252 7.76 8.57 7.51
8/25/2022 8:00:00 AM 18.49 65.282 0.252 7.76 8.58 7.54
8/25/2022 8:15:00 AM 18.47 65.246 0.249 7.77 8.75 7.59
8/25/2022 8:30:00 AM 18.46 65.228 0.249 7.77 8.16 7.64
8/25/2022 8:45:00 AM 18.45 65.21 0.246 7.77 8.13 7.71
8/25/2022 9:00:00 AM 18.45 65.21 0.245 7.78 9.76 7.79
8/25/2022 9:15:00 AM 18.47 65.246 0.249 7.79 8.18 7.89
8/25/2022 9:30:00 AM 18.5 65.3 0.242 7.8 8.02 8
8/25/2022 9:45:00 AM 18.55 65.39 0.238 7.81 8.04 8.16
8/25/2022 10:00:00 AM 18.61 65.498 0.234 7.82 8.45 8.32
8/25/2022 10:15:00 AM 18.68 65.624 0.232 7.84 8.82 8.47